Provisional Data: Tuscarora Creek near Woodhull, NY


Please select a monitoring station.
Please select start date.
Please select start date.

Toggle Unit: C/F Toggle Unit: C/F
Sample Time Temperature (C) Temperature (F) Specific Conductivity (mS/cm) pH   Turbidity (NTU+) DO (mg/L)
10/17/2022 12:00:00 AM 11.18 52.124 0.573 7.94 1.41 9.77
10/17/2022 12:15:00 AM 11.1 51.98 0.573 7.92 2.62 9.66
10/17/2022 12:30:00 AM 11.02 51.836 0.573 7.91 1.4 9.58
10/17/2022 12:45:00 AM 10.95 51.71 0.573 7.91 1.54 9.54
10/17/2022 1:00:00 AM 10.87 51.566 0.574 7.87 1.42 9.44
10/17/2022 1:15:00 AM 10.77 51.386 0.574 7.89 1.5 9.41
10/17/2022 1:30:00 AM 10.71 51.278 0.574 7.87 1.37 9.36
10/17/2022 1:45:00 AM 10.62 51.116 0.575 7.87 1.41 9.32
10/17/2022 2:00:00 AM 10.54 50.972 0.575 7.86 1.52 9.28
10/17/2022 2:15:00 AM 10.47 50.846 0.576 7.86 2.84 9.26
10/17/2022 2:30:00 AM 10.36 50.648 0.575 7.87 1.43 9.29
10/17/2022 2:45:00 AM 10.28 50.504 0.576 7.85 2.64 9.27
10/17/2022 3:00:00 AM 10.22 50.396 0.576 7.85 1.65 9.26
10/17/2022 3:15:00 AM 10.14 50.252 0.576 7.84 1.6 9.25
10/17/2022 3:30:00 AM 10.07 50.126 0.576 7.84 1.49 9.25
10/17/2022 3:45:00 AM 10.01 50.018 0.577 7.83 1.81 9.25
10/17/2022 4:00:00 AM 9.94 49.892 0.577 7.83 1.78 9.25
10/17/2022 4:15:00 AM 9.84 49.712 0.577 7.83 2.99 9.29
10/17/2022 4:30:00 AM 9.8 49.64 0.577 7.82 1.83 9.26
10/17/2022 4:45:00 AM 9.74 49.532 0.577 7.82 1.81 9.26
10/17/2022 5:00:00 AM 9.65 49.37 0.578 7.82 1.47 9.3
10/17/2022 5:15:00 AM 9.58 49.244 0.578 7.82 1.68 9.32
10/17/2022 5:30:00 AM 9.52 49.136 0.578 7.82 1.63 9.34
10/17/2022 5:45:00 AM 9.45 49.01 0.578 7.82 1.48 9.36
10/17/2022 6:00:00 AM 9.39 48.902 0.579 7.81 2.65 9.37
10/17/2022 6:15:00 AM 9.35 48.83 0.579 7.81 1.81 9.38
10/17/2022 6:30:00 AM 9.3 48.74 0.579 7.81 1.64 9.41
10/17/2022 6:45:00 AM 9.24 48.632 0.58 7.81 2.85 9.44
10/17/2022 7:00:00 AM 9.21 48.578 0.58 7.81 1.79 9.42
10/17/2022 7:15:00 AM 9.15 48.47 0.581 7.79 2.69 9.46
10/17/2022 7:30:00 AM 9.11 48.398 0.581 7.81 2.75 9.49
10/17/2022 7:45:00 AM 9.09 48.362 0.581 7.81 1.56 9.51
10/17/2022 8:00:00 AM 9.05 48.29 0.581 7.81 1.58 9.58
10/17/2022 8:15:00 AM 9.05 48.29 0.582 7.81 1.46 9.64
10/17/2022 8:30:00 AM 9.04 48.272 0.582 7.82 1.5 9.68
10/17/2022 8:45:00 AM 9.04 48.272 0.582 7.83 1.51 9.83
10/17/2022 9:00:00 AM 9.09 48.362 0.582 7.85 1.42 9.94
10/17/2022 9:15:00 AM 9.06 48.308 0.582 7.86 1.41 10.05
10/17/2022 9:30:00 AM 9.12 48.416 0.582 7.87 1.37 10.13
10/17/2022 9:45:00 AM 9.15 48.47 0.582 7.87 1.38 10.13
10/17/2022 10:00:00 AM 9.21 48.578 0.583 7.88 2.67 10.24
10/17/2022 10:15:00 AM 9.33 48.794 0.582 7.89 1.84 10.29
10/17/2022 10:30:00 AM 9.4 48.92 0.582 7.89 1.4 10.33
10/17/2022 10:45:00 AM 9.37 48.866 0.583 7.88 1.34 10.23
10/17/2022 11:00:00 AM 9.43 48.974 0.583 7.87 2.58 10.22
10/17/2022 11:15:00 AM 9.63 49.334 0.582 7.91 1.48 10.45
10/17/2022 11:30:00 AM 9.68 49.424 0.582 7.92 1.33 10.54
10/17/2022 11:45:00 AM 9.69 49.442 0.582 7.93 2.66 10.6
10/17/2022 12:00:00 PM 9.76 49.568 0.582 7.92 1.35 10.61
10/17/2022 12:15:00 PM 9.86 49.748 0.582 7.91 1.43 10.62
10/17/2022 12:30:00 PM 10.09 50.162 0.582 7.92 2.79 10.72
10/17/2022 12:45:00 PM 10.07 50.126 0.581 7.93 2.45 10.69
10/17/2022 1:00:00 PM 10.11 50.198 0.581 7.91 1.37 10.68
10/17/2022 1:15:00 PM 10.23 50.414 0.581 7.91 1.72 10.73
10/17/2022 1:30:00 PM 10.3 50.54 0.581 7.9 3.37 10.73
10/17/2022 1:45:00 PM 10.27 50.486 0.581 7.95 1.44 10.9
10/17/2022 2:00:00 PM 10.32 50.576 0.581 7.94 1.19 10.94
10/17/2022 2:15:00 PM 10.51 50.918 0.581 7.95 2.74 11.01
10/17/2022 2:30:00 PM 10.66 51.188 0.58 7.98 1.35 11.09
10/17/2022 2:45:00 PM 10.85 51.53 0.58 7.97 1.28 11.13
10/17/2022 3:00:00 PM 10.97 51.746 0.579 8.02 1.31 11.24
10/17/2022 3:15:00 PM 10.93 51.674 0.579 8.02 1.32 11.24
10/17/2022 3:30:00 PM 10.9 51.62 0.579 8 1.26 11.17
10/17/2022 3:45:00 PM 10.92 51.656 0.579 8.02 1.2 11.17
10/17/2022 4:00:00 PM 10.9 51.62 0.578 8.01 1.25 11.12
10/17/2022 4:15:00 PM 10.85 51.53 0.578 8.02 1.21 11.14
10/17/2022 4:30:00 PM 10.84 51.512 0.578 8.03 1.23 11.17
10/17/2022 4:45:00 PM 10.81 51.458 0.578 8.04 1.23 11.18
10/17/2022 5:00:00 PM 10.8 51.44 0.577 8.05 1.14 11.19
10/17/2022 5:15:00 PM 10.79 51.422 0.577 8.06 1.25 11.16
10/17/2022 5:30:00 PM 10.8 51.44 0.577 8.04 2.39 11.11
10/17/2022 5:45:00 PM 10.82 51.476 0.577 8.05 1.19 11.11
10/17/2022 6:00:00 PM 10.81 51.458 0.576 8.07 1.43 11.14
10/17/2022 6:15:00 PM 10.74 51.332 0.577 8.06 2.43 11.06
10/17/2022 6:30:00 PM 10.65 51.17 0.577 8.06 2.55 11.02
10/17/2022 6:45:00 PM 10.59 51.062 0.576 8.07 1.46 10.99
10/17/2022 7:00:00 PM 10.58 51.044 0.576 8.02 3.15 10.83
10/17/2022 7:15:00 PM 10.53 50.954 0.577 7.99 2.54 10.68
10/17/2022 7:30:00 PM 10.5 50.9 0.576 7.98 1.33 10.61
10/17/2022 7:45:00 PM 10.44 50.792 0.576 7.98 1.24 10.58
10/17/2022 8:00:00 PM 10.35 50.63 0.576 8 2.51 10.66
10/17/2022 8:15:00 PM 10.29 50.522 0.575 8.04 2.28 10.76
10/17/2022 8:30:00 PM 10.23 50.414 0.575 8.03 2.91 10.71
10/17/2022 8:45:00 PM 10.14 50.252 0.576 8.02 2.68 10.64
10/17/2022 9:00:00 PM 10.07 50.126 0.575 8.04 2.41 10.65
10/17/2022 9:15:00 PM 10.01 50.018 0.576 8.02 1.39 10.59
10/17/2022 9:30:00 PM 9.94 49.892 0.576 8.02 1.38 10.57
10/17/2022 9:45:00 PM 9.86 49.748 0.576 8.02 2.86 10.55
10/17/2022 10:00:00 PM 9.77 49.586 0.576 8.02 1.33 10.5
10/17/2022 10:15:00 PM 9.66 49.388 0.576 8.01 2.57 10.47
10/17/2022 10:30:00 PM 9.57 49.226 0.576 8.01 1.33 10.43
10/17/2022 10:45:00 PM 9.46 49.028 0.577 8.01 1.29 10.4
10/17/2022 11:00:00 PM 9.32 48.776 0.577 8.01 1.43 10.39
10/17/2022 11:15:00 PM 9.21 48.578 0.577 7.99 1.35 10.33
10/17/2022 11:30:00 PM 9.1 48.38 0.577 7.99 2.04 10.32
10/17/2022 11:45:00 PM 8.95 48.11 0.578 7.99 2.95 10.33
10/18/2022 12:00:00 AM 8.83 47.894 0.578 7.98 1.48 10.31
10/18/2022 12:15:00 AM 8.71 47.678 0.578 7.98 1.6 10.27
10/18/2022 12:30:00 AM 8.59 47.462 0.579 7.96 1.5 10.23
10/18/2022 12:45:00 AM 8.49 47.282 0.579 7.94 1.41 10.17
10/18/2022 1:00:00 AM 8.41 47.138 0.58 7.93 2.28 10.11
10/18/2022 1:15:00 AM 8.27 46.886 0.58 7.93 1.6 10.13
10/18/2022 1:30:00 AM 8.21 46.778 0.58 7.93 1.51 10.11
10/18/2022 1:45:00 AM 8.1 46.58 0.58 7.92 1.57 10.15
10/18/2022 2:00:00 AM 8.01 46.418 0.58 7.92 1.46 10.14
10/18/2022 2:15:00 AM 7.95 46.31 0.581 7.91 2.63 10.13
10/18/2022 2:30:00 AM 7.88 46.184 0.581 7.9 2.69 10.12
10/18/2022 2:45:00 AM 7.83 46.094 0.581 7.9 1.45 10.1
10/18/2022 3:00:00 AM 7.71 45.878 0.581 7.9 2.7 10.12
10/18/2022 3:15:00 AM 7.65 45.77 0.581 7.89 1.56 10.12
10/18/2022 3:30:00 AM 7.56 45.608 0.582 7.88 1.58 10.12
10/18/2022 3:45:00 AM 7.48 45.464 0.582 7.88 1.92 10.13
10/18/2022 4:00:00 AM 7.41 45.338 0.582 7.88 2.68 10.12
10/18/2022 4:15:00 AM 7.34 45.212 0.582 7.88 1.5 10.13
10/18/2022 4:30:00 AM 7.28 45.104 0.582 7.87 1.55 10.14
10/18/2022 4:45:00 AM 7.19 44.942 0.583 7.87 1.53 10.17
10/18/2022 5:00:00 AM 7.17 44.906 0.583 7.87 1.69 10.16
10/18/2022 5:15:00 AM 7.06 44.708 0.583 7.87 1.53 10.19
10/18/2022 5:30:00 AM 6.98 44.564 0.583 7.87 1.52 10.22
10/18/2022 5:45:00 AM 6.91 44.438 0.584 7.87 1.46 10.24
10/18/2022 6:00:00 AM 6.88 44.384 0.584 7.86 1.48 10.24
10/18/2022 6:15:00 AM 6.81 44.258 0.584 7.87 1.44 10.26
10/18/2022 6:30:00 AM 6.76 44.168 0.585 7.86 1.39 10.28
10/18/2022 6:45:00 AM 6.69 44.042 0.585 7.87 1.42 10.32
10/18/2022 7:00:00 AM 6.71 44.078 0.585 7.86 1.33 10.31
10/18/2022 7:15:00 AM 6.67 44.006 0.586 7.87 1.34 10.34
10/18/2022 7:30:00 AM 6.65 43.97 0.586 7.85 1.32 10.34
10/18/2022 7:45:00 AM 6.62 43.916 0.586 7.85 1.41 10.36
10/18/2022 8:00:00 AM 6.64 43.952 0.587 7.85 1.26 10.42
10/18/2022 8:15:00 AM 6.66 43.988 0.587 7.86 1.39 10.47
10/18/2022 8:30:00 AM 6.44 43.592 0.588 7.89 1.25 10.7
10/18/2022 8:45:00 AM 6.47 43.646 0.588 7.9 1.29 10.76
10/18/2022 9:00:00 AM 6.47 43.646 0.588 7.9 1.24 10.85
10/18/2022 9:15:00 AM 6.48 43.664 0.588 7.92 1.38 10.96
10/18/2022 9:30:00 AM 6.54 43.772 0.588 7.92 1.28 11.01
10/18/2022 9:45:00 AM 6.6 43.88 0.588 7.93 1.27 11.09
10/18/2022 10:00:00 AM 6.67 44.006 0.588 7.93 1.28 11.12
10/18/2022 10:15:00 AM 6.69 44.042 0.588 7.95 1.27 11.24
10/18/2022 10:30:00 AM 6.79 44.222 0.588 7.95 1.22 11.32
10/18/2022 10:45:00 AM 6.87 44.366 0.588 7.98 1.23 11.41
10/18/2022 11:00:00 AM 6.88 44.384 0.588 7.99 1.23 11.5
10/18/2022 11:15:00 AM 6.94 44.492 0.588 7.98 1.27 11.51
10/18/2022 11:30:00 AM 7.05 44.69 0.588 7.99 1.33 11.51
10/18/2022 11:45:00 AM 7.16 44.888 0.588 8 1.22 11.56
10/18/2022 12:00:00 PM 7.42 45.356 0.588 7.99 1.26 11.62
10/18/2022 12:15:00 PM 7.75 45.95 0.588 7.98 1.2 11.58
10/18/2022 12:30:00 PM 7.75 45.95 0.588 7.97 1.18 11.52
10/18/2022 12:45:00 PM 7.74 45.932 0.588 7.98 1.19 11.55
10/18/2022 1:00:00 PM 7.75 45.95 0.588 8 2.48 11.65
10/18/2022 1:15:00 PM 7.84 46.112 0.588 8 2.51 11.66
10/18/2022 1:30:00 PM 7.93 46.274 0.588 8.01 2.33 11.72
10/18/2022 1:45:00 PM 7.99 46.382 0.588 8.01 1.15 11.72
10/18/2022 2:00:00 PM 8.13 46.634 0.588 8.01 1.67 11.73
10/18/2022 2:15:00 PM 8.2 46.76 0.587 8.01 1.17 11.67
10/18/2022 2:30:00 PM 8.4 47.12 0.587 8.02 1.18 11.77
10/18/2022 2:45:00 PM 8.47 47.246 0.587 8.02 1.19 11.7
10/18/2022 3:00:00 PM 8.56 47.408 0.587 8.01 1.14 11.7
10/18/2022 3:15:00 PM 8.69 47.642 0.586 8.04 1.17 11.81
10/18/2022 3:30:00 PM 8.75 47.75 0.586 8.04 2.47 11.84
10/18/2022 3:45:00 PM 8.72 47.696 0.586 8.04 1.19 11.78
10/18/2022 4:00:00 PM 8.71 47.678 0.586 8.07 1.18 11.87
10/18/2022 4:15:00 PM 8.81 47.858 0.585 8.07 1.13 11.91
10/18/2022 4:30:00 PM 8.85 47.93 0.585 8.08 1.17 11.81
10/18/2022 4:45:00 PM 8.8 47.84 0.584 8.09 3.86 11.82
10/18/2022 5:00:00 PM 8.78 47.804 0.584 8.09 1.4 11.87
10/18/2022 5:15:00 PM 8.8 47.84 0.584 8.1 1.41 11.85
10/18/2022 5:30:00 PM 8.81 47.858 0.584 8.08 1.37 11.78
10/18/2022 5:45:00 PM 8.82 47.876 0.584 8.09 3.17 11.75
10/18/2022 6:00:00 PM 8.84 47.912 0.583 8.05 1.61 11.62
10/18/2022 6:15:00 PM 8.81 47.858 0.583 8.07 1.4 11.66
10/18/2022 6:30:00 PM 8.79 47.822 0.583 8.07 1.25 11.57
10/18/2022 6:45:00 PM 8.77 47.786 0.583 8.08 1.27 11.57
10/18/2022 7:00:00 PM 8.71 47.678 0.583 8.07 1.47 11.51
10/18/2022 7:15:00 PM 8.65 47.57 0.583 8.09 1.61 11.53
10/18/2022 7:30:00 PM 8.65 47.57 0.583 8.07 2.08 11.46
10/18/2022 7:45:00 PM 8.64 47.552 0.582 8.08 1.39 11.42
10/18/2022 8:00:00 PM 8.66 47.588 0.582 8.08 1.29 11.39
10/18/2022 8:15:00 PM 8.63 47.534 0.582 8.07 1.26 11.37
10/18/2022 8:30:00 PM 8.56 47.408 0.582 8.08 2.61 11.37
10/18/2022 8:45:00 PM 8.5 47.3 0.582 8.06 1.25 11.32
10/18/2022 9:00:00 PM 8.45 47.21 0.582 8.07 1.31 11.3
10/18/2022 9:15:00 PM 8.4 47.12 0.582 8.07 1.33 11.27
10/18/2022 9:30:00 PM 8.33 46.994 0.582 8.06 1.56 11.21
10/18/2022 9:45:00 PM 8.27 46.886 0.582 8.05 1.38 11.13
10/18/2022 10:00:00 PM 8.21 46.778 0.582 8.02 1.42 11.03
10/18/2022 10:15:00 PM 8.12 46.616 0.583 8.02 1.28 10.98
10/18/2022 10:30:00 PM 8.04 46.472 0.583 8.01 1.32 10.94
10/18/2022 10:45:00 PM 7.99 46.382 0.583 7.99 1.32 10.86
10/18/2022 11:00:00 PM 7.87 46.166 0.583 7.99 1.33 10.83
10/18/2022 11:15:00 PM 7.78 46.004 0.583 7.98 1.97 10.79
10/18/2022 11:30:00 PM 7.71 45.878 0.584 7.97 1.48 10.74
10/18/2022 11:45:00 PM 7.62 45.716 0.584 7.97 1.54 10.72
10/19/2022 12:00:00 AM 7.58 45.644 0.584 7.94 1.56 10.65
10/19/2022 12:15:00 AM 7.49 45.482 0.584 7.94 1.6 10.63
10/19/2022 12:30:00 AM 7.36 45.248 0.585 7.94 1.52 10.62
10/19/2022 12:45:00 AM 7.29 45.122 0.585 7.93 1.49 10.59
10/19/2022 1:00:00 AM 7.21 44.978 0.585 7.91 1.55 10.59
10/19/2022 1:15:00 AM 7.14 44.852 0.585 7.93 1.58 10.6
10/19/2022 1:30:00 AM 7.04 44.672 0.586 7.93 1.37 10.64
10/19/2022 1:45:00 AM 7.03 44.654 0.586 7.93 1.45 10.61
10/19/2022 2:00:00 AM 7 44.6 0.586 7.91 1.39 10.6
10/19/2022 2:15:00 AM 7 44.6 0.586 7.91 1.95 10.58
10/19/2022 2:30:00 AM 6.96 44.528 0.586 7.91 3.12 10.59
10/19/2022 2:45:00 AM 6.93 44.474 0.586 7.91 1.73 10.58
10/19/2022 3:00:00 AM 6.91 44.438 0.586 7.91 1.74 10.58
10/19/2022 3:15:00 AM 6.9 44.42 0.586 7.89 1.48 10.55
10/19/2022 3:30:00 AM 6.81 44.258 0.587 7.9 1.46 10.58
10/19/2022 3:45:00 AM 6.84 44.312 0.587 7.89 1.4 10.54
10/19/2022 4:00:00 AM 6.78 44.204 0.587 7.89 1.42 10.56
10/19/2022 4:15:00 AM 6.71 44.078 0.587 7.89 1.39 10.59
10/19/2022 4:30:00 AM 6.71 44.078 0.587 7.88 1.65 10.56
10/19/2022 4:45:00 AM 6.7 44.06 0.588 7.88 1.9 10.55
10/19/2022 5:00:00 AM 6.66 43.988 0.588 7.89 1.83 10.57
10/19/2022 5:15:00 AM 6.69 44.042 0.588 7.88 1.85 10.54
10/19/2022 5:30:00 AM 6.6 43.88 0.588 7.88 3.67 10.59
10/19/2022 5:45:00 AM 6.62 43.916 0.589 7.88 2.67 10.55
10/19/2022 6:00:00 AM 6.57 43.826 0.589 7.87 1.69 10.58
10/19/2022 6:15:00 AM 6.55 43.79 0.589 7.87 1.5 10.58
10/19/2022 6:30:00 AM 6.51 43.718 0.589 7.86 1.37 10.59
10/19/2022 6:45:00 AM 6.55 43.79 0.589 7.86 1.53 10.55
10/19/2022 7:00:00 AM 6.53 43.754 0.59 7.86 1.52 10.56
10/19/2022 7:15:00 AM 6.48 43.664 0.59 7.87 1.36 10.61
10/19/2022 7:30:00 AM 6.44 43.592 0.59 7.88 1.41 10.63
10/19/2022 7:45:00 AM 6.47 43.646 0.59 7.87 1.42 10.61
10/19/2022 8:00:00 AM 6.41 43.538 0.59 7.88 1.37 10.68
10/19/2022 8:15:00 AM 6.48 43.664 0.591 7.87 1.42 10.65
10/19/2022 8:30:00 AM 6.43 43.574 0.591 7.88 1.3 10.77
10/19/2022 8:45:00 AM 6.43 43.574 0.591 7.9 1.29 10.89
10/19/2022 9:00:00 AM 6.48 43.664 0.591 7.91 1.34 10.98
10/19/2022 9:15:00 AM 6.55 43.79 0.591 7.91 1.34 10.99
10/19/2022 9:30:00 AM 6.62 43.916 0.591 7.92 1.24 11.13
10/19/2022 9:45:00 AM 6.71 44.078 0.59 7.93 1.21 11.21
10/19/2022 10:00:00 AM 6.67 44.006 0.591 7.95 1.33 11.28
10/19/2022 10:15:00 AM 6.83 44.294 0.591 7.93 1.29 11.28
10/19/2022 10:30:00 AM 6.95 44.51 0.591 7.94 1.19 11.35
10/19/2022 10:45:00 AM 7.25 45.05 0.59 7.91 1.21 11.33
10/19/2022 11:00:00 AM 7.35 45.23 0.59 7.96 1.21 11.45
10/19/2022 11:15:00 AM 7.56 45.608 0.589 7.93 1.12 11.41
10/19/2022 11:30:00 AM 7.78 46.004 0.59 7.94 1.24 11.43
10/19/2022 11:45:00 AM 7.96 46.328 0.589 7.94 1.15 11.38
10/19/2022 12:00:00 PM 8.05 46.49 0.589 7.94 1.15 11.38
10/19/2022 12:15:00 PM 8.13 46.634 0.589 7.94 1.15 11.43
10/19/2022 12:30:00 PM 8.22 46.796 0.589 7.96 1.14 11.47
10/19/2022 12:45:00 PM 8.25 46.85 0.588 7.98 1.33 11.5
10/19/2022 1:00:00 PM 8.22 46.796 0.588 7.97 11.43 11.47
10/19/2022 1:15:00 PM 8.17 46.706 0.588 8.01 1.34 11.65
10/19/2022 1:30:00 PM 8.22 46.796 0.588 7.98 3.24 11.57
10/19/2022 1:45:00 PM 8.26 46.868 0.588 7.98 1.11 11.59
10/19/2022 2:00:00 PM 8.36 47.048 0.588 7.99 1.16 11.62
10/19/2022 2:15:00 PM 8.47 47.246 0.588 8.02 1.13 11.73
10/19/2022 2:30:00 PM 8.63 47.534 0.587 8.02 1.11 11.77
10/19/2022 2:45:00 PM 8.73 47.714 0.587 8.03 1.18 11.78
10/19/2022 3:00:00 PM 8.85 47.93 0.586 8.03 1.12 11.81
10/19/2022 3:15:00 PM 8.96 48.128 0.586 8.05 1.18 11.87
10/19/2022 3:30:00 PM 9.02 48.236 0.585 8.06 1.16 11.91
10/19/2022 3:45:00 PM 9.05 48.29 0.585 8.09 1.2 11.96
10/19/2022 4:00:00 PM 9.11 48.398 0.585 8.07 1.37 11.94
10/19/2022 4:15:00 PM 9.19 48.542 0.584 8.11 1.16 12.02
10/19/2022 4:30:00 PM 9.24 48.632 0.584 8.08 2.24 11.89
10/19/2022 4:45:00 PM 9.24 48.632 0.584 8.08 1.23 11.8
10/19/2022 5:00:00 PM 9.26 48.668 0.583 8.1 4.07 11.86
10/19/2022 5:15:00 PM 9.31 48.758 0.583 8.17 2.57 12.05
10/19/2022 5:30:00 PM 9.3 48.74 0.583 8.11 1.33 11.86
10/19/2022 5:45:00 PM 9.29 48.722 0.582 8.13 1.18 11.8
10/19/2022 6:00:00 PM 9.25 48.65 0.582 8.06 1.1 11.58
10/19/2022 6:15:00 PM 9.22 48.596 0.582 8.07 1.11 11.48
10/19/2022 6:30:00 PM 9.22 48.596 0.582 8.09 1.17 11.54
10/19/2022 6:45:00 PM 9.21 48.578 0.582 8.1 1.3 11.52
10/19/2022 7:00:00 PM 9.13 48.434 0.582 8.04 1.12 11.23
10/19/2022 7:15:00 PM 9.11 48.398 0.582 8.05 1.35 11.31
10/19/2022 7:30:00 PM 9.09 48.362 0.582 8.05 1.28 11.27
10/19/2022 7:45:00 PM 9.07 48.326 0.581 8.09 1.59 11.36
10/19/2022 8:00:00 PM 9.03 48.254 0.581 8.06 1.43 11.29
10/19/2022 8:15:00 PM 8.98 48.164 0.581 8.04 1.3 11.22
10/19/2022 8:30:00 PM 8.94 48.092 0.581 8.06 1.34 11.23
10/19/2022 8:45:00 PM 8.9 48.02 0.581 8.02 1.47 11.12
10/19/2022 9:00:00 PM 8.87 47.966 0.581 8.05 1.35 11.13
10/19/2022 9:15:00 PM 8.8 47.84 0.58 8.03 1.35 11.08
10/19/2022 9:30:00 PM 8.69 47.642 0.581 8.04 1.58 11.05
10/19/2022 9:45:00 PM 8.64 47.552 0.581 8 1.26 10.99
10/19/2022 10:00:00 PM 8.58 47.444 0.58 8.04 1.32 11.03
10/19/2022 10:15:00 PM 8.54 47.372 0.581 8.01 1.27 10.93
10/19/2022 10:30:00 PM 8.48 47.264 0.581 8.01 1.32 10.89
10/19/2022 10:45:00 PM 8.42 47.156 0.581 8.02 1.28 10.87
10/19/2022 11:00:00 PM 8.35 47.03 0.581 8.01 1.27 10.86
10/19/2022 11:15:00 PM 8.32 46.976 0.581 8 5.93 10.81
10/19/2022 11:30:00 PM 8.27 46.886 0.581 8 1.3 10.75
10/19/2022 11:45:00 PM 8.24 46.832 0.581 7.99 1.26 10.71
10/20/2022 12:00:00 AM 8.16 46.688 0.581 7.98 1.27 10.69
10/20/2022 12:15:00 AM 8.07 46.526 0.581 7.98 1.2 10.65
10/20/2022 12:30:00 AM 8.03 46.454 0.581 7.95 1.25 10.6
10/20/2022 12:45:00 AM 7.95 46.31 0.581 7.96 1.24 10.58
10/20/2022 1:00:00 AM 7.91 46.238 0.581 7.95 1.48 10.54
10/20/2022 1:15:00 AM 7.87 46.166 0.581 7.94 1.3 10.53
10/20/2022 1:30:00 AM 7.81 46.058 0.58 7.94 1.24 10.54
10/20/2022 1:45:00 AM 7.77 45.986 0.581 7.93 1.44 10.51
10/20/2022 2:00:00 AM 7.74 45.932 0.581 7.91 1.27 10.47
10/20/2022 2:15:00 AM 7.71 45.878 0.581 7.91 1.33 10.43
10/20/2022 2:30:00 AM 7.64 45.752 0.581 7.92 1.25 10.47
10/20/2022 2:45:00 AM 7.57 45.626 0.581 7.92 1.25 10.5
10/20/2022 3:00:00 AM 7.53 45.554 0.581 7.92 1.32 10.5
10/20/2022 3:15:00 AM 7.48 45.464 0.581 7.92 1.31 10.5
10/20/2022 3:30:00 AM 7.42 45.356 0.582 7.9 1.26 10.46
10/20/2022 3:45:00 AM 7.35 45.23 0.582 7.89 1.33 10.43
10/20/2022 4:00:00 AM 7.19 44.942 0.582 7.9 1.27 10.52
10/20/2022 4:15:00 AM 7.17 44.906 0.582 7.89 1.36 10.47
10/20/2022 4:30:00 AM 7.09 44.762 0.582 7.89 1.32 10.49
10/20/2022 4:45:00 AM 7 44.6 0.582 7.89 1.4 10.51
10/20/2022 5:00:00 AM 6.92 44.456 0.583 7.89 1.72 10.51
10/20/2022 5:15:00 AM 6.8 44.24 0.582 7.9 1.4 10.59
10/20/2022 5:30:00 AM 6.69 44.042 0.582 7.91 1.46 10.65
10/20/2022 5:45:00 AM 6.63 43.934 0.583 7.9 1.72 10.65
10/20/2022 6:00:00 AM 6.51 43.718 0.583 7.9 1.4 10.67
10/20/2022 6:15:00 AM 6.52 43.736 0.583 7.89 1.33 10.63
10/20/2022 6:30:00 AM 6.47 43.646 0.583 7.88 1.41 10.62
10/20/2022 6:45:00 AM 6.43 43.574 0.583 7.87 1.33 10.64
10/20/2022 7:00:00 AM 6.41 43.538 0.584 7.87 1.32 10.6
10/20/2022 7:15:00 AM 6.35 43.43 0.584 7.87 1.44 10.61
10/20/2022 7:30:00 AM 6.23 43.214 0.583 7.88 1.32 10.68
10/20/2022 7:45:00 AM 6.25 43.25 0.584 7.87 1.28 10.64
10/20/2022 8:00:00 AM 6.27 43.286 0.584 7.86 1.26 10.64
10/20/2022 8:15:00 AM 6.14 43.052 0.584 7.89 1.31 10.78
10/20/2022 8:30:00 AM 6.11 42.998 0.584 7.88 1.29 10.79
10/20/2022 8:45:00 AM 6.05 42.89 0.584 7.89 1.3 10.9
10/20/2022 9:00:00 AM 6.05 42.89 0.584 7.89 1.23 10.97
10/20/2022 9:15:00 AM 6.12 43.016 0.584 7.92 1.32 11.11
10/20/2022 9:30:00 AM 6.27 43.286 0.585 7.92 1.32 11.21
10/20/2022 9:45:00 AM 6.31 43.358 0.584 7.93 1.24 11.29
10/20/2022 10:00:00 AM 6.37 43.466 0.585 7.94 1.27 11.38
10/20/2022 10:15:00 AM 6.55 43.79 0.585 7.92 1.17 11.35
10/20/2022 10:30:00 AM 6.46 43.628 0.584 7.96 1.24 11.51
10/20/2022 10:45:00 AM 6.61 43.898 0.585 7.95 1.19 11.54
10/20/2022 11:00:00 AM 6.55 43.79 0.584 7.93 1.21 11.46
10/20/2022 11:15:00 AM 6.38 43.484 0.585 7.96 1.2 11.6
10/20/2022 11:30:00 AM 6.38 43.484 0.584 7.97 1.19 11.65
10/20/2022 11:45:00 AM 6.37 43.466 0.584 7.98 1.2 11.77
10/20/2022 12:00:00 PM 6.5 43.7 0.584 7.96 1.21 11.74
10/20/2022 12:15:00 PM 6.56 43.808 0.584 7.95 1.2 11.72
10/20/2022 12:30:00 PM 6.5 43.7 0.584 7.97 1.2 11.77
10/20/2022 12:45:00 PM 6.59 43.862 0.584 7.95 1.13 11.75
10/20/2022 1:00:00 PM 6.5 43.7 0.583 8 1.21 11.94
10/20/2022 1:15:00 PM 6.58 43.844 0.583 8.01 1.19 11.97
10/20/2022 1:30:00 PM 6.7 44.06 0.583 7.99 1.16 11.94
10/20/2022 1:45:00 PM 6.66 43.988 0.583 8.02 1.2 12.06
10/20/2022 2:00:00 PM 6.81 44.258 0.583 8.02 1.21 12.08
10/20/2022 2:15:00 PM 6.93 44.474 0.582 8.03 1.15 12.18
10/20/2022 2:30:00 PM 6.9 44.42 0.581 8.05 1.18 12.23
10/20/2022 2:45:00 PM 6.97 44.546 0.581 8.04 1.16 12.22
10/20/2022 3:00:00 PM 7.04 44.672 0.581 8.06 1.31 12.29
10/20/2022 3:15:00 PM 7.1 44.78 0.58 8.09 1.18 12.4
10/20/2022 3:30:00 PM 7.24 45.032 0.58 8.07 1.7 12.35
10/20/2022 3:45:00 PM 7.31 45.158 0.579 8.1 1.25 12.45
10/20/2022 4:00:00 PM 7.38 45.284 0.579 8.11 3.09 12.44
10/20/2022 4:15:00 PM 7.44 45.392 0.579 8.09 1.26 12.38
10/20/2022 4:30:00 PM 7.49 45.482 0.579 8.11 1.13 12.41
10/20/2022 4:45:00 PM 7.52 45.536 0.578 8.09 3.26 12.36
10/20/2022 5:00:00 PM 7.56 45.608 0.578 8.13 1.09 12.4
10/20/2022 5:15:00 PM 7.6 45.68 0.578 8.12 1.13 12.36
10/20/2022 5:30:00 PM 7.64 45.752 0.578 8.1 1.13 12.26
10/20/2022 5:45:00 PM 7.62 45.716 0.578 8.09 1.08 12.22
10/20/2022 6:00:00 PM 7.6 45.68 0.578 8.06 1.06 12.14
10/20/2022 6:15:00 PM 7.58 45.644 0.578 8.06 1.13 12.08
10/20/2022 6:30:00 PM 7.54 45.572 0.578 8.05 1.1 11.99
10/20/2022 6:45:00 PM 7.51 45.518 0.578 8.06 1.14 11.95
10/20/2022 7:00:00 PM 7.48 45.464 0.578 8.05 1.15 11.92
10/20/2022 7:15:00 PM 7.44 45.392 0.578 8.06 1.2 11.95
10/20/2022 7:30:00 PM 7.4 45.32 0.577 8.07 2.06 12
10/20/2022 7:45:00 PM 7.43 45.374 0.577 8.04 1.25 11.9
10/20/2022 8:00:00 PM 7.4 45.32 0.577 8.09 1.24 11.98
10/20/2022 8:15:00 PM 7.41 45.338 0.577 8.07 1.24 11.95
10/20/2022 8:30:00 PM 7.42 45.356 0.577 8.08 1.27 11.91
10/20/2022 8:45:00 PM 7.39 45.302 0.577 8.08 1.2 11.9
10/20/2022 9:00:00 PM 7.38 45.284 0.577 8.06 1.15 11.77
10/20/2022 9:15:00 PM 7.32 45.176 0.577 8.06 1.22 11.78
10/20/2022 9:30:00 PM 7.28 45.104 0.576 8.07 1.16 11.78
10/20/2022 9:45:00 PM 7.3 45.14 0.576 8.06 1.1 11.7
10/20/2022 10:00:00 PM 7.29 45.122 0.576 8.06 1.21 11.65
10/20/2022 10:15:00 PM 7.28 45.104 0.576 8.06 1.22 11.6
10/20/2022 10:30:00 PM 7.26 45.068 0.577 8.04 1.39 11.55
10/20/2022 10:45:00 PM 7.27 45.086 0.577 8.01 1.16 11.41
10/20/2022 11:00:00 PM 7.2 44.96 0.577 8.02 1.14 11.41
10/20/2022 11:15:00 PM 7.2 44.96 0.577 8 1.23 11.28
10/20/2022 11:30:00 PM 7.1 44.78 0.577 8.01 1.19 11.31
10/20/2022 11:45:00 PM 7.07 44.726 0.577 8 1.23 11.31
10/21/2022 12:00:00 AM 7.02 44.636 0.577 8.01 1.21 11.3
10/21/2022 12:15:00 AM 7 44.6 0.577 8 1.3 11.22
10/21/2022 12:30:00 AM 6.95 44.51 0.577 7.99 1.23 11.2
10/21/2022 12:45:00 AM 6.92 44.456 0.577 7.98 1.23 11.14
10/21/2022 1:00:00 AM 6.83 44.294 0.577 7.96 1.29 11.1
10/21/2022 1:15:00 AM 6.73 44.114 0.578 7.96 1.24 11.08
10/21/2022 1:30:00 AM 6.66 43.988 0.578 7.94 1.24 11.03
10/21/2022 1:45:00 AM 6.58 43.844 0.578 7.93 1.24 11.02
10/21/2022 2:00:00 AM 6.51 43.718 0.578 7.94 1.21 11.02
10/21/2022 2:15:00 AM 6.43 43.574 0.578 7.93 1.21 11.04
10/21/2022 2:30:00 AM 6.37 43.466 0.578 7.93 1.33 11.03
10/21/2022 2:45:00 AM 6.32 43.376 0.578 7.93 1.26 11.02
10/21/2022 3:00:00 AM 6.26 43.268 0.579 7.91 1.38 11.01
10/21/2022 3:15:00 AM 6.18 43.124 0.579 7.93 1.23 11.03
10/21/2022 3:30:00 AM 6.14 43.052 0.578 7.91 1.23 11.01
10/21/2022 3:45:00 AM 6.03 42.854 0.579 7.92 1.21 11.04
10/21/2022 4:00:00 AM 6.02 42.836 0.579 7.9 1.24 10.99
10/21/2022 4:15:00 AM 5.93 42.674 0.579 7.91 1.33 11.01
10/21/2022 4:30:00 AM 5.88 42.584 0.579 7.9 1.27 11
10/21/2022 4:45:00 AM 5.8 42.44 0.579 7.89 1.43 11.02
10/21/2022 5:00:00 AM 5.74 42.332 0.58 7.89 1.34 11.01
10/21/2022 5:15:00 AM 5.67 42.206 0.58 7.89 1.94 11.01
10/21/2022 5:30:00 AM 5.6 42.08 0.58 7.89 1.37 11.04
10/21/2022 5:45:00 AM 5.49 41.882 0.58 7.9 1.24 11.07
10/21/2022 6:00:00 AM 5.44 41.792 0.58 7.88 1.29 11.07
10/21/2022 6:15:00 AM 5.4 41.72 0.581 7.88 1.27 11.05
10/21/2022 6:30:00 AM 5.33 41.594 0.581 7.88 1.26 11.09
10/21/2022 6:45:00 AM 5.26 41.468 0.581 7.88 1.22 11.1
10/21/2022 7:00:00 AM 5.14 41.252 0.581 7.88 1.3 11.14
10/21/2022 7:15:00 AM 5.08 41.144 0.581 7.87 1.28 11.15
10/21/2022 7:30:00 AM 4.98 40.964 0.582 7.88 1.22 11.2
10/21/2022 7:45:00 AM 4.95 40.91 0.582 7.88 1.25 11.2
10/21/2022 8:00:00 AM 4.87 40.766 0.582 7.88 1.22 11.31
10/21/2022 8:15:00 AM 4.8 40.64 0.582 7.88 1.24 11.39
10/21/2022 8:30:00 AM 4.73 40.514 0.582 7.9 1.29 11.5
10/21/2022 8:45:00 AM 4.7 40.46 0.582 7.9 1.28 11.55
10/21/2022 9:00:00 AM 4.7 40.46 0.582 7.9 1.24 11.59
10/21/2022 9:15:00 AM 4.72 40.496 0.583 7.91 1.24 11.66
10/21/2022 9:30:00 AM 4.78 40.604 0.582 7.93 1.35 11.77
10/21/2022 9:45:00 AM 4.93 40.874 0.582 7.94 1.33 11.83
10/21/2022 10:00:00 AM 5.09 41.162 0.582 7.93 1.3 11.86
10/21/2022 10:15:00 AM 5.21 41.378 0.581 7.93 1.25 11.93
10/21/2022 10:30:00 AM 5.39 41.702 0.581 7.95 4.62 11.98
10/21/2022 10:45:00 AM 5.56 42.008 0.581 7.96 1.26 12.06
10/21/2022 11:00:00 AM 5.77 42.386 0.58 7.97 1.23 12.07
10/21/2022 11:15:00 AM 5.96 42.728 0.58 7.98 1.47 12.12
10/21/2022 11:30:00 AM 6.12 43.016 0.58 8 1.21 12.19
10/21/2022 11:45:00 AM 6.25 43.25 0.579 8.01 1.2 12.25
10/21/2022 12:00:00 PM 6.36 43.448 0.579 7.99 1.84 12.26
10/21/2022 12:15:00 PM 6.5 43.7 0.579 7.99 1.29 12.21
10/21/2022 12:30:00 PM 6.63 43.934 0.579 8 1.19 12.22
10/21/2022 12:45:00 PM 6.8 44.24 0.579 7.98 1.16 12.13
10/21/2022 1:00:00 PM 7.03 44.654 0.579 7.98 1.2 12.07
10/21/2022 1:15:00 PM 7.26 45.068 0.579 7.96 1.12 11.98
10/21/2022 1:30:00 PM 7.57 45.626 0.578 7.98 1.12 12.08
10/21/2022 1:45:00 PM 7.8 46.04 0.578 8.01 1.3 12.2
10/21/2022 2:00:00 PM 8.01 46.418 0.577 8.03 1.13 12.27
10/21/2022 2:15:00 PM 8.16 46.688 0.577 8.04 1.14 12.26
10/21/2022 2:30:00 PM 8.27 46.886 0.577 8.04 1.21 12.21
10/21/2022 2:45:00 PM 8.31 46.958 0.577 8.02 1.11 12.17
10/21/2022 3:00:00 PM 8.28 46.904 0.577 7.97 0.94 11.92
10/21/2022 3:15:00 PM 8.33 46.994 0.577 7.95 1 11.79
10/21/2022 3:30:00 PM 8.35 47.03 0.577 7.87 0.92 11.54
10/21/2022 3:45:00 PM 8.17 46.706 0.577 7.87 0.95 11.67
10/21/2022 4:00:00 PM 8.2 46.76 0.577 7.81 1.52 11.36
10/21/2022 4:15:00 PM 8.21 46.778 0.578 7.78 19.4 11.14
10/21/2022 4:30:00 PM 8.2 46.76 0.577 7.75 0.86 10.95
10/21/2022 4:45:00 PM 8.2 46.76 0.577 7.75 0.9 10.89
10/21/2022 5:00:00 PM 8.1 46.58 0.577 7.77 0.88 10.92
10/21/2022 5:15:00 PM 8.06 46.508 0.577 7.79 2.22 10.98
10/21/2022 5:30:00 PM 8.05 46.49 0.577 7.79 0.9 10.95
10/21/2022 5:45:00 PM 8.06 46.508 0.577 7.77 0.88 10.84
10/21/2022 6:00:00 PM 8.07 46.526 0.577 7.77 0.83 10.77
10/21/2022 6:15:00 PM 8.11 46.598 0.577 7.75 0.88 10.75
10/21/2022 6:30:00 PM 8.16 46.688 0.577 7.76 1.47 10.71
10/21/2022 6:45:00 PM 8.21 46.778 0.577 7.74 0.88 10.68
10/21/2022 7:00:00 PM 8.26 46.868 0.577 7.75 0.9 10.63
10/21/2022 7:15:00 PM 8.35 47.03 0.577 7.74 0.89 10.58
10/21/2022 7:30:00 PM 8.36 47.048 0.577 7.73 0.9 10.55
10/21/2022 7:45:00 PM 8.42 47.156 0.577 7.73 2.17 10.44
10/21/2022 8:00:00 PM 8.45 47.21 0.577 7.72 0.94 10.34
10/21/2022 8:15:00 PM 8.49 47.282 0.577 7.71 2.95 10.28
10/21/2022 8:30:00 PM 8.47 47.246 0.576 7.71 0.85 10.26
10/21/2022 8:45:00 PM 8.5 47.3 0.576 7.69 0.86 10.16
10/21/2022 9:00:00 PM 8.56 47.408 0.576 7.69 0.87 10.1
10/21/2022 9:15:00 PM 8.62 47.516 0.577 7.68 0.86 10.02
10/21/2022 9:30:00 PM 8.66 47.588 0.576 7.67 0.88 9.93
10/21/2022 9:45:00 PM 8.74 47.732 0.576 7.66 0.95 9.83
10/21/2022 10:00:00 PM 8.73 47.714 0.576 7.65 0.89 9.82
10/21/2022 10:15:00 PM 8.75 47.75 0.576 7.66 1.08 9.76
10/21/2022 10:30:00 PM 8.79 47.822 0.576 7.65 0.88 9.68
10/21/2022 10:45:00 PM 8.77 47.786 0.576 7.67 1.05 9.67
10/21/2022 11:00:00 PM 8.82 47.876 0.576 7.73 1.08 9.79
10/21/2022 11:15:00 PM 8.81 47.858 0.576 7.73 1.06 9.83
10/21/2022 11:30:00 PM 8.93 48.074 0.575 7.83 1.14 10.08
10/21/2022 11:45:00 PM 8.98 48.164 0.574 7.92 2.31 10.33
10/22/2022 12:00:00 AM 8.97 48.146 0.574 7.95 2.18 10.38
10/22/2022 12:15:00 AM 8.88 47.984 0.574 7.97 2.95 10.38
10/22/2022 12:30:00 AM 8.77 47.786 0.574 7.95 1.84 10.31
10/22/2022 12:45:00 AM 8.66 47.588 0.574 7.94 2.04 10.31
10/22/2022 1:00:00 AM 8.54 47.372 0.575 7.92 2.01 10.22
10/22/2022 1:15:00 AM 8.43 47.174 0.575 7.91 1.7 10.22
10/22/2022 1:30:00 AM 8.31 46.958 0.575 7.9 2.82 10.19
10/22/2022 1:45:00 AM 8.19 46.742 0.576 7.89 3.08 10.17
10/22/2022 2:00:00 AM 8.09 46.562 0.575 7.88 1.69 10.13
10/22/2022 2:15:00 AM 8.01 46.418 0.576 7.87 1.7 10.14
10/22/2022 2:30:00 AM 7.88 46.184 0.576 7.88 1.47 10.18
10/22/2022 2:45:00 AM 7.78 46.004 0.576 7.86 2.62 10.19
10/22/2022 3:00:00 AM 7.66 45.788 0.576 7.86 1.44 10.21
10/22/2022 3:15:00 AM 7.56 45.608 0.576 7.87 1.4 10.24
10/22/2022 3:30:00 AM 7.49 45.482 0.576 7.85 1.87 10.23
10/22/2022 3:45:00 AM 7.41 45.338 0.576 7.85 1.4 10.21
10/22/2022 4:00:00 AM 7.29 45.122 0.577 7.85 1.34 10.27
10/22/2022 4:15:00 AM 7.2 44.96 0.577 7.85 1.5 10.3
10/22/2022 4:30:00 AM 7.08 44.744 0.577 7.85 1.39 10.35
10/22/2022 4:45:00 AM 7.04 44.672 0.577 7.84 1.3 10.32
10/22/2022 5:00:00 AM 6.94 44.492 0.577 7.84 1.24 10.36
10/22/2022 5:15:00 AM 6.86 44.348 0.578 7.84 1.23 10.39
10/22/2022 5:30:00 AM 6.75 44.15 0.578 7.84 1.36 10.46
10/22/2022 5:45:00 AM 6.65 43.97 0.578 7.85 1.26 10.5
10/22/2022 6:00:00 AM 6.58 43.844 0.578 7.85 1.22 10.51
10/22/2022 6:15:00 AM 6.51 43.718 0.579 7.84 1.29 10.53
10/22/2022 6:30:00 AM 6.41 43.538 0.579 7.84 1.28 10.58
10/22/2022 6:45:00 AM 6.37 43.466 0.579 7.83 1.34 10.56
10/22/2022 7:00:00 AM 6.29 43.322 0.579 7.83 1.53 10.6
10/22/2022 7:15:00 AM 6.18 43.124 0.579 7.84 1.42 10.64
10/22/2022 7:30:00 AM 6.08 42.944 0.58 7.84 1.72 10.7
10/22/2022 7:45:00 AM 6.02 42.836 0.58 7.84 1.36 10.74
10/22/2022 8:00:00 AM 5.94 42.692 0.58 7.84 1.32 10.81
10/22/2022 8:15:00 AM 5.88 42.584 0.58 7.85 1.34 10.92
10/22/2022 8:30:00 AM 5.84 42.512 0.58 7.85 1.39 10.96
10/22/2022 8:45:00 AM 5.83 42.494 0.581 7.85 1.35 11.02
10/22/2022 9:00:00 AM 5.76 42.368 0.581 7.87 1.27 11.14
10/22/2022 9:15:00 AM 5.84 42.512 0.581 7.87 1.32 11.16
10/22/2022 9:30:00 AM 5.93 42.674 0.581 7.87 1.26 11.24
10/22/2022 9:45:00 AM 6.05 42.89 0.581 7.89 1.33 11.38
10/22/2022 10:00:00 AM 6.22 43.196 0.581 7.89 2.49 11.44
10/22/2022 10:15:00 AM 6.36 43.448 0.58 7.91 1.18 11.56
10/22/2022 10:30:00 AM 6.54 43.772 0.58 7.91 1.23 11.6
10/22/2022 10:45:00 AM 6.71 44.078 0.58 7.93 2.39 11.71
10/22/2022 11:00:00 AM 6.9 44.42 0.579 7.94 1.22 11.74
10/22/2022 11:15:00 AM 7.1 44.78 0.579 7.95 1.22 11.79
10/22/2022 11:30:00 AM 7.31 45.158 0.579 7.97 2.15 11.86
10/22/2022 11:45:00 AM 7.51 45.518 0.579 7.96 1.2 11.85
10/22/2022 12:00:00 PM 7.63 45.734 0.578 7.97 1.25 11.89
10/22/2022 12:15:00 PM 7.77 45.986 0.578 7.97 1.21 11.88
10/22/2022 12:30:00 PM 7.93 46.274 0.578 7.96 1.22 11.86
10/22/2022 12:45:00 PM 8.1 46.58 0.578 7.95 1.2 11.82
10/22/2022 1:00:00 PM 8.34 47.012 0.578 7.93 1.17 11.7
10/22/2022 1:15:00 PM 8.55 47.39 0.578 7.94 2.5 11.72
10/22/2022 1:30:00 PM 8.74 47.732 0.577 7.97 2.27 11.81
10/22/2022 1:45:00 PM 8.86 47.948 0.577 7.94 1.05 11.76
10/22/2022 2:00:00 PM 8.93 48.074 0.577 7.93 1.07 11.69
10/22/2022 2:15:00 PM 8.92 48.056 0.578 7.86 0.98 11.34
10/22/2022 2:30:00 PM 8.83 47.894 0.577 7.85 1.1 11.44
10/22/2022 2:45:00 PM 8.77 47.786 0.577 7.83 1.76 11.46
10/22/2022 3:00:00 PM 8.59 47.462 0.577 7.89 2.75 11.43
10/22/2022 3:15:00 PM 8.6 47.48 0.577 7.85 2.16 11.17
10/22/2022 3:30:00 PM 8.6 47.48 0.577 7.85 12.89 11.03
10/22/2022 3:45:00 PM 8.61 47.498 0.577 7.82 0.98 10.89
10/22/2022 4:00:00 PM 8.67 47.606 0.578 7.8 2.01 10.72
10/22/2022 4:15:00 PM 8.7 47.66 0.577 7.78 0.9 10.63
10/22/2022 4:30:00 PM 8.73 47.714 0.577 7.77 0.87 10.52
10/22/2022 4:45:00 PM 8.76 47.768 0.577 7.76 0.97 10.51
10/22/2022 5:00:00 PM 8.78 47.804 0.577 7.77 4.53 10.48
10/22/2022 5:15:00 PM 8.81 47.858 0.577 7.77 0.92 10.49
10/22/2022 5:30:00 PM 8.84 47.912 0.577 7.75 0.81 10.48
10/22/2022 5:45:00 PM 8.87 47.966 0.577 7.74 0.85 10.42
10/22/2022 6:00:00 PM 8.9 48.02 0.577 7.74 0.9 10.39
10/22/2022 6:15:00 PM 8.93 48.074 0.577 7.73 0.79 10.33
10/22/2022 6:30:00 PM 8.96 48.128 0.577 7.72 0.87 10.32
10/22/2022 6:45:00 PM 8.99 48.182 0.577 7.72 0.85 10.26
10/22/2022 7:00:00 PM 9.04 48.272 0.577 7.71 0.82 10.15
10/22/2022 7:15:00 PM 9.09 48.362 0.577 7.7 0.78 10.1
10/22/2022 7:30:00 PM 9.14 48.452 0.577 7.69 0.85 10
10/22/2022 7:45:00 PM 9.19 48.542 0.577 7.67 0.94 9.88
10/22/2022 8:00:00 PM 9.24 48.632 0.577 7.67 0.84 9.72
10/22/2022 8:15:00 PM 9.28 48.704 0.577 7.66 0.85 9.62
10/22/2022 8:30:00 PM 9.31 48.758 0.577 7.65 0.94 9.54
10/22/2022 8:45:00 PM 9.33 48.794 0.577 7.65 0.95 9.48
10/22/2022 9:00:00 PM 9.38 48.884 0.576 7.65 1.09 9.44
10/22/2022 9:15:00 PM 9.4 48.92 0.576 7.65 1.32 9.4
10/22/2022 9:30:00 PM 9.43 48.974 0.576 7.64 0.97 9.38
10/22/2022 9:45:00 PM 9.49 49.082 0.576 7.64 1.07 9.29
10/22/2022 10:00:00 PM 9.54 49.172 0.576 7.65 0.85 9.27
10/22/2022 10:15:00 PM 9.61 49.298 0.576 7.67 1.02 9.39
10/22/2022 10:30:00 PM 9.65 49.37 0.576 7.66 0.85 9.36
10/22/2022 10:45:00 PM 9.68 49.424 0.576 7.63 0.94 9.25
10/22/2022 11:00:00 PM 9.73 49.514 0.576 7.65 0.85 9.16
10/22/2022 11:15:00 PM 9.76 49.568 0.576 7.64 0.95 9.14
10/22/2022 11:30:00 PM 9.81 49.658 0.576 7.64 0.9 9.01
10/22/2022 11:45:00 PM 9.85 49.73 0.576 7.63 0.92 9.01
10/23/2022 12:00:00 AM 9.88 49.784 0.576 7.64 0.88 8.96
10/23/2022 12:15:00 AM 9.87 49.766 0.576 7.65 0.9 8.94
10/23/2022 12:30:00 AM 9.89 49.802 0.576 7.69 0.89 8.95
10/23/2022 12:45:00 AM 9.95 49.91 0.575 7.79 1.19 9.41
10/23/2022 1:00:00 AM 9.96 49.928 0.575 7.86 1.48 9.62
10/23/2022 1:15:00 AM 9.89 49.802 0.574 7.89 1.97 9.79
10/23/2022 1:30:00 AM 9.77 49.586 0.575 7.9 2.41 9.81
10/23/2022 1:45:00 AM 9.65 49.37 0.575 7.9 2.18 9.8
10/23/2022 2:00:00 AM 9.54 49.172 0.575 7.88 3.27 9.75
10/23/2022 2:15:00 AM 9.41 48.938 0.575 7.87 1.65 9.72
10/23/2022 2:30:00 AM 9.3 48.74 0.576 7.86 1.69 9.71
10/23/2022 2:45:00 AM 9.17 48.506 0.576 7.85 1.55 9.72
10/23/2022 3:00:00 AM 9.02 48.236 0.576 7.84 2.67 9.73
10/23/2022 3:15:00 AM 8.92 48.056 0.576 7.84 1.68 9.71
10/23/2022 3:30:00 AM 8.83 47.894 0.576 7.83 2.62 9.68
10/23/2022 3:45:00 AM 8.7 47.66 0.576 7.82 1.84 9.72
10/23/2022 4:00:00 AM 8.58 47.444 0.576 7.83 1.65 9.75
10/23/2022 4:15:00 AM 8.46 47.228 0.577 7.83 1.69 9.79
10/23/2022 4:30:00 AM 8.35 47.03 0.577 7.82 1.67 9.83
10/23/2022 4:45:00 AM 8.24 46.832 0.577 7.82 1.53 9.84
10/23/2022 5:00:00 AM 8.12 46.616 0.577 7.82 1.52 9.9
10/23/2022 5:15:00 AM 7.99 46.382 0.577 7.83 1.4 9.94
10/23/2022 5:30:00 AM 7.86 46.148 0.578 7.83 1.37 10.02
10/23/2022 5:45:00 AM 7.81 46.058 0.578 7.81 1.37 9.99
10/23/2022 6:00:00 AM 7.66 45.788 0.578 7.81 1.29 10.05
10/23/2022 6:15:00 AM 7.56 45.608 0.578 7.82 1.39 10.09
10/23/2022 6:30:00 AM 7.48 45.464 0.579 7.81 1.32 10.11
10/23/2022 6:45:00 AM 7.37 45.266 0.579 7.81 1.34 10.16
10/23/2022 7:00:00 AM 7.28 45.104 0.579 7.81 1.3 10.17
10/23/2022 7:15:00 AM 7.11 44.798 0.579 7.82 1.36 10.27
10/23/2022 7:30:00 AM 7.02 44.636 0.579 7.82 1.29 10.32
10/23/2022 7:45:00 AM 6.94 44.492 0.58 7.82 1.28 10.35
10/23/2022 8:00:00 AM 6.85 44.33 0.58 7.82 1.27 10.4
10/23/2022 8:15:00 AM 6.77 44.186 0.58 7.83 1.3 10.49
10/23/2022 8:30:00 AM 6.66 43.988 0.58 7.84 1.42 10.61
10/23/2022 8:45:00 AM 6.63 43.934 0.581 7.84 1.32 10.7
10/23/2022 9:00:00 AM 6.54 43.772 0.581 7.87 1.26 10.86
10/23/2022 9:15:00 AM 6.55 43.79 0.581 7.87 1.23 10.92
10/23/2022 9:30:00 AM 6.62 43.916 0.581 7.86 1.27 11
10/23/2022 9:45:00 AM 6.75 44.15 0.581 7.87 1.23 11.1
10/23/2022 10:00:00 AM 6.93 44.474 0.58 7.89 1.24 11.23
10/23/2022 10:15:00 AM 7.09 44.762 0.58 7.91 1.43 11.34
10/23/2022 10:30:00 AM 7.3 45.14 0.58 7.92 1.23 11.45
10/23/2022 10:45:00 AM 7.49 45.482 0.58 7.92 1.19 11.52
10/23/2022 11:00:00 AM 7.6 45.68 0.58 7.95 1.16 11.62
10/23/2022 11:15:00 AM 7.75 45.95 0.579 7.96 1.22 11.67
10/23/2022 11:30:00 AM 7.88 46.184 0.58 7.96 2.35 11.72
10/23/2022 11:45:00 AM 7.98 46.364 0.579 7.97 1.2 11.74
10/23/2022 12:00:00 PM 7.98 46.364 0.579 7.98 1.21 11.78
10/23/2022 12:15:00 PM 8.13 46.634 0.579 7.96 1.31 11.78
10/23/2022 12:30:00 PM 8.39 47.102 0.579 7.97 1.18 11.73
10/23/2022 12:45:00 PM 8.71 47.678 0.58 7.94 2.57 11.57
10/23/2022 1:00:00 PM 8.91 48.038 0.579 7.93 1.17 11.51
10/23/2022 1:15:00 PM 8.99 48.182 0.578 7.96 1.19 11.68
10/23/2022 1:30:00 PM 9.13 48.434 0.578 7.96 1.31 11.64
10/23/2022 1:45:00 PM 9.3 48.74 0.578 7.96 1.15 11.7
10/23/2022 2:00:00 PM 9.47 49.046 0.578 7.97 1.18 11.74
10/23/2022 2:15:00 PM 9.57 49.226 0.578 7.97 1.12 11.73
10/23/2022 2:30:00 PM 9.66 49.388 0.577 8 1.08 11.89
10/23/2022 2:45:00 PM 9.7 49.46 0.577 8.01 1.1 11.97
10/23/2022 3:00:00 PM 9.67 49.406 0.576 8 1.09 12
10/23/2022 3:15:00 PM 9.55 49.19 0.577 7.93 1.06 11.67
10/23/2022 3:30:00 PM 9.49 49.082 0.577 7.9 1 11.43
10/23/2022 3:45:00 PM 9.49 49.082 0.578 7.85 0.91 11.18
10/23/2022 4:00:00 PM 9.51 49.118 0.578 7.83 0.9 10.98
10/23/2022 4:15:00 PM 9.5 49.1 0.578 7.78 0.85 10.61
10/23/2022 4:30:00 PM 9.52 49.136 0.578 7.78 0.88 10.52
10/23/2022 4:45:00 PM 9.53 49.154 0.578 7.76 0.84 10.42
10/23/2022 5:00:00 PM 9.55 49.19 0.578 7.76 0.89 10.38
10/23/2022 5:15:00 PM 9.58 49.244 0.578 7.77 0.87 10.41
10/23/2022 5:30:00 PM 9.6 49.28 0.578 7.76 0.92 10.39
10/23/2022 5:45:00 PM 9.62 49.316 0.577 7.76 0.86 10.43
10/23/2022 6:00:00 PM 9.64 49.352 0.578 7.74 0.86 10.4
10/23/2022 6:15:00 PM 9.66 49.388 0.578 7.74 0.82 10.39
10/23/2022 6:30:00 PM 9.67 49.406 0.578 7.75 0.86 10.4
10/23/2022 6:45:00 PM 9.69 49.442 0.578 7.74 0.9 10.36
10/23/2022 7:00:00 PM 9.71 49.478 0.578 7.73 0.87 10.3
10/23/2022 7:15:00 PM 9.75 49.55 0.578 7.72 0.89 10.23
10/23/2022 7:30:00 PM 9.78 49.604 0.578 7.71 0.85 10.13
10/23/2022 7:45:00 PM 9.8 49.64 0.578 7.67 0.83 9.89
10/23/2022 8:00:00 PM 9.83 49.694 0.578 7.67 0.89 9.75
10/23/2022 8:15:00 PM 9.85 49.73 0.577 7.67 0.82 9.72
10/23/2022 8:30:00 PM 9.87 49.766 0.578 7.67 0.86 9.7
10/23/2022 8:45:00 PM 9.9 49.82 0.578 7.65 0.84 9.63
10/23/2022 9:00:00 PM 9.92 49.856 0.578 7.64 0.94 9.54
10/23/2022 9:15:00 PM 9.94 49.892 0.577 7.64 0.85 9.48
10/23/2022 9:30:00 PM 9.97 49.946 0.577 7.64 0.86 9.42
10/23/2022 9:45:00 PM 10 50 0.577 7.63 0.91 9.35
10/23/2022 10:00:00 PM 10.03 50.054 0.577 7.63 0.9 9.3
10/23/2022 10:15:00 PM 10.07 50.126 0.577 7.63 0.91 9.34
10/23/2022 10:30:00 PM 10.1 50.18 0.577 7.64 0.82 9.35
10/23/2022 10:45:00 PM 10.12 50.216 0.577 7.62 0.92 9.24
10/23/2022 11:00:00 PM 10.15 50.27 0.577 7.61 0.9 9.15
10/23/2022 11:15:00 PM 10.18 50.324 0.577 7.6 2.17 9.04
10/23/2022 11:30:00 PM 10.2 50.36 0.577 7.64 1.15 9.21
10/23/2022 11:45:00 PM 10.23 50.414 0.577 7.64 1.16 9.26
10/24/2022 12:00:00 AM 10.25 50.45 0.577 7.63 1.39 9.21
10/24/2022 12:15:00 AM 10.28 50.504 0.577 7.62 0.8 9.13
10/24/2022 12:30:00 AM 10.32 50.576 0.577 7.62 0.86 9.04
10/24/2022 12:45:00 AM 10.36 50.648 0.577 7.65 1.08 9.02
10/24/2022 1:00:00 AM 10.36 50.648 0.577 7.62 0.9 8.93
10/24/2022 1:15:00 AM 10.42 50.756 0.577 7.67 0.92 9.06
10/24/2022 1:30:00 AM 10.42 50.756 0.577 7.69 1.06 9.01
10/24/2022 1:45:00 AM 10.54 50.972 0.577 7.73 7.05 9.25
10/24/2022 2:00:00 AM 10.53 50.954 0.576 7.78 1.42 9.44
10/24/2022 2:15:00 AM 10.5 50.9 0.576 7.8 1.26 9.4
10/24/2022 2:30:00 AM 10.5 50.9 0.576 7.83 1.58 9.51
10/24/2022 2:45:00 AM 10.48 50.864 0.576 7.85 1.9 9.63
10/24/2022 3:00:00 AM 10.45 50.81 0.576 7.86 1.66 9.67
10/24/2022 3:15:00 AM 10.39 50.702 0.576 7.85 1.68 9.63
10/24/2022 3:30:00 AM 10.29 50.522 0.576 7.84 1.39 9.6
10/24/2022 3:45:00 AM 10.21 50.378 0.577 7.83 1.35 9.6
10/24/2022 4:00:00 AM 10.14 50.252 0.577 7.83 1.53 9.61
10/24/2022 4:15:00 AM 10.09 50.162 0.577 7.82 1.42 9.56
10/24/2022 4:30:00 AM 10.03 50.054 0.577 7.82 1.34 9.54
10/24/2022 4:45:00 AM 9.96 49.928 0.577 7.8 1.3 9.52
10/24/2022 5:00:00 AM 9.91 49.838 0.578 7.81 1.63 9.5
10/24/2022 5:15:00 AM 9.85 49.73 0.578 7.81 1.8 9.51
10/24/2022 5:30:00 AM 9.78 49.604 0.578 7.8 2.1 9.51
10/24/2022 5:45:00 AM 9.72 49.496 0.578 7.78 1.46 9.5
10/24/2022 6:00:00 AM 9.66 49.388 0.578 7.8 3.01 9.49
10/24/2022 6:15:00 AM 9.58 49.244 0.578 7.79 2.4 9.53
10/24/2022 6:30:00 AM 9.52 49.136 0.579 7.79 1.71 9.52
10/24/2022 6:45:00 AM 9.45 49.01 0.579 7.79 1.53 9.56
10/24/2022 7:00:00 AM 9.4 48.92 0.579 7.8 1.32 9.58
10/24/2022 7:15:00 AM 9.38 48.884 0.579 7.79 1.35 9.58
10/24/2022 7:30:00 AM 9.37 48.866 0.58 7.79 1.3 9.63
10/24/2022 7:45:00 AM 9.37 48.866 0.58 7.8 1.31 9.65
10/24/2022 8:00:00 AM 9.34 48.812 0.58 7.8 1.26 9.67
10/24/2022 8:15:00 AM 9.32 48.776 0.58 7.81 1.21 9.73
10/24/2022 8:30:00 AM 9.33 48.794 0.58 7.8 1.25 9.77
10/24/2022 8:45:00 AM 9.35 48.83 0.58 7.83 1.2 9.96
10/24/2022 9:00:00 AM 9.42 48.956 0.58 7.83 1.86 10.11
10/24/2022 9:15:00 AM 9.48 49.064 0.58 7.86 1.19 10.27
10/24/2022 9:30:00 AM 9.55 49.19 0.58 7.87 1.28 10.4
10/24/2022 9:45:00 AM 9.74 49.532 0.58 7.88 1.27 10.44
10/24/2022 10:00:00 AM 9.87 49.766 0.58 7.89 1.17 10.49
10/24/2022 10:15:00 AM 9.97 49.946 0.58 7.89 1.32 10.56
10/24/2022 10:30:00 AM 10.14 50.252 0.58 7.92 2.34 10.7
10/24/2022 10:45:00 AM 10.33 50.594 0.58 7.92 1.32 10.75
10/24/2022 11:00:00 AM 10.45 50.81 0.58 7.92 1.33 10.77
10/24/2022 11:15:00 AM 10.49 50.882 0.58 7.92 1.19 10.76
10/24/2022 11:30:00 AM 10.65 51.17 0.579 7.95 2.43 10.98
10/24/2022 11:45:00 AM 10.79 51.422 0.58 7.93 3.44 10.94
10/24/2022 12:00:00 PM 11.03 51.854 0.579 7.94 2.6 10.94
10/24/2022 12:15:00 PM 11.12 52.016 0.579 7.94 2.89 10.97
10/24/2022 12:30:00 PM 11.15 52.07 0.579 7.93 2.72 10.98
10/24/2022 12:45:00 PM 11.16 52.088 0.58 7.9 2.34 10.81
10/24/2022 1:00:00 PM 11.16 52.088 0.581 7.75 2.35 10
10/24/2022 1:15:00 PM 11.1 51.98 0.579 7.81 2.61 10.35
10/24/2022 1:30:00 PM 11.07 51.926 0.579 7.84 1.51 10.46
10/24/2022 1:45:00 PM 11.09 51.962 0.579 7.86 4.74 10.57
10/24/2022 2:00:00 PM 11.12 52.016 0.579 7.87 2.62 10.7
10/24/2022 2:15:00 PM 11.13 52.034 0.578 7.87 7.29 10.73
10/24/2022 2:30:00 PM 11.15 52.07 0.578 7.88 1.46 10.73
10/24/2022 2:45:00 PM 11.16 52.088 0.579 7.85 2.57 10.61
10/24/2022 3:00:00 PM 11.17 52.106 0.578 7.87 1.24 10.68
10/24/2022 3:15:00 PM 11.18 52.124 0.578 7.87 1.27 10.68
10/24/2022 3:30:00 PM 11.2 52.16 0.578 7.87 1.44 10.71
10/24/2022 3:45:00 PM 11.2 52.16 0.578 7.87 1.2 10.72
10/24/2022 4:00:00 PM 11.23 52.214 0.578 7.87 2.46 10.78
10/24/2022 4:15:00 PM 11.25 52.25 0.578 7.86 1.27 10.77
10/24/2022 4:30:00 PM 11.28 52.304 0.578 7.84 1.19 10.8
10/24/2022 4:45:00 PM 11.3 52.34 0.578 7.84 1.31 10.83
10/24/2022 5:00:00 PM 11.31 52.358 0.578 7.82 2.45 10.8
10/24/2022 5:15:00 PM 11.32 52.376 0.578 7.83 1.37 10.81
10/24/2022 5:30:00 PM 11.32 52.376 0.578 7.82 1.29 10.82
10/24/2022 5:45:00 PM 11.33 52.394 0.578 7.82 1.35 10.81
10/24/2022 6:00:00 PM 11.35 52.43 0.578 7.81 1.3 10.81
10/24/2022 6:15:00 PM 11.37 52.466 0.578 7.8 2.36 10.75
10/24/2022 6:30:00 PM 11.39 52.502 0.578 7.8 2.42 10.68
10/24/2022 6:45:00 PM 11.4 52.52 0.578 7.77 1.21 10.49
10/24/2022 7:00:00 PM 11.44 52.592 0.579 7.75 1.08 10.27
10/24/2022 7:15:00 PM 11.48 52.664 0.579 7.74 1.47 10.11
10/24/2022 7:30:00 PM 11.53 52.754 0.579 7.71 1 9.93
10/24/2022 7:45:00 PM 11.56 52.808 0.579 7.67 0.91 9.68
10/24/2022 8:00:00 PM 11.58 52.844 0.579 7.63 0.91 9.28
10/24/2022 8:15:00 PM 11.63 52.934 0.579 7.6 2.04 8.95
10/24/2022 8:30:00 PM 11.66 52.988 0.579 7.59 0.94 8.75
10/24/2022 8:45:00 PM 11.68 53.024 0.579 7.56 0.83 8.57
10/24/2022 9:00:00 PM 11.71 53.078 0.579 7.56 1.46 8.44
10/24/2022 9:15:00 PM 11.73 53.114 0.579 7.55 0.91 8.31
10/24/2022 9:30:00 PM 11.78 53.204 0.579 7.54 0.82 8.27
10/24/2022 9:45:00 PM 11.8 53.24 0.579 7.54 0.81 8.23
10/24/2022 10:00:00 PM 11.85 53.33 0.579 7.54 2.27 8.15
10/24/2022 10:15:00 PM 11.86 53.348 0.579 7.55 0.93 8.15
10/24/2022 10:30:00 PM 11.89 53.402 0.579 7.54 0.95 8.1
10/24/2022 10:45:00 PM 11.94 53.492 0.578 7.55 1.02 8.11
10/24/2022 11:00:00 PM 11.96 53.528 0.578 7.55 0.86 8.11
10/24/2022 11:15:00 PM 12.02 53.636 0.578 7.55 2.12 8.11
10/24/2022 11:30:00 PM 12.06 53.708 0.578 7.56 2.1 8.09
10/24/2022 11:45:00 PM 12.06 53.708 0.578 7.57 0.85 8.09
10/25/2022 12:00:00 AM 12.09 53.762 0.578 7.56 1.3 8.11
10/25/2022 12:15:00 AM 12.11 53.798 0.578 7.57 0.84 8.09
10/25/2022 12:30:00 AM 12.13 53.834 0.578 7.57 1.19 8.05
10/25/2022 12:45:00 AM 12.16 53.888 0.578 7.55 2.26 7.93
10/25/2022 1:00:00 AM 12.18 53.924 0.578 7.56 0.85 7.94
10/25/2022 1:15:00 AM 12.2 53.96 0.578 7.56 0.91 7.88
10/25/2022 1:30:00 AM 12.21 53.978 0.578 7.56 0.91 7.81
10/25/2022 1:45:00 AM 12.27 54.086 0.578 7.54 1.01 7.71
10/25/2022 2:00:00 AM 12.29 54.122 0.578 7.55 0.89 7.66
10/25/2022 2:15:00 AM 12.3 54.14 0.579 7.55 1 7.58
10/25/2022 2:30:00 AM 12.33 54.194 0.579 7.54 2.28 7.42
10/25/2022 2:45:00 AM 12.33 54.194 0.579 7.54 0.91 7.38
10/25/2022 3:00:00 AM 12.34 54.212 0.579 7.52 1.16 7.3
10/25/2022 3:15:00 AM 12.37 54.266 0.579 7.54 0.85 7.22
10/25/2022 3:30:00 AM 12.4 54.32 0.579 7.53 2.1 7.11
10/25/2022 3:45:00 AM 12.4 54.32 0.58 7.54 0.81 7.06
10/25/2022 4:00:00 AM 12.42 54.356 0.58 7.53 2 6.96
10/25/2022 4:15:00 AM 12.43 54.374 0.58 7.53 1.61 6.94
10/25/2022 4:30:00 AM 12.45 54.41 0.58 7.53 0.88 6.89
10/25/2022 4:45:00 AM 12.49 54.482 0.58 7.52 2.38 6.83
10/25/2022 5:00:00 AM 12.5 54.5 0.58 7.53 0.97 6.82
10/25/2022 5:15:00 AM 12.52 54.536 0.58 7.52 1.01 6.83
10/25/2022 5:30:00 AM 12.54 54.572 0.581 7.55 1.02 6.8
10/25/2022 5:45:00 AM 12.56 54.608 0.581 7.54 1.04 6.81
10/25/2022 6:00:00 AM 12.57 54.626 0.581 7.55 1.2 6.86
10/25/2022 6:15:00 AM 12.59 54.662 0.582 7.54 2.39 6.83
10/25/2022 6:30:00 AM 12.6 54.68 0.581 7.61 1.21 7.14
10/25/2022 6:45:00 AM 12.59 54.662 0.581 7.61 1.49 6.99
10/25/2022 7:00:00 AM 12.61 54.698 0.581 7.62 1.42 7.34
10/25/2022 7:15:00 AM 12.62 54.716 0.581 7.69 1.75 7.75
10/25/2022 7:30:00 AM 12.62 54.716 0.581 7.72 2.58 8.01
10/25/2022 7:45:00 AM 12.64 54.752 0.581 7.73 1.9 8.07
10/25/2022 8:00:00 AM 12.64 54.752 0.581 7.74 2.61 8.15
10/25/2022 8:15:00 AM 12.64 54.752 0.581 7.71 1.81 7.97
10/25/2022 8:30:00 AM 12.66 54.788 0.581 7.75 2.03 8.24
10/25/2022 8:45:00 AM 12.67 54.806 0.581 7.76 1.82 8.35
10/25/2022 9:00:00 AM 12.69 54.842 0.581 7.77 1.74 8.44
10/25/2022 9:15:00 AM 12.72 54.896 0.581 7.76 2.13 8.51
10/25/2022 9:30:00 AM 12.75 54.95 0.581 7.78 2.74 8.68
10/25/2022 9:45:00 AM 12.78 55.004 0.582 7.79 2.13 8.68
10/25/2022 10:00:00 AM 12.83 55.094 0.582 7.79 1.49 8.76
10/25/2022 10:15:00 AM 12.87 55.166 0.582 7.78 3.61 8.75
10/25/2022 10:30:00 AM 12.91 55.238 0.583 7.73 3.11 8.61
10/25/2022 10:45:00 AM 12.92 55.256 0.583 7.73 1.14 8.48
10/25/2022 11:00:00 AM 12.96 55.328 0.583 7.7 1.08 8.4
10/25/2022 11:15:00 AM 13 55.4 0.583 7.66 1.23 8.22
10/25/2022 11:30:00 AM 13.04 55.472 0.583 7.65 14.25 8.18
10/25/2022 11:45:00 AM 13.06 55.508 0.583 7.66 1.42 8.12
10/25/2022 12:00:00 PM 13.12 55.616 0.583 7.67 7.28 8.1
10/25/2022 12:15:00 PM 13.12 55.616 0.583 7.68 1.31 8.15
10/25/2022 12:30:00 PM 13.19 55.742 0.583 7.7 1.21 8.25
10/25/2022 12:45:00 PM 13.22 55.796 0.583 7.71 3.5 8.42
10/25/2022 1:00:00 PM 13.27 55.886 0.582 7.74 1.84 8.64
10/25/2022 1:15:00 PM 13.29 55.922 0.582 7.76 5.46 8.75
10/25/2022 1:30:00 PM 13.31 55.958 0.582 7.78 1.97 8.88
10/25/2022 1:45:00 PM 13.33 55.994 0.581 7.77 2.93 9.06
10/25/2022 2:00:00 PM 13.34 56.012 0.582 7.77 2.93 9.07
10/25/2022 2:15:00 PM 13.35 56.03 0.582 7.77 9.46 9.09
10/25/2022 2:30:00 PM 13.36 56.048 0.582 7.76 3.05 9.1
10/25/2022 2:45:00 PM 13.36 56.048 0.582 7.78 2.69 9.22
10/25/2022 3:00:00 PM 13.35 56.03 0.582 7.77 2.49 9.2
10/25/2022 3:15:00 PM 13.34 56.012 0.582 7.76 2.93 9.2
10/25/2022 3:30:00 PM 13.35 56.03 0.582 7.75 2.4 9.18
10/25/2022 3:45:00 PM 13.36 56.048 0.582 7.74 2.37 9.11
10/25/2022 4:00:00 PM 13.37 56.066 0.582 7.74 2.03 9.11
10/25/2022 4:15:00 PM 13.38 56.084 0.582 7.72 1.59 9.08
10/25/2022 4:30:00 PM 13.38 56.084 0.582 7.71 1.65 9.01
10/25/2022 4:45:00 PM 13.38 56.084 0.582 7.69 1.56 8.93
10/25/2022 5:00:00 PM 13.38 56.084 0.582 7.69 1.52 8.86
10/25/2022 5:15:00 PM 13.38 56.084 0.582 7.66 1.7 8.73
10/25/2022 5:30:00 PM 13.39 56.102 0.582 7.65 1.32 8.6
10/25/2022 5:45:00 PM 13.41 56.138 0.582 7.63 1.15 8.48
10/25/2022 6:00:00 PM 13.44 56.192 0.582 7.6 1.05 8.32
10/25/2022 6:15:00 PM 13.48 56.264 0.582 7.61 2.11 8.17
10/25/2022 6:30:00 PM 13.53 56.354 0.581 7.58 2.11 7.94
10/25/2022 6:45:00 PM 13.56 56.408 0.581 7.6 0.94 7.86
10/25/2022 7:00:00 PM 13.61 56.498 0.581 7.57 1.33 7.73
10/25/2022 7:15:00 PM 13.64 56.552 0.581 7.58 1.26 7.68
10/25/2022 7:30:00 PM 13.67 56.606 0.581 7.54 0.94 7.52
10/25/2022 7:45:00 PM 13.7 56.66 0.581 7.54 0.86 7.39
10/25/2022 8:00:00 PM 13.74 56.732 0.58 7.51 2.06 7.19
10/25/2022 8:15:00 PM 13.75 56.75 0.58 7.51 0.79 7.12
10/25/2022 8:30:00 PM 13.78 56.804 0.58 7.49 0.83 7.06
10/25/2022 8:45:00 PM 13.81 56.858 0.58 7.49 0.76 6.99
10/25/2022 9:00:00 PM 13.85 56.93 0.58 7.49 0.81 6.92
10/25/2022 9:15:00 PM 13.88 56.984 0.58 7.49 0.78 6.88
10/25/2022 9:30:00 PM 13.91 57.038 0.58 7.49 0.87 6.85
10/25/2022 9:45:00 PM 13.93 57.074 0.58 7.48 0.78 6.79
10/25/2022 10:00:00 PM 13.95 57.11 0.58 7.49 0.81 6.74
10/25/2022 10:15:00 PM 14 57.2 0.579 7.48 2.14 6.69
10/25/2022 10:30:00 PM 14.03 57.254 0.58 7.49 0.79 6.69
10/25/2022 10:45:00 PM 14.08 57.344 0.58 7.48 2.23 6.62
10/25/2022 11:00:00 PM 14.08 57.344 0.58 7.49 1.27 6.57
10/25/2022 11:15:00 PM 14.09 57.362 0.58 7.48 1 6.51
10/25/2022 11:30:00 PM 14.15 57.47 0.58 7.49 2.12 6.52
10/25/2022 11:45:00 PM 14.15 57.47 0.58 7.51 1 6.52
10/26/2022 12:00:00 AM 14.18 57.524 0.58 7.5 0.91 6.49
10/26/2022 12:15:00 AM 14.19 57.542 0.58 7.5 0.86 6.48
10/26/2022 12:30:00 AM 14.22 57.596 0.58 7.51 0.81 6.46
10/26/2022 12:45:00 AM 14.25 57.65 0.58 7.51 0.83 6.5
10/26/2022 1:00:00 AM 14.28 57.704 0.579 7.52 0.85 6.51
10/26/2022 1:15:00 AM 14.31 57.758 0.58 7.52 1.17 6.46
10/26/2022 1:30:00 AM 14.34 57.812 0.58 7.53 0.97 6.47
10/26/2022 1:45:00 AM 14.38 57.884 0.579 7.52 0.86 6.44
10/26/2022 2:00:00 AM 14.41 57.938 0.579 7.53 0.89 6.4
10/26/2022 2:15:00 AM 14.46 58.028 0.58 7.53 0.87 6.36
10/26/2022 2:30:00 AM 14.5 58.1 0.58 7.52 0.9 6.28
10/26/2022 2:45:00 AM 14.51 58.118 0.581 7.52 0.84 6.18
10/26/2022 3:00:00 AM 14.5 58.1 0.581 7.54 1.09 6.05
10/26/2022 3:15:00 AM 14.49 58.082 0.582 7.54 1.05 6.16
10/26/2022 3:30:00 AM 14.48 58.064 0.581 7.62 1.17 6.46
10/26/2022 3:45:00 AM 14.44 57.992 0.58 7.7 1.62 7.1
10/26/2022 4:00:00 AM 14.37 57.866 0.58 7.75 1.83 7.47
10/26/2022 4:15:00 AM 14.27 57.686 0.58 7.76 2.53 7.59
10/26/2022 4:30:00 AM 14.16 57.488 0.58 7.76 3.68 7.65
10/26/2022 4:45:00 AM 14.06 57.308 0.58 7.76 2.91 7.69
10/26/2022 5:00:00 AM 13.96 57.128 0.58 7.77 2.45 7.73
10/26/2022 5:15:00 AM 13.86 56.948 0.581 7.75 3.19 7.73
10/26/2022 5:30:00 AM 13.76 56.768 0.581 7.75 2.01 7.7
10/26/2022 5:45:00 AM 13.66 56.588 0.581 7.73 2.13 7.71
10/26/2022 6:00:00 AM 13.52 56.336 0.582 7.74 3.7 7.76
10/26/2022 6:15:00 AM 13.41 56.138 0.582 7.75 1.92 7.81
10/26/2022 6:30:00 AM 13.31 55.958 0.582 7.73 2.3 7.8
10/26/2022 6:45:00 AM 13.22 55.796 0.583 7.74 1.77 7.79
10/26/2022 7:00:00 AM 13.14 55.652 0.583 7.74 1.78 7.88
10/26/2022 7:15:00 AM 13.08 55.544 0.583 7.75 1.68 7.9
10/26/2022 7:30:00 AM 13.02 55.436 0.583 7.75 1.44 7.94
10/26/2022 7:45:00 AM 12.96 55.328 0.583 7.75 1.49 7.98
10/26/2022 8:00:00 AM 12.89 55.202 0.584 7.75 1.64 8.03
10/26/2022 8:15:00 AM 12.83 55.094 0.584 7.76 2.14 8.12
10/26/2022 8:30:00 AM 12.79 55.022 0.584 7.76 2.48 8.21
10/26/2022 8:45:00 AM 12.77 54.986 0.584 7.78 1.53 8.4
10/26/2022 9:00:00 AM 12.75 54.95 0.584 7.8 1.41 8.49
10/26/2022 9:15:00 AM 12.72 54.896 0.584 7.8 1.74 8.64
10/26/2022 9:30:00 AM 12.75 54.95 0.584 7.82 1.74 8.77
10/26/2022 9:45:00 AM 12.84 55.112 0.584 7.82 1.52 8.92
10/26/2022 10:00:00 AM 12.99 55.382 0.584 7.84 1.5 9.07
10/26/2022 10:15:00 AM 13.14 55.652 0.584 7.87 1.82 9.3
10/26/2022 10:30:00 AM 13.35 56.03 0.584 7.88 1.57 9.42
10/26/2022 10:45:00 AM 13.47 56.246 0.584 7.9 1.56 9.54
10/26/2022 11:00:00 AM 13.52 56.336 0.584 7.93 1.45 9.68
10/26/2022 11:15:00 AM 13.44 56.192 0.584 7.89 1.42 9.59
10/26/2022 11:30:00 AM 13.17 55.706 0.584 7.9 1.4 9.54
10/26/2022 11:45:00 AM 13.02 55.436 0.584 7.92 1.29 9.69
10/26/2022 12:00:00 PM 13.09 55.562 0.584 7.93 1.45 9.78
10/26/2022 12:15:00 PM 13.3 55.94 0.584 7.95 1.44 9.97
10/26/2022 12:30:00 PM 13.5 56.3 0.584 7.96 3.61 10.05
10/26/2022 12:45:00 PM 13.72 56.696 0.584 7.97 1.34 10.04
10/26/2022 1:00:00 PM 13.81 56.858 0.583 7.97 1.18 10.05
10/26/2022 1:15:00 PM 13.81 56.858 0.583 7.97 1.24 10.16
10/26/2022 1:30:00 PM 13.87 56.966 0.583 8 1.32 10.32
10/26/2022 1:45:00 PM 14 57.2 0.582 7.99 1.3 10.37
10/26/2022 2:00:00 PM 14.07 57.326 0.582 8.02 4.92 10.52
10/26/2022 2:15:00 PM 14.12 57.416 0.581 8.02 2.43 10.61
10/26/2022 2:30:00 PM 14.18 57.524 0.581 8.03 1.19 10.57
10/26/2022 2:45:00 PM 14.2 57.56 0.582 7.99 1.17 10.44
10/26/2022 3:00:00 PM 14.21 57.578 0.581 8.01 2.46 10.6
10/26/2022 3:15:00 PM 14.17 57.506 0.582 7.91 3.54 10.26
10/26/2022 3:30:00 PM 14.16 57.488 0.582 7.88 1.07 9.95
10/26/2022 3:45:00 PM 14.18 57.524 0.582 7.87 1.11 9.86
10/26/2022 4:00:00 PM 14.18 57.524 0.583 7.8 2.35 9.66
10/26/2022 4:15:00 PM 14.16 57.488 0.583 7.75 2.2 9.25
10/26/2022 4:30:00 PM 14.11 57.398 0.583 7.73 1.01 9.05
10/26/2022 4:45:00 PM 14.09 57.362 0.583 7.72 0.96 8.92
10/26/2022 5:00:00 PM 14.07 57.326 0.583 7.67 0.95 8.66
10/26/2022 5:15:00 PM 14.06 57.308 0.583 7.66 0.92 8.46
10/26/2022 5:30:00 PM 14.07 57.326 0.583 7.64 2.15 8.36
10/26/2022 5:45:00 PM 14.07 57.326 0.582 7.63 2.25 8.2
10/26/2022 6:00:00 PM 14.06 57.308 0.582 7.62 0.93 8.1
10/26/2022 6:15:00 PM 14.05 57.29 0.582 7.6 0.87 7.98
10/26/2022 6:30:00 PM 14.06 57.308 0.582 7.61 0.84 7.96
10/26/2022 6:45:00 PM 14.07 57.326 0.582 7.59 0.84 7.87
10/26/2022 7:00:00 PM 14.08 57.344 0.581 7.6 0.91 7.85
10/26/2022 7:15:00 PM 14.09 57.362 0.581 7.6 1 7.8
10/26/2022 7:30:00 PM 14.08 57.344 0.581 7.59 1.09 7.78
10/26/2022 7:45:00 PM 14.07 57.326 0.581 7.59 0.9 7.78
10/26/2022 8:00:00 PM 14.06 57.308 0.58 7.59 0.89 7.8
10/26/2022 8:15:00 PM 14.06 57.308 0.58 7.59 0.96 7.75
10/26/2022 8:30:00 PM 14.04 57.272 0.58 7.59 1.06 7.72
10/26/2022 8:45:00 PM 14.03 57.254 0.58 7.59 0.93 7.68
10/26/2022 9:00:00 PM 14.03 57.254 0.58 7.59 0.92 7.67
10/26/2022 9:15:00 PM 14.02 57.236 0.58 7.57 0.91 7.59
10/26/2022 9:30:00 PM 14.04 57.272 0.58 7.6 1.38 7.6
10/26/2022 9:45:00 PM 14.05 57.29 0.58 7.67 1.06 7.74
10/26/2022 10:00:00 PM 14.07 57.326 0.579 7.77 1.28 8.11
10/26/2022 10:15:00 PM 14.05 57.29 0.579 7.74 1.31 8.02
10/26/2022 10:30:00 PM 14.04 57.272 0.578 7.82 1.47 8.37
10/26/2022 10:45:00 PM 14.04 57.272 0.577 7.84 1.95 8.58
10/26/2022 11:00:00 PM 14 57.2 0.577 7.89 2.27 8.7
10/26/2022 11:15:00 PM 13.88 56.984 0.578 7.83 1.73 8.57
10/26/2022 11:30:00 PM 13.82 56.876 0.577 7.87 1.84 8.73
10/26/2022 11:45:00 PM 13.78 56.804 0.578 7.81 3.48 8.49
10/27/2022 12:00:00 AM 13.71 56.678 0.578 7.81 2.99 8.43
10/27/2022 12:15:00 AM 13.66 56.588 0.579 7.79 2.24 8.39
10/27/2022 12:30:00 AM 13.58 56.444 0.579 7.81 2.57 8.42
10/27/2022 12:45:00 AM 13.51 56.318 0.579 7.8 2.6 8.38
10/27/2022 1:00:00 AM 13.43 56.174 0.579 7.8 4.47 8.36
10/27/2022 1:15:00 AM 13.38 56.084 0.579 7.78 2.13 8.32
10/27/2022 1:30:00 AM 13.31 55.958 0.58 7.8 1.71 8.35
10/27/2022 1:45:00 AM 13.24 55.832 0.58 7.79 1.55 8.31
10/27/2022 2:00:00 AM 13.16 55.688 0.581 7.78 1.43 8.24
10/27/2022 2:15:00 AM 13.09 55.562 0.581 7.76 3.04 8.2
10/27/2022 2:30:00 AM 13.05 55.49 0.581 7.77 2.05 8.19
10/27/2022 2:45:00 AM 12.95 55.31 0.581 7.78 1.71 8.28
10/27/2022 3:00:00 AM 12.88 55.184 0.581 7.78 1.77 8.27
10/27/2022 3:15:00 AM 12.78 55.004 0.582 7.78 2.85 8.31
10/27/2022 3:30:00 AM 12.67 54.806 0.582 7.78 2.87 8.36
10/27/2022 3:45:00 AM 12.59 54.662 0.582 7.8 1.43 8.42
10/27/2022 4:00:00 AM 12.53 54.554 0.583 7.78 4.56 8.41
10/27/2022 4:15:00 AM 12.46 54.428 0.583 7.79 2.62 8.44
10/27/2022 4:30:00 AM 12.4 54.32 0.583 7.79 1.39 8.46
10/27/2022 4:45:00 AM 12.35 54.23 0.583 7.77 1.37 8.46
10/27/2022 5:00:00 AM 12.26 54.068 0.583 7.79 1.35 8.5
10/27/2022 5:15:00 AM 12.19 53.942 0.584 7.78 1.69 8.51
10/27/2022 5:30:00 AM 12.09 53.762 0.584 7.78 1.67 8.51
10/27/2022 5:45:00 AM 12.02 53.636 0.585 7.78 1.59 8.49
10/27/2022 6:00:00 AM 11.92 53.456 0.585 7.79 1.58 8.55
10/27/2022 6:15:00 AM 11.81 53.258 0.585 7.79 1.41 8.64
10/27/2022 6:30:00 AM 11.68 53.024 0.586 7.8 2.21 8.71
10/27/2022 6:45:00 AM 11.59 52.862 0.586 7.8 1.42 8.75
10/27/2022 7:00:00 AM 11.51 52.718 0.587 7.79 1.36 8.73
10/27/2022 7:15:00 AM 11.39 52.502 0.587 7.8 1.36 8.8
10/27/2022 7:30:00 AM 11.31 52.358 0.588 7.79 3.11 8.79
10/27/2022 7:45:00 AM 11.23 52.214 0.588 7.8 1.35 8.84
10/27/2022 8:00:00 AM 11.17 52.106 0.588 7.81 1.39 8.9
10/27/2022 8:15:00 AM 11.17 52.106 0.588 7.82 2.56 9.01
10/27/2022 8:30:00 AM 11.16 52.088 0.588 7.82 1.36 9.09
10/27/2022 8:45:00 AM 11.13 52.034 0.588 7.84 1.45 9.18
10/27/2022 9:00:00 AM 11.14 52.052 0.588 7.84 2.18 9.29
10/27/2022 9:15:00 AM 11.07 51.926 0.589 7.86 3.61 9.56
10/27/2022 9:30:00 AM 11 51.8 0.589 7.89 1.31 9.72
10/27/2022 9:45:00 AM 11.03 51.854 0.589 7.93 1.34 9.97
10/27/2022 10:00:00 AM 11.15 52.07 0.589 7.93 2.53 10.09
10/27/2022 10:15:00 AM 11.14 52.052 0.589 7.94 3.68 10.12
10/27/2022 10:30:00 AM 11.22 52.196 0.589 7.96 6.17 10.35
10/27/2022 10:45:00 AM 11.38 52.484 0.589 7.97 2.52 10.43
10/27/2022 11:00:00 AM 11.42 52.556 0.589 7.95 1.34 10.42
10/27/2022 11:15:00 AM 11.52 52.736 0.589 7.98 1.26 10.51
10/27/2022 11:30:00 AM 11.71 53.078 0.589 7.99 1.32 10.66
10/27/2022 11:45:00 AM 11.9 53.42 0.589 8.01 1.32 10.72
10/27/2022 12:00:00 PM 12.05 53.69 0.588 8 1.2 10.78
10/27/2022 12:15:00 PM 12.14 53.852 0.588 8.01 1.42 10.81
10/27/2022 12:30:00 PM 12.23 54.014 0.587 8.02 1.39 10.88
10/27/2022 12:45:00 PM 12.32 54.176 0.588 8.04 1.3 11
10/27/2022 1:00:00 PM 12.39 54.302 0.588 8.06 1.34 11.03
10/27/2022 1:15:00 PM 12.47 54.446 0.588 8.06 1.27 11.04
10/27/2022 1:30:00 PM 12.59 54.662 0.588 8.1 1.29 11.17
10/27/2022 1:45:00 PM 12.67 54.806 0.587 8.11 1.38 11.27
10/27/2022 2:00:00 PM 12.71 54.878 0.586 8.13 1.8 11.39
10/27/2022 2:15:00 PM 12.76 54.968 0.587 8.11 1.64 11.43
10/27/2022 2:30:00 PM 12.78 55.004 0.587 8.09 1.25 11.4
10/27/2022 2:45:00 PM 12.82 55.076 0.587 8.09 1.27 11.33
10/27/2022 3:00:00 PM 12.84 55.112 0.587 8.1 1.24 11.37
10/27/2022 3:15:00 PM 12.87 55.166 0.587 8.08 1.2 11.19
10/27/2022 3:30:00 PM 12.9 55.22 0.587 8.05 1.19 11.04
10/27/2022 3:45:00 PM 12.92 55.256 0.587 8.07 1.27 10.92
10/27/2022 4:00:00 PM 12.94 55.292 0.587 8.07 2.59 11
10/27/2022 4:15:00 PM 12.93 55.274 0.586 8.11 1.35 11.09
10/27/2022 4:30:00 PM 12.93 55.274 0.586 8.09 1.38 11.06
10/27/2022 4:45:00 PM 12.92 55.256 0.586 8.04 2.79 10.87
10/27/2022 5:00:00 PM 12.91 55.238 0.586 7.94 1.57 10.63
10/27/2022 5:15:00 PM 12.9 55.22 0.586 7.92 1.13 10.47
10/27/2022 5:30:00 PM 12.89 55.202 0.586 7.97 1.2 10.53
10/27/2022 5:45:00 PM 12.88 55.184 0.586 7.93 1.25 10.41
10/27/2022 6:00:00 PM 12.86 55.148 0.585 7.98 1.55 10.6
10/27/2022 6:15:00 PM 12.83 55.094 0.584 8.08 1.97 10.82
10/27/2022 6:30:00 PM 12.79 55.022 0.583 8.13 2.12 10.94
10/27/2022 6:45:00 PM 12.75 54.95 0.584 8.11 2.5 10.8
10/27/2022 7:00:00 PM 12.7 54.86 0.584 8.1 2.18 10.64
10/27/2022 7:15:00 PM 12.64 54.752 0.583 8.08 1.72 10.56
10/27/2022 7:30:00 PM 12.56 54.608 0.584 8.05 2.49 10.35
10/27/2022 7:45:00 PM 12.5 54.5 0.583 8.05 2.41 10.35
10/27/2022 8:00:00 PM 12.4 54.32 0.583 8.05 3.16 10.4
10/27/2022 8:15:00 PM 12.32 54.176 0.583 8.05 1.68 10.37
10/27/2022 8:30:00 PM 12.26 54.068 0.583 8.04 2.21 10.33
10/27/2022 8:45:00 PM 12.19 53.942 0.583 8.02 2.62 10.29
10/27/2022 9:00:00 PM 12.13 53.834 0.583 8.02 1.63 10.25
10/27/2022 9:15:00 PM 12.06 53.708 0.583 8 2.83 10.19
10/27/2022 9:30:00 PM 12 53.6 0.583 8 1.76 10.15
10/27/2022 9:45:00 PM 11.93 53.474 0.583 7.99 2.1 10.1
10/27/2022 10:00:00 PM 11.83 53.294 0.582 7.98 3.72 10.06
10/27/2022 10:15:00 PM 11.67 53.006 0.583 7.99 2.28 10.08
10/27/2022 10:30:00 PM 11.58 52.844 0.583 7.98 2.09 10.02
10/27/2022 10:45:00 PM 11.47 52.646 0.583 7.98 2.3 9.98
10/27/2022 11:00:00 PM 11.38 52.484 0.583 7.97 2.52 9.91
10/27/2022 11:15:00 PM 11.27 52.286 0.583 7.97 1.82 9.87
10/27/2022 11:30:00 PM 11.11 51.998 0.583 7.97 3.05 9.86
10/27/2022 11:45:00 PM 10.96 51.728 0.584 7.98 2.55 9.88
10/28/2022 12:00:00 AM 10.84 51.512 0.584 7.96 1.31 9.83
10/28/2022 12:15:00 AM 10.72 51.296 0.584 7.96 1.36 9.79
10/28/2022 12:30:00 AM 10.56 51.008 0.584 7.94 1.28 9.77
10/28/2022 12:45:00 AM 10.37 50.666 0.584 7.95 1.34 9.75
10/28/2022 1:00:00 AM 10.24 50.432 0.585 7.94 1.33 9.71
10/28/2022 1:15:00 AM 10.08 50.144 0.585 7.93 1.34 9.69
10/28/2022 1:30:00 AM 9.92 49.856 0.586 7.91 1.32 9.67
10/28/2022 1:45:00 AM 9.76 49.568 0.586 7.91 1.38 9.67
10/28/2022 2:00:00 AM 9.59 49.262 0.587 7.9 2.96 9.68
10/28/2022 2:15:00 AM 9.46 49.028 0.419 7.89 8.92 9.67
10/28/2022 2:30:00 AM 9.34 48.812 0.587 7.88 1.37 9.66
10/28/2022 2:45:00 AM 9.14 48.452 0.587 7.88 1.35 9.73
10/28/2022 3:00:00 AM 9.01 48.218 0.587 7.87 1.42 9.73
10/28/2022 3:15:00 AM 8.84 47.912 0.587 7.87 1.33 9.79
10/28/2022 3:30:00 AM 8.76 47.768 0.588 7.85 1.36 9.78
10/28/2022 3:45:00 AM 8.61 47.498 0.588 7.85 1.44 9.83
10/28/2022 4:00:00 AM 8.51 47.318 0.588 7.84 1.36 9.82
10/28/2022 4:15:00 AM 8.32 46.976 0.588 7.85 1.49 9.9
10/28/2022 4:30:00 AM 8.21 46.778 0.589 7.85 1.48 9.94
10/28/2022 4:45:00 AM 8.1 46.58 0.589 7.84 1.51 9.95
10/28/2022 5:00:00 AM 7.98 46.364 0.589 7.83 1.55 10
10/28/2022 5:15:00 AM 7.85 46.13 0.589 7.84 1.72 10.05
10/28/2022 5:30:00 AM 7.71 45.878 0.589 7.84 1.38 10.13
10/28/2022 5:45:00 AM 7.65 45.77 0.59 7.84 1.53 10.11
10/28/2022 6:00:00 AM 7.51 45.518 0.59 7.83 1.48 10.16
10/28/2022 6:15:00 AM 7.39 45.302 0.59 7.84 1.88 10.22
10/28/2022 6:30:00 AM 7.28 45.104 0.59 7.84 1.49 10.26
10/28/2022 6:45:00 AM 7.2 44.96 0.59 7.84 1.37 10.28
10/28/2022 7:00:00 AM 7.08 44.744 0.591 7.83 1.41 10.32
10/28/2022 7:15:00 AM 6.99 44.582 0.591 7.83 1.42 10.35
10/28/2022 7:30:00 AM 6.88 44.384 0.592 7.84 1.4 10.41
10/28/2022 7:45:00 AM 6.76 44.168 0.592 7.84 1.37 10.47
10/28/2022 8:00:00 AM 6.7 44.06 0.593 7.83 2.56 10.52
10/28/2022 8:15:00 AM 6.65 43.97 0.593 7.86 1.43 10.61
10/28/2022 8:30:00 AM 6.56 43.808 0.593 7.87 2.59 10.8
10/28/2022 8:45:00 AM 6.55 43.79 0.593 7.88 1.52 10.92
10/28/2022 9:00:00 AM 6.55 43.79 0.594 7.9 1.37 11.03
10/28/2022 9:15:00 AM 6.56 43.808 0.594 7.91 2.66 11.18
10/28/2022 9:30:00 AM 6.61 43.898 0.594 7.93 1.31 11.23
10/28/2022 9:45:00 AM 6.61 43.898 0.594 7.94 1.29 11.37
10/28/2022 10:00:00 AM 6.73 44.114 0.594 7.95 1.33 11.45
10/28/2022 10:15:00 AM 6.78 44.204 0.594 7.96 1.36 11.55
10/28/2022 10:30:00 AM 6.82 44.276 0.594 7.97 1.28 11.58
10/28/2022 10:45:00 AM 6.92 44.456 0.595 7.98 1.29 11.68
10/28/2022 11:00:00 AM 7.01 44.618 0.595 7.99 1.29 11.75
10/28/2022 11:15:00 AM 7.11 44.798 0.595 8 1.62 11.83
10/28/2022 11:30:00 AM 7.21 44.978 0.595 8 1.23 11.85
10/28/2022 11:45:00 AM 7.31 45.158 0.595 8.02 1.25 11.94
10/28/2022 12:00:00 PM 7.43 45.374 0.595 8.03 1.25 12.02
10/28/2022 12:15:00 PM 7.66 45.788 0.595 8.03 1.23 12.02
10/28/2022 12:30:00 PM 7.85 46.13 0.594 8.02 4.38 12.01
10/28/2022 12:45:00 PM 7.97 46.346 0.594 8.04 1.26 12.01
10/28/2022 1:00:00 PM 8.28 46.904 0.594 8.01 1.35 11.86
10/28/2022 1:15:00 PM 8.43 47.174 0.594 8.03 1.24 11.96
10/28/2022 1:30:00 PM 8.63 47.534 0.594 8.01 1.27 11.93
10/28/2022 1:45:00 PM 8.86 47.948 0.593 7.98 1.19 11.82
10/28/2022 2:00:00 PM 9.05 48.29 0.594 8 1.2 11.85
10/28/2022 2:15:00 PM 9.15 48.47 0.594 8 1.21 11.9
10/28/2022 2:30:00 PM 9.23 48.614 0.593 8 1.25 11.89
10/28/2022 2:45:00 PM 9.23 48.614 0.593 8.04 1.23 12.15
10/28/2022 3:00:00 PM 9.26 48.668 0.593 8.04 1.19 12.17
10/28/2022 3:15:00 PM 9.34 48.812 0.593 8.05 1.19 12.17
10/28/2022 3:30:00 PM 9.44 48.992 0.593 8.04 2.63 12.17
10/28/2022 3:45:00 PM 9.54 49.172 0.592 8.07 1.17 12.22
10/28/2022 4:00:00 PM 9.66 49.388 0.592 8.04 1.31 12.15
10/28/2022 4:15:00 PM 9.76 49.568 0.592 8.06 1.17 12.12
10/28/2022 4:30:00 PM 9.83 49.694 0.591 8.06 1.14 12.12
10/28/2022 4:45:00 PM 9.91 49.838 0.591 8.04 2.33 12.05
10/28/2022 5:00:00 PM 9.96 49.928 0.591 8.03 1.04 11.95
10/28/2022 5:15:00 PM 10.01 50.018 0.59 8.03 1.09 11.91
10/28/2022 5:30:00 PM 10.07 50.126 0.59 8.03 1.12 11.83
10/28/2022 5:45:00 PM 10.11 50.198 0.59 8 1.06 11.73
10/28/2022 6:00:00 PM 10.14 50.252 0.59 8 1.12 11.58
10/28/2022 6:15:00 PM 10.17 50.306 0.59 7.95 1.04 11.4
10/28/2022 6:30:00 PM 10.18 50.324 0.59 7.94 1.03 11.24
10/28/2022 6:45:00 PM 10.17 50.306 0.589 7.94 1.1 11.2
10/28/2022 7:00:00 PM 10.16 50.288 0.589 7.99 1.85 11.22
10/28/2022 7:15:00 PM 10.16 50.288 0.589 7.99 1.36 11.21
10/28/2022 7:30:00 PM 10.15 50.27 0.589 7.97 1.28 11.17
10/28/2022 7:45:00 PM 10.12 50.216 0.589 7.92 1.21 11
10/28/2022 8:00:00 PM 10.07 50.126 0.589 7.96 1.28 11.03
10/28/2022 8:15:00 PM 10.03 50.054 0.588 7.99 1.28 11.14
10/28/2022 8:30:00 PM 9.99 49.982 0.588 8 1.33 11.18
10/28/2022 8:45:00 PM 9.94 49.892 0.588 7.99 1.33 11.17
10/28/2022 9:00:00 PM 9.91 49.838 0.588 7.96 1.89 11.09
10/28/2022 9:15:00 PM 9.87 49.766 0.588 7.98 1.36 11.09
10/28/2022 9:30:00 PM 9.79 49.622 0.588 7.99 1.26 11.11
10/28/2022 9:45:00 PM 9.73 49.514 0.588 7.99 1.38 11.1
10/28/2022 10:00:00 PM 9.64 49.352 0.587 8 3.19 11.12
10/28/2022 10:15:00 PM 9.56 49.208 0.587 8 3.02 11.1
10/28/2022 10:30:00 PM 9.49 49.082 0.588 7.98 2.33 11.03
10/28/2022 10:45:00 PM 9.38 48.884 0.588 7.99 1.71 11.01
10/28/2022 11:00:00 PM 9.3 48.74 0.588 7.96 1.63 10.94
10/28/2022 11:15:00 PM 9.19 48.542 0.588 7.97 1.4 10.89
10/28/2022 11:30:00 PM 9.08 48.344 0.588 7.97 1.38 10.86
10/28/2022 11:45:00 PM 8.96 48.128 0.588 7.98 1.43 10.84
10/29/2022 12:00:00 AM 8.89 48.002 0.588 7.96 1.23 10.77
10/29/2022 12:15:00 AM 8.77 47.786 0.588 7.95 1.6 10.73
10/29/2022 12:30:00 AM 8.69 47.642 0.588 7.94 2.19 10.65
10/29/2022 12:45:00 AM 8.58 47.444 0.589 7.93 1.51 10.62
10/29/2022 1:00:00 AM 8.42 47.156 0.588 7.94 1.46 10.6
10/29/2022 1:15:00 AM 8.29 46.922 0.589 7.92 1.4 10.58
10/29/2022 1:30:00 AM 8.18 46.724 0.589 7.92 1.45 10.54
10/29/2022 1:45:00 AM 8.12 46.616 0.589 7.9 1.31 10.48
10/29/2022 2:00:00 AM 8.02 46.436 0.589 7.9 2.57 10.45
10/29/2022 2:15:00 AM 7.9 46.22 0.589 7.89 1.25 10.43
10/29/2022 2:30:00 AM 7.73 45.914 0.589 7.9 1.32 10.48
10/29/2022 2:45:00 AM 7.62 45.716 0.589 7.9 1.27 10.47
10/29/2022 3:00:00 AM 7.54 45.572 0.589 7.87 1.34 10.45
10/29/2022 3:15:00 AM 7.38 45.284 0.589 7.89 1.34 10.5
10/29/2022 3:30:00 AM 7.31 45.158 0.589 7.88 1.93 10.49
10/29/2022 3:45:00 AM 7.22 44.996 0.589 7.88 1.62 10.49
10/29/2022 4:00:00 AM 7.12 44.816 0.589 7.86 1.9 10.5
10/29/2022 4:15:00 AM 7 44.6 0.589 7.87 1.54 10.53
10/29/2022 4:30:00 AM 6.88 44.384 0.589 7.87 1.74 10.56
10/29/2022 4:45:00 AM 6.78 44.204 0.59 7.86 1.97 10.58
10/29/2022 5:00:00 AM 6.7 44.06 0.59 7.85 2.7 10.59
10/29/2022 5:15:00 AM 6.58 43.844 0.59 7.86 1.38 10.63
10/29/2022 5:30:00 AM 6.47 43.646 0.59 7.86 1.59 10.67
10/29/2022 5:45:00 AM 6.37 43.466 0.59 7.86 1.54 10.72
10/29/2022 6:00:00 AM 6.2 43.16 0.59 7.86 1.37 10.77
10/29/2022 6:15:00 AM 6.14 43.052 0.59 7.85 1.46 10.77
10/29/2022 6:30:00 AM 6.06 42.908 0.591 7.85 1.57 10.78
10/29/2022 6:45:00 AM 5.92 42.656 0.591 7.86 1.43 10.85
10/29/2022 7:00:00 AM 5.8 42.44 0.591 7.86 1.2 10.9
10/29/2022 7:15:00 AM 5.74 42.332 0.591 7.85 1.2 10.92
10/29/2022 7:30:00 AM 5.58 42.044 0.592 7.86 2.05 10.98
10/29/2022 7:45:00 AM 5.52 41.936 0.592 7.84 1.31 10.99
10/29/2022 8:00:00 AM 5.46 41.828 0.592 7.85 1.28 11.03
10/29/2022 8:15:00 AM 5.36 41.648 0.592 7.86 1.23 11.13
10/29/2022 8:30:00 AM 5.35 41.63 0.593 7.87 1.21 11.19
10/29/2022 8:45:00 AM 5.28 41.504 0.593 7.87 4.22 11.29
10/29/2022 9:00:00 AM 5.27 41.486 0.593 7.88 1.29 11.36
10/29/2022 9:15:00 AM 5.23 41.414 0.593 7.89 1.29 11.48
10/29/2022 9:30:00 AM 5.26 41.468 0.593 7.89 2.49 11.56
10/29/2022 9:45:00 AM 5.35 41.63 0.594 7.9 1.25 11.61
10/29/2022 10:00:00 AM 5.53 41.954 0.593 7.92 1.22 11.72
10/29/2022 10:15:00 AM 5.72 42.296 0.593 7.94 1.24 11.84
10/29/2022 10:30:00 AM 5.9 42.62 0.593 7.96 1.31 11.97
10/29/2022 10:45:00 AM 6.08 42.944 0.593 7.98 1.28 12.08
10/29/2022 11:00:00 AM 6.28 43.304 0.593 7.99 1.29 12.14
10/29/2022 11:15:00 AM 6.4 43.52 0.593 8.01 1.18 12.25
10/29/2022 11:30:00 AM 6.61 43.898 0.592 8.02 1.25 12.25
10/29/2022 11:45:00 AM 6.81 44.258 0.592 8.03 1.21 12.29
10/29/2022 12:00:00 PM 6.97 44.546 0.592 8.04 1.27 12.27
10/29/2022 12:15:00 PM 7.09 44.762 0.592 8.03 1.24 12.28
10/29/2022 12:30:00 PM 7.21 44.978 0.592 8.05 1.22 12.3
10/29/2022 12:45:00 PM 7.32 45.176 0.592 8.05 1.2 12.3
10/29/2022 1:00:00 PM 7.48 45.464 0.592 8.04 1.18 12.28
10/29/2022 1:15:00 PM 7.67 45.806 0.592 8.04 1.18 12.31
10/29/2022 1:30:00 PM 7.91 46.238 0.592 8.02 1.13 12.22
10/29/2022 1:45:00 PM 8.14 46.652 0.592 8.01 1.1 12.17
10/29/2022 2:00:00 PM 8.35 47.03 0.592 8.03 1.13 12.18
10/29/2022 2:15:00 PM 8.5 47.3 0.592 8.02 1.16 12.19
10/29/2022 2:30:00 PM 8.61 47.498 0.592 8.03 1.14 12.25
10/29/2022 2:45:00 PM 8.7 47.66 0.592 8.04 1.16 12.27
10/29/2022 3:00:00 PM 8.79 47.822 0.591 8.04 1.1 12.25
10/29/2022 3:15:00 PM 8.85 47.93 0.591 8.03 1.1 12.21
10/29/2022 3:30:00 PM 8.92 48.056 0.591 8.02 1.08 12.16
10/29/2022 3:45:00 PM 8.99 48.182 0.591 8.01 1.04 12.11
10/29/2022 4:00:00 PM 9.06 48.308 0.591 7.99 1.04 12.07
10/29/2022 4:15:00 PM 9.09 48.362 0.591 8 2.16 12.02
10/29/2022 4:30:00 PM 9.1 48.38 0.591 8 1.07 12.02
10/29/2022 4:45:00 PM 9.12 48.416 0.591 8.01 1.01 12.03
10/29/2022 5:00:00 PM 9.11 48.398 0.59 7.98 2.32 11.96
10/29/2022 5:15:00 PM 9.11 48.398 0.591 7.9 2.08 11.72
10/29/2022 5:30:00 PM 9.12 48.416 0.591 7.81 0.95 11.31
10/29/2022 5:45:00 PM 9.11 48.398 0.591 7.76 1.92 11.18
10/29/2022 6:00:00 PM 9.1 48.38 0.591 7.78 0.96 11.1
10/29/2022 6:15:00 PM 9.1 48.38 0.591 7.75 4.48 10.99
10/29/2022 6:30:00 PM 9.09 48.362 0.591 7.79 0.92 10.98
10/29/2022 6:45:00 PM 9.09 48.362 0.591 7.78 0.93 10.95
10/29/2022 7:00:00 PM 9.1 48.38 0.591 7.77 2.01 10.87
10/29/2022 7:15:00 PM 9.11 48.398 0.591 7.77 1 10.84
10/29/2022 7:30:00 PM 9.12 48.416 0.591 7.75 0.93 10.69
10/29/2022 7:45:00 PM 9.13 48.434 0.591 7.74 0.94 10.61
10/29/2022 8:00:00 PM 9.12 48.416 0.591 7.76 0.98 10.68
10/29/2022 8:15:00 PM 9.13 48.434 0.59 7.76 0.92 10.66
10/29/2022 8:30:00 PM 9.14 48.452 0.59 7.77 0.91 10.66
10/29/2022 8:45:00 PM 9.14 48.452 0.59 7.77 1.02 10.59
10/29/2022 9:00:00 PM 9.15 48.47 0.59 7.82 1.02 10.66
10/29/2022 9:15:00 PM 9.16 48.488 0.59 7.87 1.1 10.75
10/29/2022 9:30:00 PM 9.16 48.488 0.59 7.89 1.66 10.81
10/29/2022 9:45:00 PM 9.17 48.506 0.59 7.96 1.59 10.95
10/29/2022 10:00:00 PM 9.16 48.488 0.589 8 1.74 11.08
10/29/2022 10:15:00 PM 9.15 48.47 0.588 8.01 1.89 11.13
10/29/2022 10:30:00 PM 9.11 48.398 0.589 7.99 2.71 11.1
10/29/2022 10:45:00 PM 9.04 48.272 0.588 8.01 2.94 11.12
10/29/2022 11:00:00 PM 8.95 48.11 0.588 8.02 2.31 11.09
10/29/2022 11:15:00 PM 8.85 47.93 0.588 8.02 2.11 11.1
10/29/2022 11:30:00 PM 8.74 47.732 0.589 8.01 1.94 11.07
10/29/2022 11:45:00 PM 8.63 47.534 0.589 8 1.54 11.02
10/30/2022 12:00:00 AM 8.51 47.318 0.589 7.98 1.32 10.94
10/30/2022 12:15:00 AM 8.39 47.102 0.59 7.96 1.22 10.9
10/30/2022 12:30:00 AM 8.29 46.922 0.589 7.95 1.35 10.81
10/30/2022 12:45:00 AM 8.15 46.67 0.59 7.95 1.26 10.8
10/30/2022 1:00:00 AM 8.01 46.418 0.591 7.94 1.26 10.77
10/30/2022 1:15:00 AM 7.9 46.22 0.591 7.92 1.26 10.74
10/30/2022 1:30:00 AM 7.74 45.932 0.591 7.94 1.35 10.74
10/30/2022 1:45:00 AM 7.62 45.716 0.591 7.91 1.26 10.69
10/30/2022 2:00:00 AM 7.45 45.41 0.591 7.92 1.25 10.69
10/30/2022 2:15:00 AM 7.3 45.14 0.592 7.9 1.29 10.67
10/30/2022 2:30:00 AM 7.15 44.87 0.592 7.91 1.34 10.68
10/30/2022 2:45:00 AM 7.01 44.618 0.592 7.9 1.3 10.69
10/30/2022 3:00:00 AM 6.87 44.366 0.592 7.91 1.33 10.71
10/30/2022 3:15:00 AM 6.8 44.24 0.593 7.88 1.21 10.69
10/30/2022 3:30:00 AM 6.73 44.114 0.593 7.88 1.29 10.67
10/30/2022 3:45:00 AM 6.57 43.826 0.593 7.9 1.24 10.73
10/30/2022 4:00:00 AM 6.42 43.556 0.593 7.9 1.27 10.78
10/30/2022 4:15:00 AM 6.3 43.34 0.593 7.88 1.38 10.8
10/30/2022 4:30:00 AM 6.23 43.214 0.593 7.88 1.29 10.79
10/30/2022 4:45:00 AM 6.08 42.944 0.593 7.89 1.3 10.86
10/30/2022 5:00:00 AM 6.03 42.854 0.593 7.88 1.29 10.84
10/30/2022 5:15:00 AM 5.89 42.602 0.593 7.88 1.27 10.91
10/30/2022 5:30:00 AM 5.81 42.458 0.594 7.88 1.29 10.92
10/30/2022 5:45:00 AM 5.68 42.224 0.594 7.87 1.21 10.96
10/30/2022 6:00:00 AM 5.55 41.99 0.594 7.88 1.24 11
10/30/2022 6:15:00 AM 5.51 41.918 0.594 7.87 1.26 10.99
10/30/2022 6:30:00 AM 5.44 41.792 0.595 7.85 1.35 11.02
10/30/2022 6:45:00 AM 5.3 41.54 0.595 7.87 1.29 11.07
10/30/2022 7:00:00 AM 5.21 41.378 0.595 7.87 1.27 11.1
10/30/2022 7:15:00 AM 5.15 41.27 0.595 7.86 1.24 11.12
10/30/2022 7:30:00 AM 5.01 41.018 0.595 7.87 1.78 11.19
10/30/2022 7:45:00 AM 4.93 40.874 0.595 7.87 1.27 11.23
10/30/2022 8:00:00 AM 4.86 40.748 0.596 7.88 1.33 11.3
10/30/2022 8:15:00 AM 4.79 40.622 0.596 7.88 1.21 11.39
10/30/2022 8:30:00 AM 4.77 40.586 0.597 7.87 1.2 11.46
10/30/2022 8:45:00 AM 4.71 40.478 0.597 7.9 1.16 11.6
10/30/2022 9:00:00 AM 4.67 40.406 0.597 7.9 1.23 11.74
10/30/2022 9:15:00 AM 4.67 40.406 0.597 7.92 1.24 11.84
10/30/2022 9:30:00 AM 4.8 40.64 0.597 7.92 1.21 11.8
10/30/2022 9:45:00 AM 4.8 40.64 0.597 7.92 1.19 11.95
10/30/2022 10:00:00 AM 4.94 40.892 0.597 7.94 1.26 12.11
10/30/2022 10:15:00 AM 5.14 41.252 0.597 7.95 1.22 12.11
10/30/2022 10:30:00 AM 5.2 41.36 0.597 7.96 1.19 12.19
10/30/2022 10:45:00 AM 5.26 41.468 0.597 7.98 1.28 12.32
10/30/2022 11:00:00 AM 5.41 41.738 0.597 7.99 1.25 12.39
10/30/2022 11:15:00 AM 5.65 42.17 0.597 7.99 1.25 12.45
10/30/2022 11:30:00 AM 5.82 42.476 0.597 8.02 1.21 12.56
10/30/2022 11:45:00 AM 6.01 42.818 0.596 8.02 1.2 12.6
10/30/2022 12:00:00 PM 6.15 43.07 0.596 8.03 1.23 12.62
10/30/2022 12:15:00 PM 6.28 43.304 0.596 8.03 1.2 12.6
10/30/2022 12:30:00 PM 6.41 43.538 0.596 8.02 1.16 12.59
10/30/2022 12:45:00 PM 6.54 43.772 0.596 8.01 1.18 12.54
10/30/2022 1:00:00 PM 6.65 43.97 0.596 8.01 1.19 12.56
10/30/2022 1:15:00 PM 6.82 44.276 0.596 8.03 1.13 12.66
10/30/2022 1:30:00 PM 6.97 44.546 0.595 8.02 1.12 12.61
10/30/2022 1:45:00 PM 7.13 44.834 0.595 8.02 1.11 12.62
10/30/2022 2:00:00 PM 7.34 45.212 0.595 8.04 1.09 12.67
10/30/2022 2:15:00 PM 7.44 45.392 0.595 8.03 1.06 12.65
10/30/2022 2:30:00 PM 7.6 45.68 0.594 8.04 1.11 12.62
10/30/2022 2:45:00 PM 7.71 45.878 0.594 8.04 1.11 12.66
10/30/2022 3:00:00 PM 7.91 46.238 0.593 8.05 1.05 12.67
10/30/2022 3:15:00 PM 8.05 46.49 0.593 8.04 1.08 12.59
10/30/2022 3:30:00 PM 8.11 46.598 0.593 8.05 1.16 12.55
10/30/2022 3:45:00 PM 8.16 46.688 0.593 8.05 1.05 12.5
10/30/2022 4:00:00 PM 8.3 46.94 0.592 8.05 1.04 12.47
10/30/2022 4:15:00 PM 8.37 47.066 0.592 8 0.96 12.36
10/30/2022 4:30:00 PM 8.38 47.084 0.592 7.97 1 12.27
10/30/2022 4:45:00 PM 8.38 47.084 0.592 8 1 12.31
10/30/2022 5:00:00 PM 8.41 47.138 0.592 8.02 2.18 12.35
10/30/2022 5:15:00 PM 8.43 47.174 0.592 8.03 2.4 12.39
10/30/2022 5:30:00 PM 8.43 47.174 0.592 8.04 1.02 12.41
10/30/2022 5:45:00 PM 8.42 47.156 0.592 7.98 0.99 12.25
10/30/2022 6:00:00 PM 8.41 47.138 0.592 7.92 1.03 12.01
10/30/2022 6:15:00 PM 8.41 47.138 0.592 7.88 1.01 11.83
10/30/2022 6:30:00 PM 8.4 47.12 0.592 7.87 1.04 11.68
10/30/2022 6:45:00 PM 8.4 47.12 0.593 7.85 0.99 11.52
10/30/2022 7:00:00 PM 8.41 47.138 0.593 7.82 1.07 11.41
10/30/2022 7:15:00 PM 8.41 47.138 0.593 7.83 1.12 11.34
10/30/2022 7:30:00 PM 8.41 47.138 0.593 7.82 1.03 11.27
10/30/2022 7:45:00 PM 8.43 47.174 0.593 7.79 1.08 11.1
10/30/2022 8:00:00 PM 8.44 47.192 0.593 7.76 1.03 11.01
10/30/2022 8:15:00 PM 8.45 47.21 0.593 7.76 0.97 10.92
10/30/2022 8:30:00 PM 8.48 47.264 0.593 7.75 1.04 10.85
10/30/2022 8:45:00 PM 8.5 47.3 0.593 7.74 0.92 10.76
10/30/2022 9:00:00 PM 8.5 47.3 0.592 7.73 1.06 10.75
10/30/2022 9:15:00 PM 8.51 47.318 0.592 7.73 0.98 10.73
10/30/2022 9:30:00 PM 8.5 47.3 0.592 7.72 1.04 10.79
10/30/2022 9:45:00 PM 8.5 47.3 0.592 7.76 0.99 10.9
10/30/2022 10:00:00 PM 8.51 47.318 0.592 7.77 1 10.92
10/30/2022 10:15:00 PM 8.51 47.318 0.592 7.77 1 10.91
10/30/2022 10:30:00 PM 8.53 47.354 0.592 7.77 0.99 10.83
10/30/2022 10:45:00 PM 8.54 47.372 0.592 7.76 0.97 10.77
10/30/2022 11:00:00 PM 8.56 47.408 0.592 7.77 0.94 10.66
10/30/2022 11:15:00 PM 8.57 47.426 0.592 7.78 0.9 10.68
10/30/2022 11:30:00 PM 8.63 47.534 0.591 7.89 3.79 10.8
10/30/2022 11:45:00 PM 8.71 47.678 0.59 7.97 1.29 10.95
10/31/2022 12:00:00 AM 8.71 47.678 0.591 7.97 1.58 10.9
10/31/2022 12:15:00 AM 8.7 47.66 0.59 7.98 1.68 10.88
10/31/2022 12:30:00 AM 8.63 47.534 0.59 7.96 1.76 10.8
10/31/2022 12:45:00 AM 8.6 47.48 0.59 7.98 1.85 10.81
10/31/2022 1:00:00 AM 8.52 47.336 0.59 7.96 2.84 10.76
10/31/2022 1:15:00 AM 8.42 47.156 0.59 7.97 1.38 10.72
10/31/2022 1:30:00 AM 8.31 46.958 0.591 7.94 1.22 10.66
10/31/2022 1:45:00 AM 8.22 46.796 0.591 7.94 1.36 10.65
10/31/2022 2:00:00 AM 8.1 46.58 0.591 7.93 1.2 10.6
10/31/2022 2:15:00 AM 8.01 46.418 0.591 7.92 1.3 10.57
10/31/2022 2:30:00 AM 7.91 46.238 0.592 7.91 1.18 10.52
10/31/2022 2:45:00 AM 7.81 46.058 0.592 7.89 1.26 10.51
10/31/2022 3:00:00 AM 7.71 45.878 0.592 7.9 1.35 10.49
10/31/2022 3:15:00 AM 7.61 45.698 0.592 7.89 1.24 10.48
10/31/2022 3:30:00 AM 7.52 45.536 0.592 7.9 1.21 10.49
10/31/2022 3:45:00 AM 7.41 45.338 0.592 7.9 1.25 10.5
10/31/2022 4:00:00 AM 7.32 45.176 0.592 7.89 1.21 10.51
10/31/2022 4:15:00 AM 7.24 45.032 0.592 7.9 1.18 10.51
10/31/2022 4:30:00 AM 7.18 44.924 0.592 7.89 1.26 10.49
10/31/2022 4:45:00 AM 7.1 44.78 0.592 7.88 1.18 10.52
10/31/2022 5:00:00 AM 7.05 44.69 0.592 7.89 1.2 10.52
10/31/2022 5:15:00 AM 7.01 44.618 0.593 7.89 1.21 10.55
10/31/2022 5:30:00 AM 7.01 44.618 0.593 7.88 1.2 10.52
10/31/2022 5:45:00 AM 6.96 44.528 0.593 7.88 1.19 10.53
10/31/2022 6:00:00 AM 6.92 44.456 0.593 7.87 1.19 10.53
10/31/2022 6:15:00 AM 6.83 44.294 0.593 7.88 1.26 10.57
10/31/2022 6:30:00 AM 6.8 44.24 0.593 7.86 1.2 10.55
10/31/2022 6:45:00 AM 6.68 44.024 0.593 7.87 1.23 10.58
10/31/2022 7:00:00 AM 6.58 43.844 0.593 7.87 1.22 10.63
10/31/2022 7:15:00 AM 6.54 43.772 0.594 7.86 1.83 10.61
10/31/2022 7:30:00 AM 6.42 43.556 0.594 7.86 1.25 10.66
10/31/2022 7:45:00 AM 6.37 43.466 0.594 7.86 1.18 10.7
10/31/2022 8:00:00 AM 6.31 43.358 0.594 7.86 1.47 10.73
10/31/2022 8:15:00 AM 6.26 43.268 0.594 7.87 1.25 10.81
10/31/2022 8:30:00 AM 6.26 43.268 0.595 7.88 1.2 10.9
10/31/2022 8:45:00 AM 6.25 43.25 0.594 7.9 1.24 11.14
10/31/2022 9:00:00 AM 6.35 43.43 0.595 7.92 1.21 11.25
10/31/2022 9:15:00 AM 6.36 43.448 0.594 7.93 1.2 11.29
10/31/2022 9:30:00 AM 6.38 43.484 0.594 7.93 1.17 11.35
10/31/2022 9:45:00 AM 6.43 43.574 0.595 7.92 1.18 11.34
10/31/2022 10:00:00 AM 6.44 43.592 0.594 7.94 1.16 11.51
10/31/2022 10:15:00 AM 6.65 43.97 0.595 7.95 1.36 11.62
10/31/2022 10:30:00 AM 6.94 44.492 0.594 7.98 2.48 11.76
10/31/2022 10:45:00 AM 6.99 44.582 0.594 7.99 2.53 11.83
10/31/2022 11:00:00 AM 7.11 44.798 0.594 8 1.13 11.94
10/31/2022 11:15:00 AM 7.2 44.96 0.594 8.01 1.08 11.96
10/31/2022 11:30:00 AM 7.23 45.014 0.594 8.01 1.44 11.98
10/31/2022 11:45:00 AM 7.39 45.302 0.594 8.01 1.17 12.04
10/31/2022 12:00:00 PM 7.54 45.572 0.594 8.02 1.12 12.05
10/31/2022 12:15:00 PM 7.61 45.698 0.593 8.03 1.07 12.1
10/31/2022 12:30:00 PM 7.65 45.77 0.593 8.04 1.1 12.14
10/31/2022 12:45:00 PM 7.84 46.112 0.594 8.05 2.36 12.18
10/31/2022 1:00:00 PM 7.95 46.31 0.593 8.05 1.16 12.17
10/31/2022 1:15:00 PM 7.97 46.346 0.593 8.05 1.22 12.18
10/31/2022 1:30:00 PM 8.05 46.49 0.593 8.06 1.08 12.26
10/31/2022 1:45:00 PM 8.18 46.724 0.593 8.05 1.18 12.25
10/31/2022 2:00:00 PM 8.34 47.012 0.592 8.06 1.89 12.26
10/31/2022 2:15:00 PM 8.45 47.21 0.592 8.03 1.69 12.18
10/31/2022 2:30:00 PM 8.51 47.318 0.591 8.07 1.01 12.34
10/31/2022 2:45:00 PM 8.58 47.444 0.591 8.05 1.32 12.29
10/31/2022 3:00:00 PM 8.69 47.642 0.591 8.01 1.06 12.19
10/31/2022 3:15:00 PM 8.76 47.768 0.591 8.05 1 12.26
10/31/2022 3:30:00 PM 8.83 47.894 0.591 8.03 1.17 12.19
10/31/2022 3:45:00 PM 8.92 48.056 0.59 8.07 1.45 12.32
10/31/2022 4:00:00 PM 8.98 48.164 0.59 8.08 1.28 12.48
10/31/2022 4:15:00 PM 8.95 48.11 0.59 8.05 0.88 12.4
10/31/2022 4:30:00 PM 8.9 48.02 0.589 8.01 2.13 12.43
10/31/2022 4:45:00 PM 8.83 47.894 0.59 7.98 2.96 12.31
10/31/2022 5:00:00 PM 8.81 47.858 0.59 7.97 0.97 12.27
10/31/2022 5:15:00 PM 8.8 47.84 0.591 7.93 0.9 12.06
10/31/2022 5:30:00 PM 8.8 47.84 0.591 7.87 0.95 11.79
10/31/2022 5:45:00 PM 8.74 47.732 0.59 7.88 0.9 11.79
10/31/2022 6:00:00 PM 8.71 47.678 0.591 7.88 0.93 11.71
10/31/2022 6:15:00 PM 8.7 47.66 0.591 7.86 0.91 11.65
10/31/2022 6:30:00 PM 8.67 47.606 0.591 7.85 0.89 11.41
10/31/2022 6:45:00 PM 8.66 47.588 0.591 7.82 0.89 11.25
10/31/2022 7:00:00 PM 8.68 47.624 0.591 7.81 0.94 11.16
10/31/2022 7:15:00 PM 8.69 47.642 0.591 7.8 0.88 11.02
10/31/2022 7:30:00 PM 8.69 47.642 0.591 7.78 0.98 10.92
10/31/2022 7:45:00 PM 8.68 47.624 0.591 7.77 0.86 10.76
10/31/2022 8:00:00 PM 8.69 47.642 0.591 7.74 0.87 10.67
10/31/2022 8:15:00 PM 8.7 47.66 0.591 7.74 0.87 10.54
10/31/2022 8:30:00 PM 8.71 47.678 0.591 7.73 0.87 10.48
10/31/2022 8:45:00 PM 8.72 47.696 0.592 7.71 0.89 10.43
10/31/2022 9:00:00 PM 8.74 47.732 0.591 7.73 0.9 10.4
10/31/2022 9:15:00 PM 8.76 47.768 0.591 7.72 0.88 10.34
10/31/2022 9:30:00 PM 8.79 47.822 0.59 7.7 0.87 10.29
10/31/2022 9:45:00 PM 8.84 47.912 0.591 7.68 0.9 10.13
10/31/2022 10:00:00 PM 8.89 48.002 0.59 7.68 0.87 10.11
10/31/2022 10:15:00 PM 8.98 48.164 0.59 7.66 0.87 9.96
10/31/2022 10:30:00 PM 9.04 48.272 0.59 7.68 2.1 9.96
10/31/2022 10:45:00 PM 9.15 48.47 0.589 7.72 0.85 10.05
10/31/2022 11:00:00 PM 9.27 48.686 0.589 7.77 0.93 10.12
10/31/2022 11:15:00 PM 9.29 48.722 0.589 7.77 0.85 10.14
10/31/2022 11:30:00 PM 9.36 48.848 0.589 7.78 0.88 10.15
10/31/2022 11:45:00 PM 9.51 49.118 0.589 7.87 1.05 10.25
11/1/2022 12:00:00 AM 9.6 49.28 0.589 7.82 2.28 10.12
11/1/2022 12:15:00 AM 9.68 49.424 0.589 7.85 1.09 10.15
11/1/2022 12:30:00 AM 9.83 49.694 0.589 7.89 1.23 10.18
11/1/2022 12:45:00 AM 9.81 49.658 0.589 7.88 1.29 10.13
11/1/2022 1:00:00 AM 9.85 49.73 0.589 7.85 1.26 10.04
11/1/2022 1:15:00 AM 9.85 49.73 0.589 7.86 1.86 10.01
11/1/2022 1:30:00 AM 9.93 49.874 0.589 7.91 1.96 10.09
11/1/2022 1:45:00 AM 9.85 49.73 0.589 7.87 1.86 9.97
11/1/2022 2:00:00 AM 9.94 49.892 0.589 7.9 3.89 9.99
11/1/2022 2:15:00 AM 9.92 49.856 0.59 7.85 3.64 9.93
11/1/2022 2:30:00 AM 9.9 49.82 0.589 7.87 3.34 9.88
11/1/2022 2:45:00 AM 9.91 49.838 0.589 7.9 1.98 9.92
11/1/2022 3:00:00 AM 9.91 49.838 0.589 7.88 1.95 9.93
11/1/2022 3:15:00 AM 9.9 49.82 0.589 7.89 2.1 9.84
11/1/2022 3:30:00 AM 9.87 49.766 0.59 7.86 1.74 9.79
11/1/2022 3:45:00 AM 9.85 49.73 0.59 7.87 1.93 9.83
11/1/2022 4:00:00 AM 9.89 49.802 0.59 7.89 1.92 9.95
11/1/2022 4:15:00 AM 9.91 49.838 0.59 7.87 2.01 9.87
11/1/2022 4:30:00 AM 9.91 49.838 0.59 7.88 2.02 9.88
11/1/2022 4:45:00 AM 9.9 49.82 0.59 7.88 1.56 9.91
11/1/2022 5:00:00 AM 9.9 49.82 0.59 7.88 1.5 9.97
11/1/2022 5:15:00 AM 9.89 49.802 0.59 7.89 1.78 9.93
11/1/2022 5:30:00 AM 9.87 49.766 0.59 7.89 1.48 9.92
11/1/2022 5:45:00 AM 9.86 49.748 0.59 7.9 2.13 9.96
11/1/2022 6:00:00 AM 9.85 49.73 0.591 7.88 1.42 9.92
11/1/2022 6:15:00 AM 9.84 49.712 0.591 7.88 1.46 9.91
11/1/2022 6:30:00 AM 9.84 49.712 0.591 7.87 1.73 9.89
11/1/2022 6:45:00 AM 9.82 49.676 0.592 7.86 2.71 9.87
11/1/2022 7:00:00 AM 9.8 49.64 0.591 7.87 7.09 9.86
11/1/2022 7:15:00 AM 9.78 49.604 0.591 7.87 1.5 9.88
11/1/2022 7:30:00 AM 9.78 49.604 0.592 7.84 1.54 9.85
11/1/2022 7:45:00 AM 9.76 49.568 0.592 7.86 2.49 9.85
11/1/2022 8:00:00 AM 9.75 49.55 0.591 7.86 3.79 9.88
11/1/2022 8:15:00 AM 9.75 49.55 0.591 7.86 1.35 9.92
11/1/2022 8:30:00 AM 9.74 49.532 0.591 7.86 1.33 9.96
11/1/2022 8:45:00 AM 9.75 49.55 0.591 7.88 1.29 10.07
11/1/2022 9:00:00 AM 9.76 49.568 0.591 7.88 1.58 10.09
11/1/2022 9:15:00 AM 9.77 49.586 0.591 7.87 2.3 10.08
11/1/2022 9:30:00 AM 9.79 49.622 0.591 7.88 1.43 10.22
11/1/2022 9:45:00 AM 9.82 49.676 0.591 7.91 3.48 10.33
11/1/2022 10:00:00 AM 9.89 49.802 0.591 7.89 1.23 10.33
11/1/2022 10:15:00 AM 9.96 49.928 0.59 7.91 1.21 10.46
11/1/2022 10:30:00 AM 10.08 50.144 0.59 7.94 1.32 10.65
11/1/2022 10:45:00 AM 10.13 50.234 0.59 7.95 1.19 10.61
11/1/2022 11:00:00 AM 10.21 50.378 0.59 7.97 7.5 10.75
11/1/2022 11:15:00 AM 10.28 50.504 0.59 7.97 2.07 10.81
11/1/2022 11:30:00 AM 10.5 50.9 0.589 7.99 1.34 11.01
11/1/2022 11:45:00 AM 10.54 50.972 0.59 7.97 2.53 10.91
11/1/2022 12:00:00 PM 10.65 51.17 0.589 8.01 1.2 11.09
11/1/2022 12:15:00 PM 10.89 51.602 0.589 8.02 2.43 11.14
11/1/2022 12:30:00 PM 11.03 51.854 0.588 8.02 1.4 11.2
11/1/2022 12:45:00 PM 11.1 51.98 0.588 8.03 1.19 11.15
11/1/2022 1:00:00 PM 11.13 52.034 0.588 8.02 1.19 11.18
11/1/2022 1:15:00 PM 11.11 51.998 0.588 8.02 1.44 11.16
11/1/2022 1:30:00 PM 11.25 52.25 0.587 8.04 1.21 11.36
11/1/2022 1:45:00 PM 11.22 52.196 0.587 8.05 1.35 11.32
11/1/2022 2:00:00 PM 11.14 52.052 0.586 8 2.31 11.18
11/1/2022 2:15:00 PM 10.87 51.566 0.588 7.91 1.16 10.78
11/1/2022 2:30:00 PM 11 51.8 0.587 7.89 2.19 10.65
11/1/2022 2:45:00 PM 11.12 52.016 0.587 7.9 3.63 10.69
11/1/2022 3:00:00 PM 11.1 51.98 0.587 7.87 0.96 10.57
11/1/2022 3:15:00 PM 11.18 52.124 0.586 7.86 2.23 10.58
11/1/2022 3:30:00 PM 11.2 52.16 0.587 7.87 2.16 10.65
11/1/2022 3:45:00 PM 11.35 52.43 0.586 7.84 2.14 10.52
11/1/2022 4:00:00 PM 11.37 52.466 0.586 7.87 0.9 10.62
11/1/2022 4:15:00 PM 11.41 52.538 0.585 7.87 2.11 10.62
11/1/2022 4:30:00 PM 11.48 52.664 0.586 7.86 0.86 10.51
11/1/2022 4:45:00 PM 11.54 52.772 0.586 7.82 1.29 10.36
11/1/2022 5:00:00 PM 11.61 52.898 0.585 7.85 0.96 10.4
11/1/2022 5:15:00 PM 11.62 52.916 0.585 7.85 2.3 10.37
11/1/2022 5:30:00 PM 11.64 52.952 0.585 7.84 0.98 10.35
11/1/2022 5:45:00 PM 11.7 53.06 0.585 7.84 0.97 10.22
11/1/2022 6:00:00 PM 11.8 53.24 0.585 7.83 0.93 10.2
11/1/2022 6:15:00 PM 11.89 53.402 0.585 7.84 0.98 10.12
11/1/2022 6:30:00 PM 11.91 53.438 0.584 7.82 0.9 10.04
11/1/2022 6:45:00 PM 11.95 53.51 0.585 7.82 0.97 9.99
11/1/2022 7:00:00 PM 11.99 53.582 0.584 7.83 0.99 9.94
11/1/2022 7:15:00 PM 12.03 53.654 0.584 7.8 2.2 9.83
11/1/2022 7:30:00 PM 12.06 53.708 0.584 7.81 0.99 9.81
11/1/2022 7:45:00 PM 12.08 53.744 0.584 7.81 0.96 9.81
11/1/2022 8:00:00 PM 12.09 53.762 0.584 7.8 3.43 9.77
11/1/2022 8:15:00 PM 12.15 53.87 0.584 7.82 1.43 9.77
11/1/2022 8:30:00 PM 12.2 53.96 0.584 7.82 1.09 9.72
11/1/2022 8:45:00 PM 12.2 53.96 0.584 7.84 0.9 9.78
11/1/2022 9:00:00 PM 12.29 54.122 0.584 7.89 1.01 9.77
11/1/2022 9:15:00 PM 12.3 54.14 0.584 7.93 1.04 9.74
11/1/2022 9:30:00 PM 12.38 54.284 0.584 7.98 1.24 9.88
11/1/2022 9:45:00 PM 12.42 54.356 0.584 8.01 1.33 9.98
11/1/2022 10:00:00 PM 12.45 54.41 0.584 8.02 1.52 9.98
11/1/2022 10:15:00 PM 12.46 54.428 0.585 8.03 1.5 10
11/1/2022 10:30:00 PM 12.39 54.302 0.585 8.04 1.9 10
11/1/2022 10:45:00 PM 12.24 54.032 0.586 8.05 1.75 9.99
11/1/2022 11:00:00 PM 12.12 53.816 0.586 8.03 2.25 9.97
11/1/2022 11:15:00 PM 11.99 53.582 0.587 8.02 2.59 9.94
11/1/2022 11:30:00 PM 11.92 53.456 0.587 8.01 2.77 9.89
11/1/2022 11:45:00 PM 11.73 53.114 0.588 8 2.07 9.85
11/2/2022 12:00:00 AM 11.62 52.916 0.588 7.98 2 9.8
11/2/2022 12:15:00 AM 11.5 52.7 0.589 7.97 1.92 9.78
11/2/2022 12:30:00 AM 11.39 52.502 0.589 7.94 2.82 9.74
11/2/2022 12:45:00 AM 11.29 52.322 0.59 7.94 2.43 9.73
11/2/2022 1:00:00 AM 11.19 52.142 0.59 7.92 1.79 9.64
11/2/2022 1:15:00 AM 11.09 51.962 0.59 7.89 1.46 9.59
11/2/2022 1:30:00 AM 10.94 51.692 0.59 7.92 1.71 9.67
11/2/2022 1:45:00 AM 10.84 51.512 0.591 7.91 1.66 9.67
11/2/2022 2:00:00 AM 10.7 51.26 0.591 7.91 1.5 9.7
11/2/2022 2:15:00 AM 10.57 51.026 0.591 7.9 1.48 9.68
11/2/2022 2:30:00 AM 10.47 50.846 0.592 7.88 2.28 9.66
11/2/2022 2:45:00 AM 10.36 50.648 0.592 7.88 1.86 9.67
11/2/2022 3:00:00 AM 10.29 50.522 0.592 7.87 2.05 9.67
11/2/2022 3:15:00 AM 10.19 50.342 0.592 7.86 1.9 9.71
11/2/2022 3:30:00 AM 10.08 50.144 0.592 7.88 1.54 9.73
11/2/2022 3:45:00 AM 9.99 49.982 0.593 7.85 1.44 9.72
11/2/2022 4:00:00 AM 9.89 49.802 0.593 7.87 3.81 9.78
11/2/2022 4:15:00 AM 9.83 49.694 0.593 7.86 2.28 9.75
11/2/2022 4:30:00 AM 9.73 49.514 0.594 7.86 1.75 9.79
11/2/2022 4:45:00 AM 9.61 49.298 0.594 7.86 1.59 9.83
11/2/2022 5:00:00 AM 9.51 49.118 0.594 7.85 1.7 9.88
11/2/2022 5:15:00 AM 9.38 48.884 0.594 7.86 1.92 9.91
11/2/2022 5:30:00 AM 9.32 48.776 0.594 7.86 1.79 9.92
11/2/2022 5:45:00 AM 9.24 48.632 0.595 7.85 1.65 9.93
11/2/2022 6:00:00 AM 9.17 48.506 0.595 7.84 1.65 9.94
11/2/2022 6:15:00 AM 9.1 48.38 0.595 7.84 1.69 9.95
11/2/2022 6:30:00 AM 9.03 48.254 0.595 7.85 1.78 9.99
11/2/2022 6:45:00 AM 8.96 48.128 0.595 7.85 1.67 10.02
11/2/2022 7:00:00 AM 8.93 48.074 0.595 7.84 1.52 10.01
11/2/2022 7:15:00 AM 8.86 47.948 0.595 7.84 1.63 10.05
11/2/2022 7:30:00 AM 8.76 47.768 0.595 7.85 1.61 10.11
11/2/2022 7:45:00 AM 8.73 47.714 0.595 7.85 1.57 10.11
11/2/2022 8:00:00 AM 8.71 47.678 0.595 7.85 1.55 10.13
11/2/2022 8:15:00 AM 8.68 47.624 0.595 7.85 1.57 10.17
11/2/2022 8:30:00 AM 8.66 47.588 0.595 7.85 1.62 10.26
11/2/2022 8:45:00 AM 8.67 47.606 0.595 7.86 1.56 10.35
11/2/2022 9:00:00 AM 8.69 47.642 0.596 7.87 2.71 10.44
11/2/2022 9:15:00 AM 8.7 47.66 0.595 7.89 1.55 10.57
11/2/2022 9:30:00 AM 8.7 47.66 0.595 7.91 1.57 10.71
11/2/2022 9:45:00 AM 8.73 47.714 0.595 7.92 1.54 10.84
11/2/2022 10:00:00 AM 8.76 47.768 0.595 7.94 1.54 10.94
11/2/2022 10:15:00 AM 8.84 47.912 0.595 7.95 1.5 11.03
11/2/2022 10:30:00 AM 8.94 48.092 0.594 7.96 1.77 11.14
11/2/2022 10:45:00 AM 9.19 48.542 0.594 7.97 1.51 11.23
11/2/2022 11:00:00 AM 9.39 48.902 0.594 7.99 1.53 11.3
11/2/2022 11:15:00 AM 9.59 49.262 0.594 8 1.48 11.34
11/2/2022 11:30:00 AM 9.79 49.622 0.593 8 1.5 11.41
11/2/2022 11:45:00 AM 9.94 49.892 0.593 8.02 1.51 11.46
11/2/2022 12:00:00 PM 10.05 50.09 0.593 8.03 2.74 11.52
11/2/2022 12:15:00 PM 10.18 50.324 0.593 8.03 1.51 11.52
11/2/2022 12:30:00 PM 10.31 50.558 0.593 7.99 3.33 11.43
11/2/2022 12:45:00 PM 10.46 50.828 0.593 8.04 1.49 11.54
11/2/2022 1:00:00 PM 10.63 51.134 0.592 8.06 1.53 11.64
11/2/2022 1:15:00 PM 10.82 51.476 0.592 8.1 1.49 11.84
11/2/2022 1:30:00 PM 10.95 51.71 0.591 8.11 1.52 11.88
11/2/2022 1:45:00 PM 10.97 51.746 0.592 8.01 1.41 11.57
11/2/2022 2:00:00 PM 11 51.8 0.593 7.9 2.84 10.99
11/2/2022 2:15:00 PM 10.93 51.674 0.592 7.89 1.14 10.87
11/2/2022 2:30:00 PM 10.91 51.638 0.591 7.88 2.31 10.76
11/2/2022 2:45:00 PM 10.89 51.602 0.592 7.87 1 10.57
11/2/2022 3:00:00 PM 10.9 51.62 0.592 7.85 0.99 10.43
11/2/2022 3:15:00 PM 10.95 51.71 0.592 7.84 2.72 10.32
11/2/2022 3:30:00 PM 11 51.8 0.592 7.85 1.15 10.29
11/2/2022 3:45:00 PM 11.04 51.872 0.592 7.84 1 10.26
11/2/2022 4:00:00 PM 11.11 51.998 0.591 7.85 1.05 10.32
11/2/2022 4:15:00 PM 11.18 52.124 0.591 7.84 0.98 10.23
11/2/2022 4:30:00 PM 11.27 52.286 0.591 7.82 0.97 10.31
11/2/2022 4:45:00 PM 11.34 52.412 0.591 7.83 2.1 10.29
11/2/2022 5:00:00 PM 11.37 52.466 0.591 7.81 0.93 10.16
11/2/2022 5:15:00 PM 11.46 52.628 0.591 7.81 2.17 10.19
11/2/2022 5:30:00 PM 11.49 52.682 0.59 7.81 0.93 10.12
11/2/2022 5:45:00 PM 11.53 52.754 0.59 7.8 1 10.05
11/2/2022 6:00:00 PM 11.58 52.844 0.59 7.81 0.96 10.06
11/2/2022 6:15:00 PM 11.67 53.006 0.59 7.81 1.13 10.04
11/2/2022 6:30:00 PM 11.71 53.078 0.59 7.79 1.03 9.97
11/2/2022 6:45:00 PM 11.75 53.15 0.589 7.77 1.01 9.91
11/2/2022 7:00:00 PM 11.8 53.24 0.589 7.78 1.03 9.82
11/2/2022 7:15:00 PM 11.85 53.33 0.589 7.77 1.03 9.79
11/2/2022 7:30:00 PM 11.87 53.366 0.589 7.77 1 9.77
11/2/2022 7:45:00 PM 11.92 53.456 0.589 7.76 1 9.69
11/2/2022 8:00:00 PM 11.92 53.456 0.589 7.76 1.13 9.64
11/2/2022 8:15:00 PM 11.93 53.474 0.589 7.75 2.3 9.61
11/2/2022 8:30:00 PM 11.93 53.474 0.589 7.75 0.99 9.62
11/2/2022 8:45:00 PM 11.92 53.456 0.589 7.74 1.01 9.59
11/2/2022 9:00:00 PM 11.9 53.42 0.588 7.75 1.02 9.56
11/2/2022 9:15:00 PM 11.89 53.402 0.589 7.75 1.02 9.55
11/2/2022 9:30:00 PM 11.86 53.348 0.588 7.76 2.26 9.52
11/2/2022 9:45:00 PM 11.84 53.312 0.589 7.82 1.12 9.52
11/2/2022 10:00:00 PM 11.93 53.474 0.588 8.02 1.76 10.08
11/2/2022 10:15:00 PM 11.89 53.402 0.587 8.06 2.68 10.24
11/2/2022 10:30:00 PM 11.78 53.204 0.587 8.08 2.37 10.29
11/2/2022 10:45:00 PM 11.66 52.988 0.587 8.08 2.33 10.27
11/2/2022 11:00:00 PM 11.47 52.646 0.588 8.05 1.88 10.18
11/2/2022 11:15:00 PM 11.33 52.394 0.588 8.05 1.79 10.12
11/2/2022 11:30:00 PM 11.18 52.124 0.589 8.03 1.94 10.06
11/2/2022 11:45:00 PM 11.05 51.89 0.589 7.99 1.68 9.95
11/3/2022 12:00:00 AM 10.91 51.638 0.59 7.98 1.78 9.91
11/3/2022 12:15:00 AM 10.77 51.386 0.59 7.95 2.97 9.83
11/3/2022 12:30:00 AM 10.63 51.134 0.59 7.94 1.63 9.81
11/3/2022 12:45:00 AM 10.52 50.936 0.591 7.91 1.61 9.74
11/3/2022 1:00:00 AM 10.38 50.684 0.591 7.92 1.58 9.76
11/3/2022 1:15:00 AM 10.26 50.468 0.591 7.92 1.93 9.77
11/3/2022 1:30:00 AM 10.13 50.234 0.592 7.91 1.6 9.76
11/3/2022 1:45:00 AM 10.02 50.036 0.592 7.89 1.59 9.76
11/3/2022 2:00:00 AM 9.9 49.82 0.592 7.9 1.48 9.78
11/3/2022 2:15:00 AM 9.8 49.64 0.593 7.89 2.69 9.77
11/3/2022 2:30:00 AM 9.64 49.352 0.593 7.89 1.51 9.8
11/3/2022 2:45:00 AM 9.54 49.172 0.593 7.86 1.46 9.8
11/3/2022 3:00:00 AM 9.4 48.92 0.593 7.88 1.5 9.84
11/3/2022 3:15:00 AM 9.32 48.776 0.594 7.87 2.09 9.83
11/3/2022 3:30:00 AM 9.21 48.578 0.594 7.86 1.56 9.83
11/3/2022 3:45:00 AM 9.09 48.362 0.594 7.84 1.55 9.87
11/3/2022 4:00:00 AM 8.96 48.128 0.595 7.85 1.51 9.9
11/3/2022 4:15:00 AM 8.84 47.912 0.595 7.85 1.64 9.92
11/3/2022 4:30:00 AM 8.71 47.678 0.595 7.84 1.51 9.98
11/3/2022 4:45:00 AM 8.63 47.534 0.596 7.85 1.56 9.97
11/3/2022 5:00:00 AM 8.52 47.336 0.596 7.85 1.62 10.01
11/3/2022 5:15:00 AM 8.39 47.102 0.597 7.85 5.68 10.04
11/3/2022 5:30:00 AM 8.26 46.868 0.597 7.85 3.42 10.09
11/3/2022 5:45:00 AM 8.14 46.652 0.597 7.85 2.87 10.14
11/3/2022 6:00:00 AM 8.04 46.472 0.598 7.84 2.49 10.16
11/3/2022 6:15:00 AM 7.95 46.31 0.598 7.82 2.62 10.18
11/3/2022 6:30:00 AM 7.81 46.058 0.598 7.84 1.94 10.25
11/3/2022 6:45:00 AM 7.71 45.878 0.598 7.84 1.95 10.28
11/3/2022 7:00:00 AM 7.66 45.788 0.598 7.82 2.01 10.26
11/3/2022 7:15:00 AM 7.51 45.518 0.598 7.84 1.81 10.34
11/3/2022 7:30:00 AM 7.38 45.284 0.598 7.84 1.8 10.4
11/3/2022 7:45:00 AM 7.27 45.086 0.598 7.83 1.91 10.45
11/3/2022 8:00:00 AM 7.18 44.924 0.598 7.85 1.79 10.52
11/3/2022 8:15:00 AM 7.08 44.744 0.598 7.85 1.8 10.63
11/3/2022 8:30:00 AM 7.05 44.69 0.598 7.86 1.9 10.7
11/3/2022 8:45:00 AM 6.95 44.51 0.598 7.87 1.76 10.85
11/3/2022 9:00:00 AM 6.99 44.582 0.598 7.86 1.84 10.88
11/3/2022 9:15:00 AM 6.9 44.42 0.598 7.89 1.77 11.05
11/3/2022 9:30:00 AM 6.88 44.384 0.597 7.9 2.24 11.15
11/3/2022 9:45:00 AM 6.86 44.348 0.597 7.92 1.83 11.26
11/3/2022 10:00:00 AM 6.99 44.582 0.597 7.92 1.84 11.37
11/3/2022 10:15:00 AM 7.16 44.888 0.597 7.95 1.87 11.5
11/3/2022 10:30:00 AM 7.3 45.14 0.596 7.96 1.78 11.61
11/3/2022 10:45:00 AM 7.45 45.41 0.596 7.98 2.57 11.7
11/3/2022 11:00:00 AM 7.6 45.68 0.596 7.99 2.25 11.81
11/3/2022 11:15:00 AM 7.78 46.004 0.595 8 1.92 11.87
11/3/2022 11:30:00 AM 7.95 46.31 0.595 8.01 1.9 11.95
11/3/2022 11:45:00 AM 8.24 46.832 0.595 8.01 1.76 11.95
11/3/2022 12:00:00 PM 8.31 46.958 0.594 8.01 1.87 12
11/3/2022 12:15:00 PM 8.42 47.156 0.594 8.04 1.95 12.08
11/3/2022 12:30:00 PM 8.57 47.426 0.594 8.02 1.82 12
11/3/2022 12:45:00 PM 8.74 47.732 0.594 8.03 1.77 11.99
11/3/2022 1:00:00 PM 8.99 48.182 0.593 8.02 1.78 11.97
11/3/2022 1:15:00 PM 9.29 48.722 0.593 8.06 1.83 12.06
11/3/2022 1:30:00 PM 9.61 49.298 0.593 8.05 1.88 12.03
11/3/2022 1:45:00 PM 9.84 49.712 0.592 8.07 1.78 12.13
11/3/2022 2:00:00 PM 9.99 49.982 0.591 8.08 2.53 12.17
11/3/2022 2:15:00 PM 10.13 50.234 0.591 8.09 1.78 12.2
11/3/2022 2:30:00 PM 10.29 50.522 0.59 8.11 1.85 12.28
11/3/2022 2:45:00 PM 10.39 50.702 0.59 8.11 5.28 12.18
11/3/2022 3:00:00 PM 10.5 50.9 0.59 8.13 1.68 12.2
11/3/2022 3:15:00 PM 10.48 50.864 0.59 8.08 1.67 12.11
11/3/2022 3:30:00 PM 10.34 50.612 0.59 8.04 1.45 11.91
11/3/2022 3:45:00 PM 10.26 50.468 0.591 7.95 1.34 11.56
11/3/2022 4:00:00 PM 10.2 50.36 0.591 7.91 1.21 11.27
11/3/2022 4:15:00 PM 10.2 50.36 0.591 7.86 2.17 10.99
11/3/2022 4:30:00 PM 10.21 50.378 0.591 7.85 2.33 10.87
11/3/2022 4:45:00 PM 10.2 50.36 0.591 7.83 2.18 10.74
11/3/2022 5:00:00 PM 10.19 50.342 0.591 7.84 1.04 10.67
11/3/2022 5:15:00 PM 10.23 50.414 0.591 7.82 1.02 10.61
11/3/2022 5:30:00 PM 10.26 50.468 0.591 7.8 1.09 10.51
11/3/2022 5:45:00 PM 10.32 50.576 0.59 7.81 2.35 10.51
11/3/2022 6:00:00 PM 10.37 50.666 0.59 7.81 1.07 10.52
11/3/2022 6:15:00 PM 10.4 50.72 0.59 7.8 1.04 10.43
11/3/2022 6:30:00 PM 10.44 50.792 0.59 7.79 1.06 10.33
11/3/2022 6:45:00 PM 10.49 50.882 0.59 7.79 1.07 10.27
11/3/2022 7:00:00 PM 10.59 51.062 0.59 7.77 13.43 10.23
11/3/2022 7:15:00 PM 10.65 51.17 0.589 7.78 1.53 10.18
11/3/2022 7:30:00 PM 10.73 51.314 0.589 7.76 2.6 10.1
11/3/2022 7:45:00 PM 10.73 51.314 0.589 7.75 1.6 10.09
11/3/2022 8:00:00 PM 10.78 51.404 0.588 7.76 1.42 10.02
11/3/2022 8:15:00 PM 10.83 51.494 0.588 7.75 2.89 9.96
11/3/2022 8:30:00 PM 10.86 51.548 0.588 7.76 1.14 9.95
11/3/2022 8:45:00 PM 10.9 51.62 0.588 7.75 1.1 9.93
11/3/2022 9:00:00 PM 10.91 51.638 0.588 7.75 1.1 9.91
11/3/2022 9:15:00 PM 10.91 51.638 0.588 7.75 1.39 9.88
11/3/2022 9:30:00 PM 10.93 51.674 0.587 7.75 1.16 9.82
11/3/2022 9:45:00 PM 10.92 51.656 0.587 7.75 1.13 9.79
11/3/2022 10:00:00 PM 10.93 51.674 0.587 7.77 1.1 9.76
11/3/2022 10:15:00 PM 10.94 51.692 0.587 7.82 1.32 9.84
11/3/2022 10:30:00 PM 11.01 51.818 0.585 7.95 3.08 10.2
11/3/2022 10:45:00 PM 11 51.8 0.584 8.05 1.88 10.47
11/3/2022 11:00:00 PM 10.92 51.656 0.584 8.09 1.91 10.54
11/3/2022 11:15:00 PM 10.82 51.476 0.584 8.08 1.89 10.53
11/3/2022 11:30:00 PM 10.67 51.206 0.584 8.07 1.92 10.47
11/3/2022 11:45:00 PM 10.54 50.972 0.585 8.05 1.95 10.41
11/4/2022 12:00:00 AM 10.39 50.702 0.585 8.02 2.4 10.34
11/4/2022 12:15:00 AM 10.27 50.486 0.585 8 1.89 10.27
11/4/2022 12:30:00 AM 10.16 50.288 0.586 7.98 1.73 10.19
11/4/2022 12:45:00 AM 10.02 50.036 0.586 7.97 1.82 10.14
11/4/2022 1:00:00 AM 9.91 49.838 0.586 7.95 1.79 10.09
11/4/2022 1:15:00 AM 9.79 49.622 0.587 7.94 1.74 10.07
11/4/2022 1:30:00 AM 9.68 49.424 0.587 7.93 1.65 10.03
11/4/2022 1:45:00 AM 9.58 49.244 0.587 7.91 1.65 10
11/4/2022 2:00:00 AM 9.47 49.046 0.588 7.91 1.71 9.99
11/4/2022 2:15:00 AM 9.34 48.812 0.587 7.9 1.58 10.01
11/4/2022 2:30:00 AM 9.28 48.704 0.588 7.88 1.51 9.98
11/4/2022 2:45:00 AM 9.16 48.488 0.588 7.89 1.73 10
11/4/2022 3:00:00 AM 9.04 48.272 0.588 7.88 1.91 10.02
11/4/2022 3:15:00 AM 8.95 48.11 0.589 7.89 1.52 10.03
11/4/2022 3:30:00 AM 8.87 47.966 0.589 7.88 1.61 10.03
11/4/2022 3:45:00 AM 8.75 47.75 0.589 7.88 1.53 10.06
11/4/2022 4:00:00 AM 8.65 47.57 0.589 7.86 1.59 10.08
11/4/2022 4:15:00 AM 8.58 47.444 0.59 7.86 1.52 10.08
11/4/2022 4:30:00 AM 8.51 47.318 0.59 7.86 1.57 10.08
11/4/2022 4:45:00 AM 8.4 47.12 0.59 7.86 1.6 10.12
11/4/2022 5:00:00 AM 8.32 46.976 0.591 7.85 1.54 10.12
11/4/2022 5:15:00 AM 8.23 46.814 0.591 7.84 1.55 10.14
11/4/2022 5:30:00 AM 8.13 46.634 0.591 7.85 1.48 10.2
11/4/2022 5:45:00 AM 8.03 46.454 0.591 7.85 3.5 10.23
11/4/2022 6:00:00 AM 7.96 46.328 0.592 7.85 1.53 10.24
11/4/2022 6:15:00 AM 7.85 46.13 0.592 7.84 1.55 10.3
11/4/2022 6:30:00 AM 7.77 45.986 0.592 7.84 1.48 10.33
11/4/2022 6:45:00 AM 7.69 45.842 0.592 7.85 1.52 10.35
11/4/2022 7:00:00 AM 7.62 45.716 0.593 7.84 1.45 10.37
11/4/2022 7:15:00 AM 7.53 45.554 0.593 7.84 1.5 10.41
11/4/2022 7:30:00 AM 7.42 45.356 0.593 7.85 1.52 10.48
11/4/2022 7:45:00 AM 7.36 45.248 0.593 7.85 1.47 10.48
11/4/2022 8:00:00 AM 7.26 45.068 0.593 7.86 1.54 10.56
11/4/2022 8:15:00 AM 7.24 45.032 0.594 7.84 1.75 10.61
11/4/2022 8:30:00 AM 7.2 44.96 0.594 7.86 1.42 10.7
11/4/2022 8:45:00 AM 7.14 44.852 0.593 7.87 1.43 10.84
11/4/2022 9:00:00 AM 7.12 44.816 0.593 7.89 1.5 10.97
11/4/2022 9:15:00 AM 7.19 44.942 0.593 7.88 1.47 10.98
11/4/2022 9:30:00 AM 7.14 44.852 0.593 7.9 1.43 11.13
11/4/2022 9:45:00 AM 7.08 44.744 0.593 7.91 1.45 11.25
11/4/2022 10:00:00 AM 7.2 44.96 0.593 7.94 1.43 11.37
11/4/2022 10:15:00 AM 7.45 45.41 0.592 7.94 2.55 11.5
11/4/2022 10:30:00 AM 7.63 45.734 0.592 7.96 1.41 11.62
11/4/2022 10:45:00 AM 7.84 46.112 0.592 7.97 1.38 11.66
11/4/2022 11:00:00 AM 8.04 46.472 0.591 8 1.4 11.8
11/4/2022 11:15:00 AM 8.24 46.832 0.591 8.01 1.39 11.87
11/4/2022 11:30:00 AM 8.43 47.174 0.59 8.02 1.36 11.92
11/4/2022 11:45:00 AM 8.54 47.372 0.59 8.03 1.29 11.99
11/4/2022 12:00:00 PM 8.69 47.642 0.59 8.02 1.36 11.93
11/4/2022 12:15:00 PM 8.85 47.93 0.59 8.01 1.33 11.9
11/4/2022 12:30:00 PM 8.97 48.146 0.589 8.03 1.31 11.9
11/4/2022 12:45:00 PM 9.07 48.326 0.589 8.05 1.33 12
11/4/2022 1:00:00 PM 9.28 48.704 0.588 8.06 1.28 12.07
11/4/2022 1:15:00 PM 9.54 49.172 0.588 8.06 2.49 12.13
11/4/2022 1:30:00 PM 9.81 49.658 0.588 8.08 1.3 12.18
11/4/2022 1:45:00 PM 10 50 0.587 8.06 1.23 12.06
11/4/2022 2:00:00 PM 10.16 50.288 0.587 8.11 4.57 12.2
11/4/2022 2:15:00 PM 10.21 50.378 0.587 8.1 1.13 12.22
11/4/2022 2:30:00 PM 10.15 50.27 0.587 8.02 1.16 11.82
11/4/2022 2:45:00 PM 10.11 50.198 0.587 7.98 1.09 11.75
11/4/2022 3:00:00 PM 9.95 49.91 0.587 7.96 1.41 11.74
11/4/2022 3:15:00 PM 9.94 49.892 0.587 7.93 1.78 11.68
11/4/2022 3:30:00 PM 9.88 49.784 0.588 7.92 0.94 11.36
11/4/2022 3:45:00 PM 9.89 49.802 0.588 7.87 0.92 11.14
11/4/2022 4:00:00 PM 9.88 49.784 0.588 7.85 2.09 10.91
11/4/2022 4:15:00 PM 9.9 49.82 0.588 7.85 0.94 10.89
11/4/2022 4:30:00 PM 9.92 49.856 0.588 7.85 0.99 10.82
11/4/2022 4:45:00 PM 9.94 49.892 0.588 7.85 1 10.79
11/4/2022 5:00:00 PM 9.97 49.946 0.587 7.84 0.93 10.79
11/4/2022 5:15:00 PM 10.02 50.036 0.587 7.84 0.93 10.75
11/4/2022 5:30:00 PM 10.06 50.108 0.587 7.83 0.92 10.7
11/4/2022 5:45:00 PM 10.08 50.144 0.587 7.83 0.91 10.68
11/4/2022 6:00:00 PM 10.12 50.216 0.587 7.79 0.95 10.59
11/4/2022 6:15:00 PM 10.16 50.288 0.587 7.79 0.89 10.48
11/4/2022 6:30:00 PM 10.21 50.378 0.587 7.77 0.93 10.38
11/4/2022 6:45:00 PM 10.23 50.414 0.587 7.79 0.89 10.4
11/4/2022 7:00:00 PM 10.28 50.504 0.586 7.78 0.92 10.35
11/4/2022 7:15:00 PM 10.33 50.594 0.586 7.77 0.92 10.25
11/4/2022 7:30:00 PM 10.37 50.666 0.586 7.74 0.9 10.07
11/4/2022 7:45:00 PM 10.42 50.756 0.586 7.73 0.99 9.95
11/4/2022 8:00:00 PM 10.46 50.828 0.585 7.73 1.05 9.88
11/4/2022 8:15:00 PM 10.5 50.9 0.585 7.73 0.94 9.91
11/4/2022 8:30:00 PM 10.54 50.972 0.585 7.7 1.06 9.76
11/4/2022 8:45:00 PM 10.58 51.044 0.585 7.72 1.41 9.7
11/4/2022 9:00:00 PM 10.62 51.116 0.584 7.72 1.3 9.74
11/4/2022 9:15:00 PM 10.67 51.206 0.584 7.72 0.93 9.73
11/4/2022 9:30:00 PM 10.74 51.332 0.584 7.71 1.01 9.67
11/4/2022 9:45:00 PM 10.78 51.404 0.584 7.72 0.95 9.65
11/4/2022 10:00:00 PM 10.82 51.476 0.584 7.71 0.88 9.62
11/4/2022 10:15:00 PM 10.85 51.53 0.584 7.71 0.99 9.54
11/4/2022 10:30:00 PM 10.9 51.62 0.584 7.71 1 9.48
11/4/2022 10:45:00 PM 10.94 51.692 0.584 7.7 0.94 9.42
11/4/2022 11:00:00 PM 10.95 51.71 0.584 7.7 1.15 9.38
11/4/2022 11:15:00 PM 10.95 51.71 0.584 7.7 1.08 9.36
11/4/2022 11:30:00 PM 10.99 51.782 0.584 7.69 2.31 9.28
11/4/2022 11:45:00 PM 11 51.8 0.583 7.7 2.24 9.28
11/5/2022 12:00:00 AM 11.01 51.818 0.584 7.73 1.02 9.25
11/5/2022 12:15:00 AM 11.07 51.926 0.583 7.77 1.02 9.28
11/5/2022 12:30:00 AM 11.05 51.89 0.583 7.75 1.08 9.22
11/5/2022 12:45:00 AM 11.13 52.034 0.583 7.84 1.22 9.44
11/5/2022 1:00:00 AM 11.17 52.106 0.583 7.85 1.44 9.46
11/5/2022 1:15:00 AM 11.19 52.142 0.583 7.91 1.74 9.58
11/5/2022 1:30:00 AM 11.2 52.16 0.582 7.95 2.35 9.66
11/5/2022 1:45:00 AM 11.17 52.106 0.582 7.95 2.01 9.65
11/5/2022 2:00:00 AM 11.13 52.034 0.583 7.96 1.93 9.67
11/5/2022 2:15:00 AM 11.06 51.908 0.583 7.95 1.92 9.66
11/5/2022 2:30:00 AM 11.01 51.818 0.583 7.94 1.7 9.64
11/5/2022 2:45:00 AM 10.96 51.728 0.583 7.93 1.98 9.62
11/5/2022 3:00:00 AM 10.9 51.62 0.584 7.93 3.03 9.63
11/5/2022 3:15:00 AM 10.85 51.53 0.584 7.91 1.56 9.56
11/5/2022 3:30:00 AM 10.79 51.422 0.584 7.9 1.55 9.56
11/5/2022 3:45:00 AM 10.74 51.332 0.585 7.9 1.5 9.55
11/5/2022 4:00:00 AM 10.7 51.26 0.585 7.87 1.56 9.53
11/5/2022 4:15:00 AM 10.65 51.17 0.585 7.88 2.88 9.54
11/5/2022 4:30:00 AM 10.61 51.098 0.585 7.87 1.64 9.49
11/5/2022 4:45:00 AM 10.58 51.044 0.586 7.86 1.48 9.47
11/5/2022 5:00:00 AM 10.5 50.9 0.586 7.87 1.56 9.54
11/5/2022 5:15:00 AM 10.46 50.828 0.586 7.86 1.72 9.52
11/5/2022 5:30:00 AM 10.41 50.738 0.587 7.87 1.54 9.56
11/5/2022 5:45:00 AM 10.37 50.666 0.587 7.85 1.55 9.54
11/5/2022 6:00:00 AM 10.33 50.594 0.587 7.86 1.42 9.55
11/5/2022 6:15:00 AM 10.31 50.558 0.588 7.85 1.66 9.51
11/5/2022 6:30:00 AM 10.27 50.486 0.588 7.85 1.68 9.54
11/5/2022 6:45:00 AM 10.22 50.396 0.588 7.84 1.65 9.54
11/5/2022 7:00:00 AM 10.16 50.288 0.589 7.85 1.9 9.55
11/5/2022 7:15:00 AM 10.13 50.234 0.589 7.84 1.54 9.52
11/5/2022 7:30:00 AM 10.1 50.18 0.589 7.84 1.53 9.55
11/5/2022 7:45:00 AM 10.07 50.126 0.589 7.84 1.78 9.57
11/5/2022 8:00:00 AM 10.04 50.072 0.589 7.85 1.53 9.64
11/5/2022 8:15:00 AM 10.03 50.054 0.59 7.84 1.47 9.66
11/5/2022 8:30:00 AM 10.01 50.018 0.59 7.86 1.42 9.8
11/5/2022 8:45:00 AM 10.04 50.072 0.589 7.88 1.44 9.95
11/5/2022 9:00:00 AM 10.12 50.216 0.589 7.9 1.47 10.07
11/5/2022 9:15:00 AM 10.2 50.36 0.589 7.91 1.45 10.14
11/5/2022 9:30:00 AM 10.28 50.504 0.589 7.91 1.51 10.22
11/5/2022 9:45:00 AM 10.32 50.576 0.589 7.92 1.4 10.25
11/5/2022 10:00:00 AM 10.38 50.684 0.589 7.91 1.38 10.33
11/5/2022 10:15:00 AM 10.43 50.774 0.589 7.95 1.41 10.47
11/5/2022 10:30:00 AM 10.48 50.864 0.588 7.97 1.6 10.69
11/5/2022 10:45:00 AM 10.6 51.08 0.588 7.98 1.35 10.77
11/5/2022 11:00:00 AM 10.66 51.188 0.588 7.98 1.28 10.79
11/5/2022 11:15:00 AM 10.69 51.242 0.587 7.99 2.59 10.93
11/5/2022 11:30:00 AM 10.75 51.35 0.587 8.02 1.27 11.09
11/5/2022 11:45:00 AM 10.85 51.53 0.586 8.02 2.57 11.17
11/5/2022 12:00:00 PM 10.93 51.674 0.586 7.99 1.27 11.03
11/5/2022 12:15:00 PM 11.05 51.89 0.585 8.04 1.34 11.25
11/5/2022 12:30:00 PM 11.18 52.124 0.585 8.06 1.36 11.34
11/5/2022 12:45:00 PM 11.33 52.394 0.585 8.07 1.38 11.47
11/5/2022 1:00:00 PM 11.43 52.574 0.584 8.11 2.09 11.54
11/5/2022 1:15:00 PM 11.49 52.682 0.584 8.13 1.3 11.61
11/5/2022 1:30:00 PM 11.48 52.664 0.584 8.09 3.2 11.6
11/5/2022 1:45:00 PM 11.44 52.592 0.585 8.02 1.09 11.48
11/5/2022 2:00:00 PM 11.42 52.556 0.585 7.98 1.07 11.26
11/5/2022 2:15:00 PM 11.35 52.43 0.585 7.98 1.06 11.3
11/5/2022 2:30:00 PM 11.32 52.376 0.584 7.98 1.06 11.35
11/5/2022 2:45:00 PM 11.29 52.322 0.585 8.01 1.09 11.46
11/5/2022 3:00:00 PM 11.3 52.34 0.585 8 1.01 11.41
11/5/2022 3:15:00 PM 11.3 52.34 0.585 8.01 1.62 11.39
11/5/2022 3:30:00 PM 11.29 52.322 0.585 7.96 0.98 11.09
11/5/2022 3:45:00 PM 11.29 52.322 0.585 7.92 1.02 10.87
11/5/2022 4:00:00 PM 11.3 52.34 0.585 7.91 1 10.72
11/5/2022 4:15:00 PM 11.32 52.376 0.585 7.91 0.94 10.62
11/5/2022 4:30:00 PM 11.34 52.412 0.585 7.85 0.97 10.4
11/5/2022 4:45:00 PM 11.36 52.448 0.585 7.86 0.93 10.31
11/5/2022 5:00:00 PM 11.38 52.484 0.585 7.85 0.94 10.27
11/5/2022 5:15:00 PM 11.4 52.52 0.585 7.83 0.9 10.18
11/5/2022 5:30:00 PM 11.43 52.574 0.585 7.82 0.89 10.12
11/5/2022 5:45:00 PM 11.45 52.61 0.584 7.82 0.98 10.07
11/5/2022 6:00:00 PM 11.47 52.646 0.584 7.8 0.92 9.97
11/5/2022 6:15:00 PM 11.49 52.682 0.584 7.79 0.89 9.87
11/5/2022 6:30:00 PM 11.51 52.718 0.584 7.77 0.85 9.77
11/5/2022 6:45:00 PM 11.55 52.79 0.584 7.75 1.14 9.67
11/5/2022 7:00:00 PM 11.57 52.826 0.584 7.72 0.87 9.27
11/5/2022 7:15:00 PM 11.59 52.862 0.584 7.73 4.7 9.33
11/5/2022 7:30:00 PM 11.63 52.934 0.584 7.7 4.3 9.19
11/5/2022 7:45:00 PM 11.65 52.97 0.583 7.7 1.04 9.17
11/5/2022 8:00:00 PM 11.68 53.024 0.583 7.69 2.1 9.15
11/5/2022 8:15:00 PM 11.7 53.06 0.583 7.7 0.86 9.09
11/5/2022 8:30:00 PM 11.71 53.078 0.583 7.71 1.02 9.21
11/5/2022 8:45:00 PM 11.74 53.132 0.583 7.7 0.97 9.17
11/5/2022 9:00:00 PM 11.78 53.204 0.583 7.69 0.88 9.08
11/5/2022 9:15:00 PM 11.82 53.276 0.583 7.69 0.96 9.07
11/5/2022 9:30:00 PM 11.86 53.348 0.582 7.69 1.02 9.01
11/5/2022 9:45:00 PM 11.91 53.438 0.583 7.68 0.91 8.85
11/5/2022 10:00:00 PM 11.96 53.528 0.582 7.66 1.16 8.66
11/5/2022 10:15:00 PM 12 53.6 0.582 7.68 1.28 8.65
11/5/2022 10:30:00 PM 12.04 53.672 0.582 7.68 0.96 8.73
11/5/2022 10:45:00 PM 12.07 53.726 0.582 7.67 0.88 8.65
11/5/2022 11:00:00 PM 12.1 53.78 0.582 7.67 2.09 8.62
11/5/2022 11:15:00 PM 12.12 53.816 0.582 7.67 0.96 8.61
11/5/2022 11:30:00 PM 12.15 53.87 0.582 7.66 0.86 8.49
11/5/2022 11:45:00 PM 12.18 53.924 0.582 7.66 0.84 8.44
11/6/2022 12:00:00 AM 12.18 53.924 0.583 7.67 1.11 8.38
11/6/2022 12:15:00 AM 12.22 53.996 0.583 7.66 0.86 8.37
11/6/2022 12:30:00 AM 12.26 54.068 0.583 7.64 0.87 8.22
11/6/2022 12:45:00 AM 12.28 54.104 0.583 7.65 0.91 8.17
11/6/2022 1:00:00 AM 12.29 54.122 0.583 7.65 0.86 8.18
11/6/2022 1:15:00 AM 12.31 54.158 0.583 7.68 0.87 8.21
11/6/2022 1:30:00 AM 12.33 54.194 0.583 7.64 0.88 8.03
11/6/2022 1:45:00 AM 12.34 54.212 0.583 7.66 0.94 8.02
11/6/2022 2:00:00 AM 12.37 54.266 0.584 7.65 0.94 7.92
11/6/2022 2:15:00 AM 12.41 54.338 0.584 7.63 0.86 7.82
11/6/2022 2:30:00 AM 12.44 54.392 0.584 7.64 0.88 7.78
11/6/2022 2:45:00 AM 12.47 54.446 0.585 7.63 1 7.7
11/6/2022 3:00:00 AM 12.48 54.464 0.585 7.62 0.9 7.66
11/6/2022 3:15:00 AM 12.55 54.59 0.585 7.63 0.88 7.66
11/6/2022 3:30:00 AM 12.52 54.536 0.585 7.62 0.91 7.53
11/6/2022 3:45:00 AM 12.55 54.59 0.586 7.63 0.79 7.47
11/6/2022 4:00:00 AM 12.59 54.662 0.586 7.62 0.89 7.45
11/6/2022 4:15:00 AM 12.67 54.806 0.588 7.62 2.43 7.26
11/6/2022 4:30:00 AM 12.67 54.806 0.588 7.61 2.35 7.2
11/6/2022 4:45:00 AM 12.69 54.842 0.588 7.62 0.91 7.14
11/6/2022 5:00:00 AM 12.72 54.896 0.588 7.6 2.42 7.14
11/6/2022 5:15:00 AM 12.7 54.86 0.588 7.62 0.94 7.12
11/6/2022 5:30:00 AM 12.75 54.95 0.588 7.63 0.97 7.17
11/6/2022 5:45:00 AM 12.76 54.968 0.589 7.62 0.95 7.14
11/6/2022 6:00:00 AM 12.75 54.95 0.589 7.61 1.2 7.03
11/6/2022 6:15:00 AM 12.77 54.986 0.589 7.61 1.02 7.05
11/6/2022 6:30:00 AM 12.79 55.022 0.589 7.6 4.5 7
11/6/2022 6:45:00 AM 12.79 55.022 0.59 7.61 1.16 6.94
11/6/2022 7:00:00 AM 12.8 55.04 0.59 7.6 1.15 6.96
11/6/2022 7:15:00 AM 12.82 55.076 0.59 7.6 0.93 6.95
11/6/2022 7:30:00 AM 12.85 55.13 0.59 7.61 1.14 6.98
11/6/2022 7:45:00 AM 12.88 55.184 0.59 7.61 0.89 7.05
11/6/2022 8:00:00 AM 12.92 55.256 0.591 7.61 0.92 7.12
11/6/2022 8:15:00 AM 12.96 55.328 0.591 7.63 0.89 7.23
11/6/2022 8:30:00 AM 12.97 55.346 0.59 7.65 0.88 7.29
11/6/2022 8:45:00 AM 13.01 55.418 0.591 7.65 0.89 7.4
11/6/2022 9:00:00 AM 13.02 55.436 0.591 7.66 0.82 7.46
11/6/2022 9:15:00 AM 13.06 55.508 0.591 7.67 0.95 7.56
11/6/2022 9:30:00 AM 13.08 55.544 0.591 7.67 1.87 7.65
11/6/2022 9:45:00 AM 13.12 55.616 0.591 7.69 0.9 7.74
11/6/2022 10:00:00 AM 13.18 55.724 0.591 7.69 0.95 7.91
11/6/2022 10:15:00 AM 13.3 55.94 0.591 7.69 0.9 8.17
11/6/2022 10:30:00 AM 13.39 56.102 0.591 7.72 1.3 8.32
11/6/2022 10:45:00 AM 13.39 56.102 0.591 7.75 1.26 8.33
11/6/2022 11:00:00 AM 13.48 56.264 0.591 7.76 1.32 8.59
11/6/2022 11:15:00 AM 13.63 56.534 0.591 7.78 1 8.96
11/6/2022 11:30:00 AM 13.68 56.624 0.59 7.8 1.58 9.06
11/6/2022 11:45:00 AM 13.62 56.516 0.59 7.81 1.15 9.16
11/6/2022 12:00:00 PM 13.63 56.534 0.589 7.83 2.09 9.29
11/6/2022 12:15:00 PM 13.64 56.552 0.59 7.86 2.38 9.48
11/6/2022 12:30:00 PM 13.64 56.552 0.589 7.86 1.69 9.55
11/6/2022 12:45:00 PM 13.67 56.606 0.589 7.87 1.46 9.51
11/6/2022 1:00:00 PM 13.66 56.588 0.588 7.9 2.29 9.77
11/6/2022 1:15:00 PM 13.77 56.786 0.589 7.87 2.92 9.8
11/6/2022 1:30:00 PM 13.78 56.804 0.588 7.86 1.58 9.72
11/6/2022 1:45:00 PM 13.8 56.84 0.589 7.85 1.73 9.67
11/6/2022 2:00:00 PM 13.75 56.75 0.587 7.86 3.07 9.8
11/6/2022 2:15:00 PM 13.75 56.75 0.588 7.88 2.15 9.93
11/6/2022 2:30:00 PM 13.8 56.84 0.588 7.85 1.83 9.84
11/6/2022 2:45:00 PM 13.84 56.912 0.588 7.84 1.71 9.74
11/6/2022 3:00:00 PM 13.86 56.948 0.588 7.84 1.49 9.79
11/6/2022 3:15:00 PM 13.9 57.02 0.588 7.84 1.39 9.73
11/6/2022 3:30:00 PM 13.92 57.056 0.587 7.84 1.4 9.76
11/6/2022 3:45:00 PM 13.92 57.056 0.587 7.83 1.23 9.68
11/6/2022 4:00:00 PM 13.96 57.128 0.587 7.82 1.11 9.6
11/6/2022 4:15:00 PM 13.97 57.146 0.587 7.81 1.04 9.51
11/6/2022 4:30:00 PM 14.01 57.218 0.587 7.78 0.87 9.41
11/6/2022 4:45:00 PM 14.04 57.272 0.587 7.78 0.85 9.25
11/6/2022 5:00:00 PM 14.09 57.362 0.587 7.76 2.3 9.12
11/6/2022 5:15:00 PM 14.13 57.434 0.587 7.76 1.18 9.03
11/6/2022 5:30:00 PM 14.17 57.506 0.587 7.74 1.06 8.92
11/6/2022 5:45:00 PM 14.2 57.56 0.586 7.74 0.99 8.81
11/6/2022 6:00:00 PM 14.21 57.578 0.586 7.72 1.3 8.58
11/6/2022 6:15:00 PM 14.23 57.614 0.586 7.71 0.96 8.5
11/6/2022 6:30:00 PM 14.25 57.65 0.586 7.7 1.35 8.38
11/6/2022 6:45:00 PM 14.31 57.758 0.586 7.67 2.23 8.19
11/6/2022 7:00:00 PM 14.32 57.776 0.586 7.66 1.33 8.05
11/6/2022 7:15:00 PM 14.34 57.812 0.585 7.65 1.02 7.93
11/6/2022 7:30:00 PM 14.36 57.848 0.585 7.64 0.96 7.86
11/6/2022 7:45:00 PM 14.39 57.902 0.585 7.64 1.04 7.77
11/6/2022 8:00:00 PM 14.43 57.974 0.585 7.62 1.01 7.63
11/6/2022 8:15:00 PM 14.45 58.01 0.585 7.64 1.04 7.64
11/6/2022 8:30:00 PM 14.48 58.064 0.585 7.63 0.97 7.68
11/6/2022 8:45:00 PM 14.53 58.154 0.585 7.64 1.56 7.71
11/6/2022 9:00:00 PM 14.58 58.244 0.584 7.64 0.94 7.7
11/6/2022 9:15:00 PM 14.61 58.298 0.584 7.64 1.16 7.68
11/6/2022 9:30:00 PM 14.66 58.388 0.584 7.64 1.23 7.65
11/6/2022 9:45:00 PM 14.64 58.352 0.583 7.65 1.23 7.76
11/6/2022 10:00:00 PM 14.8 58.64 0.583 7.65 2.6 7.72
11/6/2022 10:15:00 PM 14.83 58.694 0.583 7.65 1.59 7.62
11/6/2022 10:30:00 PM 14.81 58.658 0.582 7.65 1.19 7.59
11/6/2022 10:45:00 PM 14.81 58.658 0.583 7.65 1.39 7.58
11/6/2022 11:00:00 PM 14.8 58.64 0.583 7.64 1.39 7.47
11/6/2022 11:15:00 PM 14.8 58.64 0.583 7.64 1.59 7.44
11/6/2022 11:30:00 PM 14.78 58.604 0.583 7.64 1.15 7.42
11/6/2022 11:45:00 PM 14.76 58.568 0.583 7.69 1.34 7.39
11/7/2022 12:00:00 AM 14.79 58.622 0.583 7.73 1.91 7.67
11/7/2022 12:15:00 AM 14.79 58.622 0.583 7.75 1.93 7.79
11/7/2022 12:30:00 AM 14.82 58.676 0.582 7.79 1.57 7.93
11/7/2022 12:45:00 AM 14.79 58.622 0.582 7.82 1.77 8.17
11/7/2022 1:00:00 AM 14.75 58.55 0.582 7.84 2.09 8.16
11/7/2022 1:15:00 AM 14.74 58.532 0.582 7.85 1.83 8.21
11/7/2022 1:30:00 AM 14.71 58.478 0.582 7.85 1.87 8.24
11/7/2022 1:45:00 AM 14.66 58.388 0.582 7.85 2.99 8.23
11/7/2022 2:00:00 AM 14.6 58.28 0.583 7.83 2.9 8.22
11/7/2022 2:15:00 AM 14.52 58.136 0.583 7.84 1.59 8.26
11/7/2022 2:30:00 AM 14.4 57.92 0.583 7.82 3.2 8.23
11/7/2022 2:45:00 AM 14.29 57.722 0.584 7.82 1.8 8.23
11/7/2022 3:00:00 AM 14.2 57.56 0.584 7.79 2.02 8.15
11/7/2022 3:15:00 AM 14.09 57.362 0.585 7.8 1.77 8.18
11/7/2022 3:30:00 AM 13.99 57.182 0.585 7.78 2.17 8.11
11/7/2022 3:45:00 AM 13.9 57.02 0.586 7.77 2.25 8.08
11/7/2022 4:00:00 AM 13.77 56.786 0.586 7.78 1.73 8.17
11/7/2022 4:15:00 AM 13.65 56.57 0.586 7.78 1.88 8.18
11/7/2022 4:30:00 AM 13.54 56.372 0.587 7.78 1.99 8.16
11/7/2022 4:45:00 AM 13.43 56.174 0.587 7.77 1.81 8.18
11/7/2022 5:00:00 AM 13.31 55.958 0.587 7.78 1.6 8.23
11/7/2022 5:15:00 AM 13.21 55.778 0.588 7.77 1.77 8.25
11/7/2022 5:30:00 AM 13.12 55.616 0.588 7.76 3.71 8.24
11/7/2022 5:45:00 AM 13 55.4 0.588 7.77 1.95 8.3
11/7/2022 6:00:00 AM 12.93 55.274 0.588 7.75 1.74 8.28
11/7/2022 6:15:00 AM 12.85 55.13 0.588 7.76 2.13 8.28
11/7/2022 6:30:00 AM 12.74 54.932 0.588 7.75 1.55 8.33
11/7/2022 6:45:00 AM 12.66 54.788 0.588 7.76 2.91 8.33
11/7/2022 7:00:00 AM 12.56 54.608 0.588 7.76 1.61 8.38
11/7/2022 7:15:00 AM 12.46 54.428 0.588 7.76 1.41 8.47
11/7/2022 7:30:00 AM 12.35 54.23 0.588 7.78 2.52 8.61
11/7/2022 7:45:00 AM 12.29 54.122 0.587 7.79 1.49 8.7
11/7/2022 8:00:00 AM 12.24 54.032 0.587 7.8 1.82 8.82
11/7/2022 8:15:00 AM 12.21 53.978 0.587 7.81 3.22 8.98
11/7/2022 8:30:00 AM 12.2 53.96 0.587 7.82 1.35 9.05
11/7/2022 8:45:00 AM 12.14 53.852 0.587 7.84 1.3 9.24
11/7/2022 9:00:00 AM 12.21 53.978 0.587 7.84 1.39 9.27
11/7/2022 9:15:00 AM 12.37 54.266 0.586 7.9 1.88 9.7
11/7/2022 9:30:00 AM 12.49 54.482 0.586 7.93 1.26 9.95
11/7/2022 9:45:00 AM 12.62 54.716 0.585 7.96 1.3 10.15
11/7/2022 10:00:00 AM 12.73 54.914 0.585 7.98 1.28 10.27
11/7/2022 10:15:00 AM 12.84 55.112 0.585 8.01 2.35 10.46
11/7/2022 10:30:00 AM 12.93 55.274 0.584 8.03 1.41 10.61
11/7/2022 10:45:00 AM 13 55.4 0.584 8.02 1.32 10.6
11/7/2022 11:00:00 AM 13.04 55.472 0.584 8.01 1.58 10.59
11/7/2022 11:15:00 AM 13.07 55.526 0.583 8.03 1.32 10.7
11/7/2022 11:30:00 AM 13.09 55.562 0.584 8.04 1.27 10.69
11/7/2022 11:45:00 AM 13.13 55.634 0.583 8.05 2.59 10.76
11/7/2022 12:00:00 PM 13.22 55.796 0.583 8.09 1.25 10.89
11/7/2022 12:15:00 PM 13.38 56.084 0.583 8.11 3.39 11.05
11/7/2022 12:30:00 PM 13.55 56.39 0.582 8.16 1.39 11.23
11/7/2022 12:45:00 PM 13.65 56.57 0.582 8.15 1.35 11.23
11/7/2022 1:00:00 PM 13.73 56.714 0.581 8.17 1.28 11.27
11/7/2022 1:15:00 PM 13.83 56.894 0.58 8.22 1.98 11.47
11/7/2022 1:30:00 PM 13.87 56.966 0.58 8.23 1.8 11.55
11/7/2022 1:45:00 PM 13.89 57.002 0.581 8.17 1.3 11.37
11/7/2022 2:00:00 PM 13.9 57.02 0.579 8.21 1.35 11.37
11/7/2022 2:15:00 PM 13.89 57.002 0.58 8.18 1.51 11.3
11/7/2022 2:30:00 PM 13.89 57.002 0.579 8.19 2.66 11.29
11/7/2022 2:45:00 PM 13.87 56.966 0.579 8.21 2.29 11.27
11/7/2022 3:00:00 PM 13.84 56.912 0.579 8.18 2.95 11.15
11/7/2022 3:15:00 PM 13.8 56.84 0.578 8.21 1.35 11.2
11/7/2022 3:30:00 PM 13.77 56.786 0.578 8.21 1.78 11.17
11/7/2022 3:45:00 PM 13.73 56.714 0.578 8.2 1.4 11.1
11/7/2022 4:00:00 PM 13.67 56.606 0.578 8.14 1.3 10.94
11/7/2022 4:15:00 PM 13.63 56.534 0.577 8.19 1.34 10.99
11/7/2022 4:30:00 PM 13.58 56.444 0.576 8.23 1.43 11.06
11/7/2022 4:45:00 PM 13.5 56.3 0.575 8.23 1.43 10.97
11/7/2022 5:00:00 PM 13.43 56.174 0.575 8.19 2.83 10.8
11/7/2022 5:15:00 PM 13.4 56.12 0.575 8.23 1.31 10.78
11/7/2022 5:30:00 PM 13.33 55.994 0.574 8.23 3.04 10.75
11/7/2022 5:45:00 PM 13.27 55.886 0.574 8.22 2.77 10.68
11/7/2022 6:00:00 PM 13.19 55.742 0.574 8.22 3.39 10.63
11/7/2022 6:15:00 PM 13.11 55.598 0.574 8.2 1.57 10.56
11/7/2022 6:30:00 PM 13.02 55.436 0.574 8.18 1.55 10.46
11/7/2022 6:45:00 PM 12.94 55.292 0.574 8.17 1.54 10.39
11/7/2022 7:00:00 PM 12.87 55.166 0.574 8.17 1.49 10.38
11/7/2022 7:15:00 PM 12.79 55.022 0.574 8.16 1.54 10.32
11/7/2022 7:30:00 PM 12.72 54.896 0.574 8.13 1.51 10.26
11/7/2022 7:45:00 PM 12.64 54.752 0.574 8.14 1.43 10.21
11/7/2022 8:00:00 PM 12.57 54.626 0.573 8.13 1.6 10.19
11/7/2022 8:15:00 PM 12.51 54.518 0.574 8.13 1.54 10.14
11/7/2022 8:30:00 PM 12.43 54.374 0.574 8.12 1.36 10.09
11/7/2022 8:45:00 PM 12.36 54.248 0.574 8.1 1.39 10.03
11/7/2022 9:00:00 PM 12.26 54.068 0.574 8.08 1.35 9.95
11/7/2022 9:15:00 PM 12.14 53.852 0.574 8.1 1.38 9.96
11/7/2022 9:30:00 PM 12.05 53.69 0.574 8.08 1.45 9.89
11/7/2022 9:45:00 PM 11.95 53.51 0.574 8.07 1.41 9.83
11/7/2022 10:00:00 PM 11.78 53.204 0.575 8.06 1.54 9.83
11/7/2022 10:15:00 PM 11.6 52.88 0.575 8.07 1.63 9.8
11/7/2022 10:30:00 PM 11.46 52.628 0.576 8.03 1.61 9.73
11/7/2022 10:45:00 PM 11.31 52.358 0.576 8.02 1.41 9.67
11/7/2022 11:00:00 PM 11.15 52.07 0.577 8.01 2.66 9.66
11/7/2022 11:15:00 PM 11.03 51.854 0.577 8 1.35 9.65
11/7/2022 11:30:00 PM 10.93 51.674 0.577 7.98 1.4 9.6
11/7/2022 11:45:00 PM 10.78 51.404 0.577 7.98 2.67 9.62
11/8/2022 12:00:00 AM 10.72 51.296 0.578 7.97 1.34 9.59
11/8/2022 12:15:00 AM 10.63 51.134 0.578 7.96 2.28 9.56
11/8/2022 12:30:00 AM 10.5 50.9 0.578 7.95 1.51 9.56
11/8/2022 12:45:00 AM 10.36 50.648 0.578 7.95 1.39 9.57
11/8/2022 1:00:00 AM 10.24 50.432 0.579 7.93 1.41 9.57
11/8/2022 1:15:00 AM 10.14 50.252 0.579 7.92 1.47 9.55
11/8/2022 1:30:00 AM 10.04 50.072 0.579 7.91 1.56 9.55
11/8/2022 1:45:00 AM 9.91 49.838 0.579 7.9 1.42 9.58
11/8/2022 2:00:00 AM 9.81 49.658 0.58 7.9 1.47 9.58
11/8/2022 2:15:00 AM 9.71 49.478 0.58 7.89 1.42 9.59
11/8/2022 2:30:00 AM 9.61 49.298 0.58 7.9 2.91 9.64
11/8/2022 2:45:00 AM 9.55 49.19 0.58 7.9 1.4 9.68
11/8/2022 3:00:00 AM 9.5 49.1 0.581 7.9 1.37 9.69
11/8/2022 3:15:00 AM 9.42 48.956 0.581 7.88 1.35 9.64
11/8/2022 3:30:00 AM 9.24 48.632 0.582 7.88 2.57 9.71
11/8/2022 3:45:00 AM 9.13 48.434 0.582 7.88 1.49 9.74
11/8/2022 4:00:00 AM 9.01 48.218 0.582 7.86 1.39 9.76
11/8/2022 4:15:00 AM 8.91 48.038 0.583 7.87 1.32 9.78
11/8/2022 4:30:00 AM 8.82 47.876 0.583 7.87 1.29 9.82
11/8/2022 4:45:00 AM 8.77 47.786 0.584 7.87 1.36 9.83
11/8/2022 5:00:00 AM 8.75 47.75 0.585 7.86 1.4 9.86
11/8/2022 5:15:00 AM 8.73 47.714 0.585 7.87 1.35 9.87
11/8/2022 5:30:00 AM 8.72 47.696 0.585 7.85 1.31 9.86
11/8/2022 5:45:00 AM 8.66 47.588 0.586 7.86 1.33 9.89
11/8/2022 6:00:00 AM 8.57 47.426 0.586 7.86 1.39 9.95
11/8/2022 6:15:00 AM 8.52 47.336 0.587 7.86 1.56 9.97
11/8/2022 6:30:00 AM 8.5 47.3 0.587 7.85 2.29 9.95
11/8/2022 6:45:00 AM 8.36 47.048 0.588 7.85 3.63 10
11/8/2022 7:00:00 AM 8.19 46.742 0.588 7.85 1.3 10.1
11/8/2022 7:15:00 AM 8.13 46.634 0.589 7.85 1.27 10.19
11/8/2022 7:30:00 AM 8.05 46.49 0.589 7.87 1.25 10.32
11/8/2022 7:45:00 AM 7.99 46.382 0.589 7.88 1.3 10.44
11/8/2022 8:00:00 AM 7.92 46.256 0.589 7.89 1.26 10.56
11/8/2022 8:15:00 AM 7.88 46.184 0.59 7.9 2.51 10.7
11/8/2022 8:30:00 AM 7.93 46.274 0.59 7.91 1.28 10.78
11/8/2022 8:45:00 AM 7.85 46.13 0.59 7.94 1.27 10.92
11/8/2022 9:00:00 AM 7.85 46.13 0.59 7.94 1.33 11.06
11/8/2022 9:15:00 AM 8.01 46.418 0.591 7.98 3.71 11.31
11/8/2022 9:30:00 AM 8.13 46.634 0.59 8 1.26 11.43
11/8/2022 9:45:00 AM 8.1 46.58 0.591 8.03 1.28 11.63
11/8/2022 10:00:00 AM 8.25 46.85 0.59 8.07 1.27 11.92
11/8/2022 10:15:00 AM 8.49 47.282 0.59 8.07 2.06 11.97
11/8/2022 10:30:00 AM 8.65 47.57 0.59 8.07 4.32 12.02
11/8/2022 10:45:00 AM 8.79 47.822 0.59 8.08 2.05 12.04
11/8/2022 11:00:00 AM 8.85 47.93 0.59 8.08 2.64 12.06
11/8/2022 11:15:00 AM 8.92 48.056 0.59 8.1 4.34 12.1
11/8/2022 11:30:00 AM 9.02 48.236 0.589 8.1 1.28 12.15
11/8/2022 11:45:00 AM 9.1 48.38 0.589 8.12 2.89 12.23
11/8/2022 12:00:00 PM 9.18 48.524 0.588 8.12 3.25 12.34
11/8/2022 12:15:00 PM 9.38 48.884 0.589 8.15 1.21 12.36
11/8/2022 12:30:00 PM 9.5 49.1 0.588 8.17 1.6 12.47
11/8/2022 12:45:00 PM 9.68 49.424 0.588 8.17 2.07 12.52
11/8/2022 1:00:00 PM 9.86 49.748 0.588 8.18 1.77 12.47
11/8/2022 1:15:00 PM 9.96 49.928 0.587 8.18 1.61 12.52
11/8/2022 1:30:00 PM 10.03 50.054 0.587 8.21 1.23 12.53
11/8/2022 1:45:00 PM 10.1 50.18 0.587 8.19 1.22 12.47
11/8/2022 2:00:00 PM 10.16 50.288 0.586 8.19 1.17 12.48
11/8/2022 2:15:00 PM 10.21 50.378 0.586 8.19 1.11 12.45
11/8/2022 2:30:00 PM 10.26 50.468 0.585 8.19 1.19 12.4
11/8/2022 2:45:00 PM 10.29 50.522 0.584 8.16 1.11 12.32
11/8/2022 3:00:00 PM 10.31 50.558 0.584 8.16 1.26 12.28
11/8/2022 3:15:00 PM 10.31 50.558 0.584 8.19 1.18 12.25
11/8/2022 3:30:00 PM 10.33 50.594 0.583 8.14 2.71 12.1
11/8/2022 3:45:00 PM 10.33 50.594 0.583 8.16 1.13 12.11
11/8/2022 4:00:00 PM 10.31 50.558 0.582 8.18 1.3 12.15
11/8/2022 4:15:00 PM 10.3 50.54 0.582 8.14 3.45 12.04
11/8/2022 4:30:00 PM 10.28 50.504 0.581 8.18 1.32 12.04
11/8/2022 4:45:00 PM 10.25 50.45 0.581 8.17 1.19 12
11/8/2022 5:00:00 PM 10.23 50.414 0.581 8.16 1.19 11.9
11/8/2022 5:15:00 PM 10.17 50.306 0.581 8.14 1.16 11.77
11/8/2022 5:30:00 PM 10.13 50.234 0.581 8.14 1.26 11.7
11/8/2022 5:45:00 PM 10.1 50.18 0.581 8.13 1.24 11.6
11/8/2022 6:00:00 PM 10.02 50.036 0.58 8.11 1.21 11.52
11/8/2022 6:15:00 PM 9.96 49.928 0.58 8.13 1.25 11.53
11/8/2022 6:30:00 PM 9.93 49.874 0.58 8.12 1.27 11.51
11/8/2022 6:45:00 PM 9.91 49.838 0.58 8.11 1.28 11.44
11/8/2022 7:00:00 PM 9.88 49.784 0.58 8.1 1.38 11.44
11/8/2022 7:15:00 PM 9.86 49.748 0.58 8.1 2.52 11.42
11/8/2022 7:30:00 PM 9.79 49.622 0.58 8.11 1.92 11.42
11/8/2022 7:45:00 PM 9.73 49.514 0.579 8.11 1.31 11.42
11/8/2022 8:00:00 PM 9.66 49.388 0.579 8.1 1.51 11.38
11/8/2022 8:15:00 PM 9.62 49.316 0.579 8.11 1.26 11.37
11/8/2022 8:30:00 PM 9.58 49.244 0.579 8.09 1.44 11.36
11/8/2022 8:45:00 PM 9.54 49.172 0.578 8.1 1.32 11.3
11/8/2022 9:00:00 PM 9.45 49.01 0.578 8.1 1.26 11.3
11/8/2022 9:15:00 PM 9.39 48.902 0.578 8.08 1.37 11.22
11/8/2022 9:30:00 PM 9.26 48.668 0.578 8.09 1.21 11.18
11/8/2022 9:45:00 PM 9.17 48.506 0.578 8.08 1.3 11.13
11/8/2022 10:00:00 PM 9.08 48.344 0.578 8.06 1.19 11.07
11/8/2022 10:15:00 PM 8.97 48.146 0.578 8.06 1.28 11.04
11/8/2022 10:30:00 PM 8.9 48.02 0.579 8.04 1.22 10.97
11/8/2022 10:45:00 PM 8.76 47.768 0.579 8.04 1.28 10.93
11/8/2022 11:00:00 PM 8.59 47.462 0.578 8.05 1.29 10.94
11/8/2022 11:15:00 PM 8.45 47.21 0.579 8.03 1.28 10.89
11/8/2022 11:30:00 PM 8.32 46.976 0.579 8.02 1.21 10.86
11/8/2022 11:45:00 PM 8.18 46.724 0.579 8.02 1.24 10.84
11/9/2022 12:00:00 AM 8.05 46.49 0.579 7.99 1.32 10.78
11/9/2022 12:15:00 AM 7.9 46.22 0.579 7.99 1.23 10.78
11/9/2022 12:30:00 AM 7.76 45.968 0.58 7.98 1.34 10.77
11/9/2022 12:45:00 AM 7.64 45.752 0.58 7.96 2.46 10.75
11/9/2022 1:00:00 AM 7.55 45.59 0.58 7.95 1.29 10.72
11/9/2022 1:15:00 AM 7.33 45.194 0.58 7.96 1.29 10.78
11/9/2022 1:30:00 AM 7.24 45.032 0.58 7.94 1.49 10.78
11/9/2022 1:45:00 AM 7.12 44.816 0.58 7.94 1.28 10.79
11/9/2022 2:00:00 AM 7.01 44.618 0.58 7.94 1.39 10.81
11/9/2022 2:15:00 AM 6.88 44.384 0.58 7.93 1.29 10.84
11/9/2022 2:30:00 AM 6.77 44.186 0.58 7.93 1.35 10.86
11/9/2022 2:45:00 AM 6.7 44.06 0.58 7.9 1.29 10.85
11/9/2022 3:00:00 AM 6.55 43.79 0.58 7.92 1.37 10.91
11/9/2022 3:15:00 AM 6.45 43.61 0.58 7.91 1.25 10.92
11/9/2022 3:30:00 AM 6.34 43.412 0.58 7.91 1.32 10.96
11/9/2022 3:45:00 AM 6.24 43.232 0.581 7.91 1.34 10.98
11/9/2022 4:00:00 AM 6.13 43.034 0.581 7.9 2.07 11.01
11/9/2022 4:15:00 AM 5.96 42.728 0.581 7.91 1.34 11.09
11/9/2022 4:30:00 AM 5.94 42.692 0.582 7.9 1.27 11.05
11/9/2022 4:45:00 AM 5.91 42.638 0.583 7.88 1.3 11.03
11/9/2022 5:00:00 AM 5.74 42.332 0.583 7.89 1.29 11.1
11/9/2022 5:15:00 AM 5.65 42.17 0.583 7.88 1.31 11.13
11/9/2022 5:30:00 AM 5.54 41.972 0.584 7.89 1.35 11.17
11/9/2022 5:45:00 AM 5.43 41.774 0.584 7.9 1.28 11.21
11/9/2022 6:00:00 AM 5.37 41.666 0.585 7.89 1.23 11.23
11/9/2022 6:15:00 AM 5.27 41.486 0.585 7.89 1.32 11.28
11/9/2022 6:30:00 AM 5.2 41.36 0.586 7.89 1.24 11.3
11/9/2022 6:45:00 AM 5.11 41.198 0.586 7.89 1.21 11.34
11/9/2022 7:00:00 AM 5.03 41.054 0.587 7.89 1.23 11.38
11/9/2022 7:15:00 AM 4.94 40.892 0.587 7.89 1.26 11.44
11/9/2022 7:30:00 AM 4.88 40.784 0.588 7.9 1.29 11.55
11/9/2022 7:45:00 AM 4.83 40.694 0.588 7.9 1.22 11.65
11/9/2022 8:00:00 AM 4.77 40.586 0.589 7.92 1.17 11.75
11/9/2022 8:15:00 AM 4.76 40.568 0.589 7.93 1.19 11.84
11/9/2022 8:30:00 AM 4.74 40.532 0.59 7.92 1.2 11.95
11/9/2022 8:45:00 AM 4.74 40.532 0.59 7.95 1.2 12.01
11/9/2022 9:00:00 AM 4.73 40.514 0.59 7.95 1.18 12.09
11/9/2022 9:15:00 AM 4.89 40.802 0.59 7.98 1.17 12.24
11/9/2022 9:30:00 AM 5.15 41.27 0.59 7.99 1.18 12.39
11/9/2022 9:45:00 AM 5.3 41.54 0.59 8.02 1.19 12.51
11/9/2022 10:00:00 AM 5.46 41.828 0.589 8.04 1.23 12.64
11/9/2022 10:15:00 AM 5.62 42.116 0.589 8.06 1.19 12.74
11/9/2022 10:30:00 AM 5.78 42.404 0.589 8.07 1.15 12.84
11/9/2022 10:45:00 AM 5.87 42.566 0.589 8.09 1.18 12.94
11/9/2022 11:00:00 AM 5.98 42.764 0.589 8.09 1.19 12.91
11/9/2022 11:15:00 AM 6.06 42.908 0.589 8.09 1.19 12.91
11/9/2022 11:30:00 AM 6.11 42.998 0.589 8.08 1.15 12.92
11/9/2022 11:45:00 AM 6.18 43.124 0.589 8.1 1.16 12.93
11/9/2022 12:00:00 PM 6.36 43.448 0.589 8.09 1.13 12.97
11/9/2022 12:15:00 PM 6.47 43.646 0.588 8.1 1.17 13.04
11/9/2022 12:30:00 PM 6.63 43.934 0.588 8.1 1.16 13.07
11/9/2022 12:45:00 PM 6.8 44.24 0.588 8.1 1.13 13.1
11/9/2022 1:00:00 PM 7.02 44.636 0.587 8.11 1.15 13.08
11/9/2022 1:15:00 PM 7.09 44.762 0.587 8.12 1.11 13.08
11/9/2022 1:30:00 PM 7.2 44.96 0.587 8.11 1.08 13.06
11/9/2022 1:45:00 PM 7.3 45.14 0.586 8.1 1.09 13.03
11/9/2022 2:00:00 PM 7.4 45.32 0.586 8.1 1.14 13.02
11/9/2022 2:15:00 PM 7.48 45.464 0.586 8.11 1.14 12.97
11/9/2022 2:30:00 PM 7.54 45.572 0.586 8.1 2.37 12.9
11/9/2022 2:45:00 PM 7.61 45.698 0.585 8.08 1.05 12.8
11/9/2022 3:00:00 PM 7.66 45.788 0.585 8.09 1.58 12.8
11/9/2022 3:15:00 PM 7.69 45.842 0.585 8.09 1.1 12.76
11/9/2022 3:30:00 PM 7.72 45.896 0.585 8.07 1.67 12.69
11/9/2022 3:45:00 PM 7.77 45.986 0.585 8.06 1.93 12.58
11/9/2022 4:00:00 PM 7.81 46.058 0.585 8.06 1.91 12.5
11/9/2022 4:15:00 PM 7.83 46.094 0.585 8.08 2.08 12.57
11/9/2022 4:30:00 PM 7.89 46.202 0.584 8.07 1.94 12.42
11/9/2022 4:45:00 PM 7.92 46.256 0.584 8.08 3.73 12.44
11/9/2022 5:00:00 PM 7.98 46.364 0.584 8.05 3.48 12.29
11/9/2022 5:15:00 PM 8.02 46.436 0.584 8.01 1.06 12.09
11/9/2022 5:30:00 PM 8.04 46.472 0.583 8.05 1.04 12.12
11/9/2022 5:45:00 PM 8.05 46.49 0.583 8.06 1.1 12.06
11/9/2022 6:00:00 PM 8.05 46.49 0.583 8.07 1.15 12.08
11/9/2022 6:15:00 PM 8.05 46.49 0.583 8.07 1.09 12.04
11/9/2022 6:30:00 PM 8.05 46.49 0.582 8.04 1.11 11.99
11/9/2022 6:45:00 PM 8.05 46.49 0.582 8.09 1.09 12.03
11/9/2022 7:00:00 PM 8.04 46.472 0.582 8.08 1.22 11.98
11/9/2022 7:15:00 PM 8.03 46.454 0.582 8.07 1.16 11.96
11/9/2022 7:30:00 PM 8.04 46.472 0.582 8.05 1.14 11.88
11/9/2022 7:45:00 PM 8.03 46.454 0.581 8.08 1.2 11.93
11/9/2022 8:00:00 PM 8.01 46.418 0.581 8.07 1.17 11.93
11/9/2022 8:15:00 PM 7.99 46.382 0.581 8.09 1.12 11.95
11/9/2022 8:30:00 PM 7.97 46.346 0.582 8.08 2.45 11.94
11/9/2022 8:45:00 PM 7.94 46.292 0.581 8.1 1.15 11.96
11/9/2022 9:00:00 PM 7.91 46.238 0.581 8.09 2.37 11.96
11/9/2022 9:15:00 PM 7.87 46.166 0.581 8.1 1.18 11.94
11/9/2022 9:30:00 PM 7.84 46.112 0.581 8.1 1.23 11.89
11/9/2022 9:45:00 PM 7.81 46.058 0.581 8.09 1.13 11.84
11/9/2022 10:00:00 PM 7.76 45.968 0.581 8.08 1.19 11.78
11/9/2022 10:15:00 PM 7.69 45.842 0.581 8.08 1.17 11.73
11/9/2022 10:30:00 PM 7.61 45.698 0.581 8.08 1.15 11.7
11/9/2022 10:45:00 PM 7.53 45.554 0.581 8.06 1.15 11.62
11/9/2022 11:00:00 PM 7.47 45.446 0.582 8.06 1.11 11.56
11/9/2022 11:15:00 PM 7.4 45.32 0.582 8.05 1.18 11.51
11/9/2022 11:30:00 PM 7.31 45.158 0.582 8.04 1.2 11.46
11/9/2022 11:45:00 PM 7.23 45.014 0.582 8.03 1.2 11.4
11/10/2022 12:00:00 AM 7.13 44.834 0.583 8.01 1.22 11.33
11/10/2022 12:15:00 AM 7.04 44.672 0.583 8 1.15 11.29
11/10/2022 12:30:00 AM 6.92 44.456 0.583 7.99 1.21 11.25
11/10/2022 12:45:00 AM 6.85 44.33 0.584 7.97 1.18 11.21
11/10/2022 1:00:00 AM 6.73 44.114 0.583 7.97 1.15 11.2
11/10/2022 1:15:00 AM 6.65 43.97 0.584 7.97 1.18 11.18
11/10/2022 1:30:00 AM 6.57 43.826 0.584 7.96 1.21 11.16
11/10/2022 1:45:00 AM 6.48 43.664 0.584 7.96 1.19 11.16
11/10/2022 2:00:00 AM 6.42 43.556 0.584 7.95 1.19 11.15
11/10/2022 2:15:00 AM 6.34 43.412 0.584 7.94 1.2 11.15
11/10/2022 2:30:00 AM 6.29 43.322 0.584 7.94 1.18 11.14
11/10/2022 2:45:00 AM 6.21 43.178 0.584 7.94 1.18 11.16
11/10/2022 3:00:00 AM 6.12 43.016 0.584 7.94 1.16 11.19
11/10/2022 3:15:00 AM 6.1 42.98 0.584 7.93 1.48 11.15
11/10/2022 3:30:00 AM 6 42.8 0.584 7.93 1.28 11.19
11/10/2022 3:45:00 AM 6 42.8 0.585 7.92 1.24 11.13
11/10/2022 4:00:00 AM 5.88 42.584 0.584 7.93 1.15 11.22
11/10/2022 4:15:00 AM 5.82 42.476 0.585 7.93 1.19 11.23
11/10/2022 4:30:00 AM 5.76 42.368 0.585 7.92 1.3 11.24
11/10/2022 4:45:00 AM 5.72 42.296 0.585 7.91 1.19 11.22
11/10/2022 5:00:00 AM 5.63 42.134 0.586 7.92 1.15 11.26
11/10/2022 5:15:00 AM 5.58 42.044 0.586 7.91 1.19 11.26
11/10/2022 5:30:00 AM 5.5 41.9 0.586 7.91 1.19 11.28
11/10/2022 5:45:00 AM 5.43 41.774 0.586 7.91 1.14 11.32
11/10/2022 6:00:00 AM 5.41 41.738 0.587 7.9 1.13 11.3
11/10/2022 6:15:00 AM 5.3 41.54 0.587 7.91 1.17 11.35
11/10/2022 6:30:00 AM 5.28 41.504 0.587 7.9 1.26 11.34
11/10/2022 6:45:00 AM 5.2 41.36 0.588 7.89 1.14 11.37
11/10/2022 7:00:00 AM 5.18 41.324 0.588 7.9 1.18 11.37
11/10/2022 7:15:00 AM 5.1 41.18 0.588 7.91 1.15 11.43
11/10/2022 7:30:00 AM 5.06 41.108 0.589 7.91 1.11 11.52
11/10/2022 7:45:00 AM 5.06 41.108 0.589 7.91 1.66 11.57
11/10/2022 8:00:00 AM 5 41 0.589 7.92 1.15 11.68
11/10/2022 8:15:00 AM 4.98 40.964 0.589 7.94 1.18 11.79
11/10/2022 8:30:00 AM 4.97 40.946 0.589 7.96 1.1 11.92
11/10/2022 8:45:00 AM 4.99 40.982 0.59 7.96 1.18 11.97
11/10/2022 9:00:00 AM 5.06 41.108 0.59 7.96 1.15 11.98
11/10/2022 9:15:00 AM 5.19 41.342 0.59 7.98 1.18